<?xml version="1.0" encoding="UTF-8"?>
<gpx version="1.1" creator="https://www.www-youtrack-es.amenigma.com" xsi:schemaLocation="http://www.topografix.com/GPX/1/1 http://www.topografix.com/GPX/1/1/gpx.xsd http://www.garmin.com/xmlschemas/GpxExtensions/v3 http://www.garmin.com/xmlschemas/GpxExtensionsv3.xsd http://www.garmin.com/xmlschemas/TrackPointExtension/v1 http://www.garmin.com/xmlschemas/TrackPointExtensionv1.xsd" xmlns:gpxtpx="http://www.garmin.com/xmlschemas/TrackPointExtension/v1" xmlns:gpxx="http://www.garmin.com/xmlschemas/GpxExtensions/v3" xmlns:xsi="http://www.w3.org/2001/XMLSchema-instance">
  <metadata>
    <author>
      <name>Joaquim Santos</name>
      <email id="quimis" domain="meo.pt"/>
    </author>
    <link href="https://www.www-youtrack-es.amenigma.com">
      <text>YouTrack.es</text>
    </link>
    <time>2026-08-31T20:22:48Z</time>
  </metadata>
  <trk>
    <src>https://www.www-youtrack-es.amenigma.com</src>
    <link href="https://www.www-youtrack-es.amenigma.com/ruta/6107-4-linhares-vide-btt">
      <text>YouTrack.es</text>
    </link>
    <trkseg>
      <trkpt lat="40.54028" lon="-7.463777">
        <ele>772.012</ele>
        <time>2010-01-01T00:00:00Z</time>
      </trkpt>
      <trkpt lat="40.540255" lon="-7.463443">
        <ele>774.032</ele>
        <time>2010-01-01T00:00:10Z</time>
      </trkpt>
      <trkpt lat="40.540347" lon="-7.463313">
        <ele>775.005</ele>
        <time>2010-01-01T00:00:15Z</time>
      </trkpt>
      <trkpt lat="40.540239" lon="-7.462872">
        <ele>778.008</ele>
        <time>2010-01-01T00:00:29Z</time>
      </trkpt>
      <trkpt lat="40.540131" lon="-7.462613">
        <ele>781.034</ele>
        <time>2010-01-01T00:00:38Z</time>
      </trkpt>
      <trkpt lat="40.540039" lon="-7.462423">
        <ele>784.017</ele>
        <time>2010-01-01T00:00:45Z</time>
      </trkpt>
      <trkpt lat="40.539882" lon="-7.462211">
        <ele>787.07</ele>
        <time>2010-01-01T00:00:54Z</time>
      </trkpt>
      <trkpt lat="40.539709" lon="-7.462046">
        <ele>788.066</ele>
        <time>2010-01-01T00:01:03Z</time>
      </trkpt>
      <trkpt lat="40.539591" lon="-7.46225">
        <ele>786.029</ele>
        <time>2010-01-01T00:01:10Z</time>
      </trkpt>
      <trkpt lat="40.539426" lon="-7.462472">
        <ele>784.048</ele>
        <time>2010-01-01T00:01:20Z</time>
      </trkpt>
      <trkpt lat="40.539063" lon="-7.462489">
        <ele>781.072</ele>
        <time>2010-01-01T00:01:34Z</time>
      </trkpt>
      <trkpt lat="40.538718" lon="-7.462357">
        <ele>781.095</ele>
        <time>2010-01-01T00:01:49Z</time>
      </trkpt>
      <trkpt lat="40.538592" lon="-7.462235">
        <ele>782.087</ele>
        <time>2010-01-01T00:01:55Z</time>
      </trkpt>
      <trkpt lat="40.538526" lon="-7.462111">
        <ele>784.042</ele>
        <time>2010-01-01T00:02:00Z</time>
      </trkpt>
      <trkpt lat="40.538383" lon="-7.461929">
        <ele>784.026</ele>
        <time>2010-01-01T00:02:08Z</time>
      </trkpt>
      <trkpt lat="40.538176" lon="-7.461742">
        <ele>784.008</ele>
        <time>2010-01-01T00:02:18Z</time>
      </trkpt>
      <trkpt lat="40.538061" lon="-7.461618">
        <ele>783.061</ele>
        <time>2010-01-01T00:02:24Z</time>
      </trkpt>
      <trkpt lat="40.537828" lon="-7.461321">
        <ele>778.054</ele>
        <time>2010-01-01T00:02:37Z</time>
      </trkpt>
      <trkpt lat="40.537599" lon="-7.460702">
        <ele>774.077</ele>
        <time>2010-01-01T00:02:58Z</time>
      </trkpt>
      <trkpt lat="40.537495" lon="-7.460418">
        <ele>772.053</ele>
        <time>2010-01-01T00:03:07Z</time>
      </trkpt>
      <trkpt lat="40.537412" lon="-7.460317">
        <ele>770.066</ele>
        <time>2010-01-01T00:03:12Z</time>
      </trkpt>
      <trkpt lat="40.537293" lon="-7.459905">
        <ele>768.065</ele>
        <time>2010-01-01T00:03:25Z</time>
      </trkpt>
      <trkpt lat="40.537176" lon="-7.459613">
        <ele>764.099</ele>
        <time>2010-01-01T00:03:35Z</time>
      </trkpt>
      <trkpt lat="40.536964" lon="-7.459254">
        <ele>763.062</ele>
        <time>2010-01-01T00:03:49Z</time>
      </trkpt>
      <trkpt lat="40.536198" lon="-7.459473">
        <ele>770.062</ele>
        <time>2010-01-01T00:04:20Z</time>
      </trkpt>
      <trkpt lat="40.535649" lon="-7.459551">
        <ele>769.083</ele>
        <time>2010-01-01T00:04:42Z</time>
      </trkpt>
      <trkpt lat="40.53541" lon="-7.459513">
        <ele>770.011</ele>
        <time>2010-01-01T00:04:52Z</time>
      </trkpt>
      <trkpt lat="40.535193" lon="-7.459529">
        <ele>771.008</ele>
        <time>2010-01-01T00:05:01Z</time>
      </trkpt>
      <trkpt lat="40.534809" lon="-7.459696">
        <ele>768.099</ele>
        <time>2010-01-01T00:05:17Z</time>
      </trkpt>
      <trkpt lat="40.534321" lon="-7.459614">
        <ele>767.032</ele>
        <time>2010-01-01T00:05:37Z</time>
      </trkpt>
      <trkpt lat="40.534088" lon="-7.459543">
        <ele>768.085</ele>
        <time>2010-01-01T00:05:46Z</time>
      </trkpt>
      <trkpt lat="40.534007" lon="-7.459566">
        <ele>768.021</ele>
        <time>2010-01-01T00:05:50Z</time>
      </trkpt>
      <trkpt lat="40.533938" lon="-7.459684">
        <ele>767.024</ele>
        <time>2010-01-01T00:05:54Z</time>
      </trkpt>
      <trkpt lat="40.533951" lon="-7.459789">
        <ele>767.043</ele>
        <time>2010-01-01T00:05:57Z</time>
      </trkpt>
      <trkpt lat="40.533977" lon="-7.459898">
        <ele>766.097</ele>
        <time>2010-01-01T00:06:01Z</time>
      </trkpt>
      <trkpt lat="40.533948" lon="-7.460484">
        <ele>769.08</ele>
        <time>2010-01-01T00:06:19Z</time>
      </trkpt>
      <trkpt lat="40.533915" lon="-7.460677">
        <ele>771.069</ele>
        <time>2010-01-01T00:06:25Z</time>
      </trkpt>
      <trkpt lat="40.533815" lon="-7.460823">
        <ele>774.004</ele>
        <time>2010-01-01T00:06:31Z</time>
      </trkpt>
      <trkpt lat="40.533592" lon="-7.461285">
        <ele>778.024</ele>
        <time>2010-01-01T00:06:47Z</time>
      </trkpt>
      <trkpt lat="40.533359" lon="-7.461634">
        <ele>781.008</ele>
        <time>2010-01-01T00:07:01Z</time>
      </trkpt>
      <trkpt lat="40.533192" lon="-7.461692">
        <ele>785.049</ele>
        <time>2010-01-01T00:07:08Z</time>
      </trkpt>
      <trkpt lat="40.533011" lon="-7.461978">
        <ele>788.052</ele>
        <time>2010-01-01T00:07:20Z</time>
      </trkpt>
      <trkpt lat="40.532757" lon="-7.462349">
        <ele>793.015</ele>
        <time>2010-01-01T00:07:35Z</time>
      </trkpt>
      <trkpt lat="40.532534" lon="-7.462523">
        <ele>797.061</ele>
        <time>2010-01-01T00:07:45Z</time>
      </trkpt>
      <trkpt lat="40.532411" lon="-7.462563">
        <ele>799.084</ele>
        <time>2010-01-01T00:07:50Z</time>
      </trkpt>
      <trkpt lat="40.532347" lon="-7.462582">
        <ele>799.083</ele>
        <time>2010-01-01T00:07:53Z</time>
      </trkpt>
      <trkpt lat="40.532119" lon="-7.462635">
        <ele>803.027</ele>
        <time>2010-01-01T00:08:02Z</time>
      </trkpt>
      <trkpt lat="40.531785" lon="-7.462707">
        <ele>809.04</ele>
        <time>2010-01-01T00:08:16Z</time>
      </trkpt>
      <trkpt lat="40.531675" lon="-7.462802">
        <ele>810.019</ele>
        <time>2010-01-01T00:08:21Z</time>
      </trkpt>
      <trkpt lat="40.531431" lon="-7.463002">
        <ele>814.009</ele>
        <time>2010-01-01T00:08:33Z</time>
      </trkpt>
      <trkpt lat="40.531229" lon="-7.463193">
        <ele>820.019</ele>
        <time>2010-01-01T00:08:42Z</time>
      </trkpt>
      <trkpt lat="40.531177" lon="-7.46358">
        <ele>819.008</ele>
        <time>2010-01-01T00:08:54Z</time>
      </trkpt>
      <trkpt lat="40.531187" lon="-7.463766">
        <ele>819.054</ele>
        <time>2010-01-01T00:09:00Z</time>
      </trkpt>
      <trkpt lat="40.531069" lon="-7.46398">
        <ele>823.027</ele>
        <time>2010-01-01T00:09:08Z</time>
      </trkpt>
      <trkpt lat="40.530994" lon="-7.463984">
        <ele>825.08</ele>
        <time>2010-01-01T00:09:11Z</time>
      </trkpt>
      <trkpt lat="40.530898" lon="-7.463929">
        <ele>826.096</ele>
        <time>2010-01-01T00:09:15Z</time>
      </trkpt>
      <trkpt lat="40.530754" lon="-7.46397">
        <ele>830.019</ele>
        <time>2010-01-01T00:09:21Z</time>
      </trkpt>
      <trkpt lat="40.530446" lon="-7.464184">
        <ele>835.088</ele>
        <time>2010-01-01T00:09:35Z</time>
      </trkpt>
      <trkpt lat="40.529621" lon="-7.464636">
        <ele>826.022</ele>
        <time>2010-01-01T00:10:11Z</time>
      </trkpt>
      <trkpt lat="40.529459" lon="-7.464631">
        <ele>824.075</ele>
        <time>2010-01-01T00:10:17Z</time>
      </trkpt>
      <trkpt lat="40.529106" lon="-7.464655">
        <ele>818.027</ele>
        <time>2010-01-01T00:10:32Z</time>
      </trkpt>
      <trkpt lat="40.528779" lon="-7.464505">
        <ele>814.068</ele>
        <time>2010-01-01T00:10:45Z</time>
      </trkpt>
      <trkpt lat="40.528405" lon="-7.46429">
        <ele>810.014</ele>
        <time>2010-01-01T00:11:02Z</time>
      </trkpt>
      <trkpt lat="40.528119" lon="-7.464043">
        <ele>807.008</ele>
        <time>2010-01-01T00:11:16Z</time>
      </trkpt>
      <trkpt lat="40.52787" lon="-7.46388">
        <ele>803.015</ele>
        <time>2010-01-01T00:11:27Z</time>
      </trkpt>
      <trkpt lat="40.527215" lon="-7.463783">
        <ele>794.088</ele>
        <time>2010-01-01T00:11:53Z</time>
      </trkpt>
      <trkpt lat="40.526918" lon="-7.463699">
        <ele>793.031</ele>
        <time>2010-01-01T00:12:05Z</time>
      </trkpt>
      <trkpt lat="40.526526" lon="-7.463753">
        <ele>794.087</ele>
        <time>2010-01-01T00:12:21Z</time>
      </trkpt>
      <trkpt lat="40.526347" lon="-7.464121">
        <ele>793.05</ele>
        <time>2010-01-01T00:12:34Z</time>
      </trkpt>
      <trkpt lat="40.526283" lon="-7.464408">
        <ele>792.059</ele>
        <time>2010-01-01T00:12:43Z</time>
      </trkpt>
      <trkpt lat="40.526094" lon="-7.464624">
        <ele>795.073</ele>
        <time>2010-01-01T00:12:53Z</time>
      </trkpt>
      <trkpt lat="40.525628" lon="-7.464779">
        <ele>804.086</ele>
        <time>2010-01-01T00:13:13Z</time>
      </trkpt>
      <trkpt lat="40.525256" lon="-7.464932">
        <ele>808.089</ele>
        <time>2010-01-01T00:13:28Z</time>
      </trkpt>
      <trkpt lat="40.524976" lon="-7.465125">
        <ele>808.006</ele>
        <time>2010-01-01T00:13:41Z</time>
      </trkpt>
      <trkpt lat="40.524839" lon="-7.465204">
        <ele>808.026</ele>
        <time>2010-01-01T00:13:47Z</time>
      </trkpt>
      <trkpt lat="40.524441" lon="-7.465476">
        <ele>809.008</ele>
        <time>2010-01-01T00:14:05Z</time>
      </trkpt>
      <trkpt lat="40.524314" lon="-7.465449">
        <ele>810.031</ele>
        <time>2010-01-01T00:14:10Z</time>
      </trkpt>
      <trkpt lat="40.523556" lon="-7.465208">
        <ele>819.084</ele>
        <time>2010-01-01T00:14:41Z</time>
      </trkpt>
      <trkpt lat="40.523049" lon="-7.465481">
        <ele>828.037</ele>
        <time>2010-01-01T00:15:03Z</time>
      </trkpt>
      <trkpt lat="40.522732" lon="-7.465754">
        <ele>837.043</ele>
        <time>2010-01-01T00:15:18Z</time>
      </trkpt>
      <trkpt lat="40.522581" lon="-7.465843">
        <ele>841.046</ele>
        <time>2010-01-01T00:15:25Z</time>
      </trkpt>
      <trkpt lat="40.522658" lon="-7.466312">
        <ele>845.075</ele>
        <time>2010-01-01T00:15:40Z</time>
      </trkpt>
      <trkpt lat="40.522814" lon="-7.46696">
        <ele>853.089</ele>
        <time>2010-01-01T00:16:00Z</time>
      </trkpt>
      <trkpt lat="40.522812" lon="-7.467254">
        <ele>857.062</ele>
        <time>2010-01-01T00:16:09Z</time>
      </trkpt>
      <trkpt lat="40.522905" lon="-7.467327">
        <ele>857.022</ele>
        <time>2010-01-01T00:16:13Z</time>
      </trkpt>
      <trkpt lat="40.523037" lon="-7.467285">
        <ele>856.062</ele>
        <time>2010-01-01T00:16:19Z</time>
      </trkpt>
      <trkpt lat="40.523107" lon="-7.467452">
        <ele>857.008</ele>
        <time>2010-01-01T00:16:25Z</time>
      </trkpt>
      <trkpt lat="40.523443" lon="-7.467963">
        <ele>859.008</ele>
        <time>2010-01-01T00:16:45Z</time>
      </trkpt>
      <trkpt lat="40.523433" lon="-7.468107">
        <ele>860.075</ele>
        <time>2010-01-01T00:16:50Z</time>
      </trkpt>
      <trkpt lat="40.523318" lon="-7.468151">
        <ele>861.018</ele>
        <time>2010-01-01T00:16:54Z</time>
      </trkpt>
      <trkpt lat="40.522175" lon="-7.468395">
        <ele>870.011</ele>
        <time>2010-01-01T00:17:41Z</time>
      </trkpt>
      <trkpt lat="40.522041" lon="-7.468305">
        <ele>873.027</ele>
        <time>2010-01-01T00:17:47Z</time>
      </trkpt>
      <trkpt lat="40.522009" lon="-7.468117">
        <ele>876.01</ele>
        <time>2010-01-01T00:17:53Z</time>
      </trkpt>
      <trkpt lat="40.522083" lon="-7.467537">
        <ele>877.029</ele>
        <time>2010-01-01T00:18:11Z</time>
      </trkpt>
      <trkpt lat="40.522033" lon="-7.467289">
        <ele>879.093</ele>
        <time>2010-01-01T00:18:18Z</time>
      </trkpt>
      <trkpt lat="40.521973" lon="-7.467188">
        <ele>881.046</ele>
        <time>2010-01-01T00:18:22Z</time>
      </trkpt>
      <trkpt lat="40.521825" lon="-7.467112">
        <ele>883.038</ele>
        <time>2010-01-01T00:18:29Z</time>
      </trkpt>
      <trkpt lat="40.521695" lon="-7.467162">
        <ele>885.07</ele>
        <time>2010-01-01T00:18:34Z</time>
      </trkpt>
      <trkpt lat="40.521696" lon="-7.467421">
        <ele>886.017</ele>
        <time>2010-01-01T00:18:42Z</time>
      </trkpt>
      <trkpt lat="40.521615" lon="-7.467727">
        <ele>888.008</ele>
        <time>2010-01-01T00:18:52Z</time>
      </trkpt>
      <trkpt lat="40.521428" lon="-7.467982">
        <ele>890.016</ele>
        <time>2010-01-01T00:19:03Z</time>
      </trkpt>
      <trkpt lat="40.521191" lon="-7.468113">
        <ele>890.039</ele>
        <time>2010-01-01T00:19:13Z</time>
      </trkpt>
      <trkpt lat="40.520653" lon="-7.46826">
        <ele>894.092</ele>
        <time>2010-01-01T00:19:35Z</time>
      </trkpt>
      <trkpt lat="40.519931" lon="-7.46826">
        <ele>907.068</ele>
        <time>2010-01-01T00:20:04Z</time>
      </trkpt>
      <trkpt lat="40.519439" lon="-7.468289">
        <ele>914.021</ele>
        <time>2010-01-01T00:20:23Z</time>
      </trkpt>
      <trkpt lat="40.519056" lon="-7.468488">
        <ele>915.01</ele>
        <time>2010-01-01T00:20:40Z</time>
      </trkpt>
      <trkpt lat="40.51821" lon="-7.469025">
        <ele>921.064</ele>
        <time>2010-01-01T00:21:18Z</time>
      </trkpt>
      <trkpt lat="40.518046" lon="-7.469105">
        <ele>921.027</ele>
        <time>2010-01-01T00:21:25Z</time>
      </trkpt>
      <trkpt lat="40.517729" lon="-7.469181">
        <ele>923.088</ele>
        <time>2010-01-01T00:21:37Z</time>
      </trkpt>
      <trkpt lat="40.517443" lon="-7.469181">
        <ele>926.024</ele>
        <time>2010-01-01T00:21:49Z</time>
      </trkpt>
      <trkpt lat="40.517173" lon="-7.469235">
        <ele>930.026</ele>
        <time>2010-01-01T00:22:00Z</time>
      </trkpt>
      <trkpt lat="40.516882" lon="-7.46943">
        <ele>931.008</ele>
        <time>2010-01-01T00:22:13Z</time>
      </trkpt>
      <trkpt lat="40.516545" lon="-7.469491">
        <ele>925.041</ele>
        <time>2010-01-01T00:22:27Z</time>
      </trkpt>
      <trkpt lat="40.516405" lon="-7.469418">
        <ele>925.024</ele>
        <time>2010-01-01T00:22:33Z</time>
      </trkpt>
      <trkpt lat="40.516324" lon="-7.469203">
        <ele>930.087</ele>
        <time>2010-01-01T00:22:40Z</time>
      </trkpt>
      <trkpt lat="40.51622" lon="-7.469069">
        <ele>931.013</ele>
        <time>2010-01-01T00:22:46Z</time>
      </trkpt>
      <trkpt lat="40.515997" lon="-7.468897">
        <ele>933.046</ele>
        <time>2010-01-01T00:22:56Z</time>
      </trkpt>
      <trkpt lat="40.515703" lon="-7.468969">
        <ele>930.095</ele>
        <time>2010-01-01T00:23:08Z</time>
      </trkpt>
      <trkpt lat="40.515529" lon="-7.468908">
        <ele>931.079</ele>
        <time>2010-01-01T00:23:15Z</time>
      </trkpt>
      <trkpt lat="40.515228" lon="-7.468724">
        <ele>935.072</ele>
        <time>2010-01-01T00:23:29Z</time>
      </trkpt>
      <trkpt lat="40.514974" lon="-7.468447">
        <ele>939.029</ele>
        <time>2010-01-01T00:23:42Z</time>
      </trkpt>
      <trkpt lat="40.514885" lon="-7.468449">
        <ele>941.0</ele>
        <time>2010-01-01T00:23:45Z</time>
      </trkpt>
      <trkpt lat="40.514811" lon="-7.468595">
        <ele>942.02</ele>
        <time>2010-01-01T00:23:51Z</time>
      </trkpt>
      <trkpt lat="40.514776" lon="-7.46884">
        <ele>943.008</ele>
        <time>2010-01-01T00:23:58Z</time>
      </trkpt>
      <trkpt lat="40.514772" lon="-7.469232">
        <ele>941.095</ele>
        <time>2010-01-01T00:24:10Z</time>
      </trkpt>
      <trkpt lat="40.514816" lon="-7.469437">
        <ele>938.078</ele>
        <time>2010-01-01T00:24:17Z</time>
      </trkpt>
      <trkpt lat="40.514816" lon="-7.469445">
        <ele>938.081</ele>
        <time>2010-01-01T00:24:17Z</time>
      </trkpt>
      <trkpt lat="40.514738" lon="-7.469697">
        <ele>937.087</ele>
        <time>2010-01-01T00:24:25Z</time>
      </trkpt>
      <trkpt lat="40.51448" lon="-7.469785">
        <ele>942.08</ele>
        <time>2010-01-01T00:24:36Z</time>
      </trkpt>
      <trkpt lat="40.514272" lon="-7.469771">
        <ele>946.079</ele>
        <time>2010-01-01T00:24:44Z</time>
      </trkpt>
      <trkpt lat="40.513693" lon="-7.469758">
        <ele>951.013</ele>
        <time>2010-01-01T00:25:07Z</time>
      </trkpt>
      <trkpt lat="40.513581" lon="-7.46994">
        <ele>951.046</ele>
        <time>2010-01-01T00:25:14Z</time>
      </trkpt>
      <trkpt lat="40.513502" lon="-7.470189">
        <ele>950.035</ele>
        <time>2010-01-01T00:25:23Z</time>
      </trkpt>
      <trkpt lat="40.513331" lon="-7.470374">
        <ele>954.086</ele>
        <time>2010-01-01T00:25:32Z</time>
      </trkpt>
      <trkpt lat="40.513213" lon="-7.47049">
        <ele>957.014</ele>
        <time>2010-01-01T00:25:37Z</time>
      </trkpt>
      <trkpt lat="40.513193" lon="-7.470668">
        <ele>959.008</ele>
        <time>2010-01-01T00:25:43Z</time>
      </trkpt>
      <trkpt lat="40.51327" lon="-7.470726">
        <ele>957.096</ele>
        <time>2010-01-01T00:25:46Z</time>
      </trkpt>
      <trkpt lat="40.513483" lon="-7.470828">
        <ele>953.019</ele>
        <time>2010-01-01T00:25:56Z</time>
      </trkpt>
      <trkpt lat="40.513659" lon="-7.470961">
        <ele>954.022</ele>
        <time>2010-01-01T00:26:04Z</time>
      </trkpt>
      <trkpt lat="40.514008" lon="-7.471508">
        <ele>961.088</ele>
        <time>2010-01-01T00:26:25Z</time>
      </trkpt>
      <trkpt lat="40.514631" lon="-7.471357">
        <ele>951.021</ele>
        <time>2010-01-01T00:26:51Z</time>
      </trkpt>
      <trkpt lat="40.514999" lon="-7.471751">
        <ele>958.03</ele>
        <time>2010-01-01T00:27:10Z</time>
      </trkpt>
      <trkpt lat="40.515368" lon="-7.471784">
        <ele>956.084</ele>
        <time>2010-01-01T00:27:25Z</time>
      </trkpt>
      <trkpt lat="40.515617" lon="-7.471919">
        <ele>956.097</ele>
        <time>2010-01-01T00:27:35Z</time>
      </trkpt>
      <trkpt lat="40.515779" lon="-7.472537">
        <ele>973.067</ele>
        <time>2010-01-01T00:27:55Z</time>
      </trkpt>
      <trkpt lat="40.516103" lon="-7.472784">
        <ele>975.081</ele>
        <time>2010-01-01T00:28:10Z</time>
      </trkpt>
      <trkpt lat="40.517369" lon="-7.473308">
        <ele>982.019</ele>
        <time>2010-01-01T00:29:03Z</time>
      </trkpt>
      <trkpt lat="40.517442" lon="-7.473483">
        <ele>982.008</ele>
        <time>2010-01-01T00:29:09Z</time>
      </trkpt>
      <trkpt lat="40.517353" lon="-7.473855">
        <ele>983.039</ele>
        <time>2010-01-01T00:29:21Z</time>
      </trkpt>
      <trkpt lat="40.517214" lon="-7.473926">
        <ele>987.052</ele>
        <time>2010-01-01T00:29:27Z</time>
      </trkpt>
      <trkpt lat="40.517065" lon="-7.474098">
        <ele>991.075</ele>
        <time>2010-01-01T00:29:35Z</time>
      </trkpt>
      <trkpt lat="40.516909" lon="-7.474281">
        <ele>996.021</ele>
        <time>2010-01-01T00:29:44Z</time>
      </trkpt>
      <trkpt lat="40.516516" lon="-7.4745">
        <ele>1003.064</ele>
        <time>2010-01-01T00:30:01Z</time>
      </trkpt>
      <trkpt lat="40.516385" lon="-7.474546">
        <ele>1006.083</ele>
        <time>2010-01-01T00:30:06Z</time>
      </trkpt>
      <trkpt lat="40.516223" lon="-7.474349">
        <ele>1013.067</ele>
        <time>2010-01-01T00:30:15Z</time>
      </trkpt>
      <trkpt lat="40.515914" lon="-7.473833">
        <ele>1019.06</ele>
        <time>2010-01-01T00:30:35Z</time>
      </trkpt>
      <trkpt lat="40.51578" lon="-7.47379">
        <ele>1020.057</ele>
        <time>2010-01-01T00:30:40Z</time>
      </trkpt>
      <trkpt lat="40.51573" lon="-7.474037">
        <ele>1023.0</ele>
        <time>2010-01-01T00:30:48Z</time>
      </trkpt>
      <trkpt lat="40.51571" lon="-7.474144">
        <ele>1024.02</ele>
        <time>2010-01-01T00:30:52Z</time>
      </trkpt>
      <trkpt lat="40.515525" lon="-7.474422">
        <ele>1027.008</ele>
        <time>2010-01-01T00:31:03Z</time>
      </trkpt>
      <trkpt lat="40.515305" lon="-7.47537">
        <ele>1038.028</ele>
        <time>2010-01-01T00:31:33Z</time>
      </trkpt>
      <trkpt lat="40.515335" lon="-7.475798">
        <ele>1040.091</ele>
        <time>2010-01-01T00:31:46Z</time>
      </trkpt>
      <trkpt lat="40.515575" lon="-7.476141">
        <ele>1043.074</ele>
        <time>2010-01-01T00:32:00Z</time>
      </trkpt>
      <trkpt lat="40.515657" lon="-7.476225">
        <ele>1045.08</ele>
        <time>2010-01-01T00:32:04Z</time>
      </trkpt>
      <trkpt lat="40.515788" lon="-7.476184">
        <ele>1043.013</ele>
        <time>2010-01-01T00:32:10Z</time>
      </trkpt>
      <trkpt lat="40.515943" lon="-7.476405">
        <ele>1046.052</ele>
        <time>2010-01-01T00:32:19Z</time>
      </trkpt>
      <trkpt lat="40.516036" lon="-7.477102">
        <ele>1051.086</ele>
        <time>2010-01-01T00:32:40Z</time>
      </trkpt>
      <trkpt lat="40.516052" lon="-7.477385">
        <ele>1052.089</ele>
        <time>2010-01-01T00:32:49Z</time>
      </trkpt>
      <trkpt lat="40.51592" lon="-7.477597">
        <ele>1055.024</ele>
        <time>2010-01-01T00:32:57Z</time>
      </trkpt>
      <trkpt lat="40.515727" lon="-7.477491">
        <ele>1059.004</ele>
        <time>2010-01-01T00:33:06Z</time>
      </trkpt>
      <trkpt lat="40.515536" lon="-7.477405">
        <ele>1062.014</ele>
        <time>2010-01-01T00:33:14Z</time>
      </trkpt>
      <trkpt lat="40.515143" lon="-7.477329">
        <ele>1069.008</ele>
        <time>2010-01-01T00:33:30Z</time>
      </trkpt>
      <trkpt lat="40.514955" lon="-7.477055">
        <ele>1070.085</ele>
        <time>2010-01-01T00:33:41Z</time>
      </trkpt>
      <trkpt lat="40.51455" lon="-7.476888">
        <ele>1075.028</ele>
        <time>2010-01-01T00:33:58Z</time>
      </trkpt>
      <trkpt lat="40.51438" lon="-7.476746">
        <ele>1076.081</ele>
        <time>2010-01-01T00:34:06Z</time>
      </trkpt>
      <trkpt lat="40.514239" lon="-7.476243">
        <ele>1075.057</ele>
        <time>2010-01-01T00:34:22Z</time>
      </trkpt>
      <trkpt lat="40.513906" lon="-7.475962">
        <ele>1074.03</ele>
        <time>2010-01-01T00:34:38Z</time>
      </trkpt>
      <trkpt lat="40.513754" lon="-7.476058">
        <ele>1077.039</ele>
        <time>2010-01-01T00:34:45Z</time>
      </trkpt>
      <trkpt lat="40.513737" lon="-7.4763">
        <ele>1082.033</ele>
        <time>2010-01-01T00:34:52Z</time>
      </trkpt>
      <trkpt lat="40.513837" lon="-7.476565">
        <ele>1084.046</ele>
        <time>2010-01-01T00:35:01Z</time>
      </trkpt>
      <trkpt lat="40.51389" lon="-7.476715">
        <ele>1084.054</ele>
        <time>2010-01-01T00:35:06Z</time>
      </trkpt>
      <trkpt lat="40.513948" lon="-7.477169">
        <ele>1090.056</ele>
        <time>2010-01-01T00:35:20Z</time>
      </trkpt>
      <trkpt lat="40.514179" lon="-7.477364">
        <ele>1088.011</ele>
        <time>2010-01-01T00:35:31Z</time>
      </trkpt>
      <trkpt lat="40.514373" lon="-7.477869">
        <ele>1089.008</ele>
        <time>2010-01-01T00:35:49Z</time>
      </trkpt>
      <trkpt lat="40.51453" lon="-7.478304">
        <ele>1090.018</ele>
        <time>2010-01-01T00:36:03Z</time>
      </trkpt>
      <trkpt lat="40.514711" lon="-7.478647">
        <ele>1092.031</ele>
        <time>2010-01-01T00:36:16Z</time>
      </trkpt>
      <trkpt lat="40.514694" lon="-7.478945">
        <ele>1096.044</ele>
        <time>2010-01-01T00:36:25Z</time>
      </trkpt>
      <trkpt lat="40.514612" lon="-7.479367">
        <ele>1096.09</ele>
        <time>2010-01-01T00:36:38Z</time>
      </trkpt>
      <trkpt lat="40.514534" lon="-7.479693">
        <ele>1096.053</ele>
        <time>2010-01-01T00:36:49Z</time>
      </trkpt>
      <trkpt lat="40.514189" lon="-7.479995">
        <ele>1105.052</ele>
        <time>2010-01-01T00:37:05Z</time>
      </trkpt>
      <trkpt lat="40.513948" lon="-7.480197">
        <ele>1109.076</ele>
        <time>2010-01-01T00:37:17Z</time>
      </trkpt>
      <trkpt lat="40.513956" lon="-7.480493">
        <ele>1107.049</ele>
        <time>2010-01-01T00:37:26Z</time>
      </trkpt>
      <trkpt lat="40.514004" lon="-7.481023">
        <ele>1105.031</ele>
        <time>2010-01-01T00:37:42Z</time>
      </trkpt>
      <trkpt lat="40.513953" lon="-7.481365">
        <ele>1106.061</ele>
        <time>2010-01-01T00:37:53Z</time>
      </trkpt>
      <trkpt lat="40.513751" lon="-7.482076">
        <ele>1111.007</ele>
        <time>2010-01-01T00:38:16Z</time>
      </trkpt>
      <trkpt lat="40.513616" lon="-7.482693">
        <ele>1115.008</ele>
        <time>2010-01-01T00:38:35Z</time>
      </trkpt>
      <trkpt lat="40.513459" lon="-7.483088">
        <ele>1118.036</ele>
        <time>2010-01-01T00:38:49Z</time>
      </trkpt>
      <trkpt lat="40.513273" lon="-7.483198">
        <ele>1120.049</ele>
        <time>2010-01-01T00:38:57Z</time>
      </trkpt>
      <trkpt lat="40.513017" lon="-7.483157">
        <ele>1127.012</ele>
        <time>2010-01-01T00:39:07Z</time>
      </trkpt>
      <trkpt lat="40.512922" lon="-7.48303">
        <ele>1130.028</ele>
        <time>2010-01-01T00:39:13Z</time>
      </trkpt>
      <trkpt lat="40.512874" lon="-7.482724">
        <ele>1134.081</ele>
        <time>2010-01-01T00:39:22Z</time>
      </trkpt>
      <trkpt lat="40.512779" lon="-7.482544">
        <ele>1136.03</ele>
        <time>2010-01-01T00:39:29Z</time>
      </trkpt>
      <trkpt lat="40.512567" lon="-7.48252">
        <ele>1138.084</ele>
        <time>2010-01-01T00:39:37Z</time>
      </trkpt>
      <trkpt lat="40.512494" lon="-7.482123">
        <ele>1140.017</ele>
        <time>2010-01-01T00:39:50Z</time>
      </trkpt>
      <trkpt lat="40.512398" lon="-7.481627">
        <ele>1147.021</ele>
        <time>2010-01-01T00:40:05Z</time>
      </trkpt>
      <trkpt lat="40.512364" lon="-7.481523">
        <ele>1148.041</ele>
        <time>2010-01-01T00:40:09Z</time>
      </trkpt>
      <trkpt lat="40.512167" lon="-7.4812">
        <ele>1152.005</ele>
        <time>2010-01-01T00:40:21Z</time>
      </trkpt>
      <trkpt lat="40.511802" lon="-7.480642">
        <ele>1157.008</ele>
        <time>2010-01-01T00:40:44Z</time>
      </trkpt>
      <trkpt lat="40.511674" lon="-7.480226">
        <ele>1159.045</ele>
        <time>2010-01-01T00:40:58Z</time>
      </trkpt>
      <trkpt lat="40.511633" lon="-7.479969">
        <ele>1159.028</ele>
        <time>2010-01-01T00:41:06Z</time>
      </trkpt>
      <trkpt lat="40.511632" lon="-7.479767">
        <ele>1158.061</ele>
        <time>2010-01-01T00:41:12Z</time>
      </trkpt>
      <trkpt lat="40.51156" lon="-7.479721">
        <ele>1160.037</ele>
        <time>2010-01-01T00:41:15Z</time>
      </trkpt>
      <trkpt lat="40.511495" lon="-7.479802">
        <ele>1162.09</ele>
        <time>2010-01-01T00:41:18Z</time>
      </trkpt>
      <trkpt lat="40.511392" lon="-7.479965">
        <ele>1164.029</ele>
        <time>2010-01-01T00:41:25Z</time>
      </trkpt>
      <trkpt lat="40.511373" lon="-7.480139">
        <ele>1166.013</ele>
        <time>2010-01-01T00:41:30Z</time>
      </trkpt>
      <trkpt lat="40.511445" lon="-7.480339">
        <ele>1166.086</ele>
        <time>2010-01-01T00:41:37Z</time>
      </trkpt>
      <trkpt lat="40.511567" lon="-7.480535">
        <ele>1163.086</ele>
        <time>2010-01-01T00:41:45Z</time>
      </trkpt>
      <trkpt lat="40.511717" lon="-7.48077">
        <ele>1160.06</ele>
        <time>2010-01-01T00:41:54Z</time>
      </trkpt>
      <trkpt lat="40.511868" lon="-7.481095">
        <ele>1159.026</ele>
        <time>2010-01-01T00:42:06Z</time>
      </trkpt>
      <trkpt lat="40.511968" lon="-7.481468">
        <ele>1158.008</ele>
        <time>2010-01-01T00:42:18Z</time>
      </trkpt>
      <trkpt lat="40.511983" lon="-7.481763">
        <ele>1159.091</ele>
        <time>2010-01-01T00:42:27Z</time>
      </trkpt>
      <trkpt lat="40.511841" lon="-7.48279">
        <ele>1162.024</ele>
        <time>2010-01-01T00:42:58Z</time>
      </trkpt>
      <trkpt lat="40.511769" lon="-7.4832">
        <ele>1162.037</ele>
        <time>2010-01-01T00:43:11Z</time>
      </trkpt>
      <trkpt lat="40.511705" lon="-7.483481">
        <ele>1162.053</ele>
        <time>2010-01-01T00:43:20Z</time>
      </trkpt>
      <trkpt lat="40.511544" lon="-7.48386">
        <ele>1163.046</ele>
        <time>2010-01-01T00:43:33Z</time>
      </trkpt>
      <trkpt lat="40.511545" lon="-7.484071">
        <ele>1162.015</ele>
        <time>2010-01-01T00:43:40Z</time>
      </trkpt>
      <trkpt lat="40.511573" lon="-7.484426">
        <ele>1161.069</ele>
        <time>2010-01-01T00:43:51Z</time>
      </trkpt>
      <trkpt lat="40.51168" lon="-7.484628">
        <ele>1161.032</ele>
        <time>2010-01-01T00:43:58Z</time>
      </trkpt>
      <trkpt lat="40.511811" lon="-7.484724">
        <ele>1160.027</ele>
        <time>2010-01-01T00:44:04Z</time>
      </trkpt>
      <trkpt lat="40.51204" lon="-7.484766">
        <ele>1159.068</ele>
        <time>2010-01-01T00:44:13Z</time>
      </trkpt>
      <trkpt lat="40.512594" lon="-7.485183">
        <ele>1160.014</ele>
        <time>2010-01-01T00:44:39Z</time>
      </trkpt>
      <trkpt lat="40.512756" lon="-7.485451">
        <ele>1157.008</ele>
        <time>2010-01-01T00:44:49Z</time>
      </trkpt>
      <trkpt lat="40.512775" lon="-7.485775">
        <ele>1156.045</ele>
        <time>2010-01-01T00:44:59Z</time>
      </trkpt>
      <trkpt lat="40.512781" lon="-7.487043">
        <ele>1156.098</ele>
        <time>2010-01-01T00:45:38Z</time>
      </trkpt>
      <trkpt lat="40.512549" lon="-7.487806">
        <ele>1153.081</ele>
        <time>2010-01-01T00:46:03Z</time>
      </trkpt>
      <trkpt lat="40.51216" lon="-7.4881">
        <ele>1155.057</ele>
        <time>2010-01-01T00:46:21Z</time>
      </trkpt>
      <trkpt lat="40.511873" lon="-7.48835">
        <ele>1158.05</ele>
        <time>2010-01-01T00:46:35Z</time>
      </trkpt>
      <trkpt lat="40.511492" lon="-7.48899">
        <ele>1158.049</ele>
        <time>2010-01-01T00:46:59Z</time>
      </trkpt>
      <trkpt lat="40.510668" lon="-7.489354">
        <ele>1157.083</ele>
        <time>2010-01-01T00:47:34Z</time>
      </trkpt>
      <trkpt lat="40.510318" lon="-7.489324">
        <ele>1160.016</ele>
        <time>2010-01-01T00:47:48Z</time>
      </trkpt>
      <trkpt lat="40.50997" lon="-7.489257">
        <ele>1163.037</ele>
        <time>2010-01-01T00:48:02Z</time>
      </trkpt>
      <trkpt lat="40.50979" lon="-7.489175">
        <ele>1164.049</ele>
        <time>2010-01-01T00:48:10Z</time>
      </trkpt>
      <trkpt lat="40.508785" lon="-7.48851">
        <ele>1168.013</ele>
        <time>2010-01-01T00:48:55Z</time>
      </trkpt>
      <trkpt lat="40.508495" lon="-7.488083">
        <ele>1173.008</ele>
        <time>2010-01-01T00:49:12Z</time>
      </trkpt>
      <trkpt lat="40.50811" lon="-7.487627">
        <ele>1178.076</ele>
        <time>2010-01-01T00:49:33Z</time>
      </trkpt>
      <trkpt lat="40.507844" lon="-7.487318">
        <ele>1183.029</ele>
        <time>2010-01-01T00:49:47Z</time>
      </trkpt>
      <trkpt lat="40.507716" lon="-7.487331">
        <ele>1183.072</ele>
        <time>2010-01-01T00:49:52Z</time>
      </trkpt>
      <trkpt lat="40.507502" lon="-7.48752">
        <ele>1182.078</ele>
        <time>2010-01-01T00:50:03Z</time>
      </trkpt>
      <trkpt lat="40.507112" lon="-7.488125">
        <ele>1183.011</ele>
        <time>2010-01-01T00:50:27Z</time>
      </trkpt>
      <trkpt lat="40.506995" lon="-7.488148">
        <ele>1184.06</ele>
        <time>2010-01-01T00:50:32Z</time>
      </trkpt>
      <trkpt lat="40.506881" lon="-7.488021">
        <ele>1186.044</ele>
        <time>2010-01-01T00:50:38Z</time>
      </trkpt>
      <trkpt lat="40.506585" lon="-7.487575">
        <ele>1193.027</ele>
        <time>2010-01-01T00:50:56Z</time>
      </trkpt>
      <trkpt lat="40.506489" lon="-7.487079">
        <ele>1198.074</ele>
        <time>2010-01-01T00:51:11Z</time>
      </trkpt>
      <trkpt lat="40.50642" lon="-7.486719">
        <ele>1200.056</ele>
        <time>2010-01-01T00:51:22Z</time>
      </trkpt>
      <trkpt lat="40.506278" lon="-7.486607">
        <ele>1201.021</ele>
        <time>2010-01-01T00:51:29Z</time>
      </trkpt>
      <trkpt lat="40.505599" lon="-7.486545">
        <ele>1201.008</ele>
        <time>2010-01-01T00:51:56Z</time>
      </trkpt>
      <trkpt lat="40.505321" lon="-7.486472">
        <ele>1200.03</ele>
        <time>2010-01-01T00:52:08Z</time>
      </trkpt>
      <trkpt lat="40.504721" lon="-7.486425">
        <ele>1199.033</ele>
        <time>2010-01-01T00:52:32Z</time>
      </trkpt>
      <trkpt lat="40.504075" lon="-7.486642">
        <ele>1198.016</ele>
        <time>2010-01-01T00:52:58Z</time>
      </trkpt>
      <trkpt lat="40.503766" lon="-7.486779">
        <ele>1196.052</ele>
        <time>2010-01-01T00:53:12Z</time>
      </trkpt>
      <trkpt lat="40.503342" lon="-7.487368">
        <ele>1197.015</ele>
        <time>2010-01-01T00:53:36Z</time>
      </trkpt>
      <trkpt lat="40.502727" lon="-7.488329">
        <ele>1200.094</ele>
        <time>2010-01-01T00:54:14Z</time>
      </trkpt>
      <trkpt lat="40.502455" lon="-7.488732">
        <ele>1199.048</ele>
        <time>2010-01-01T00:54:31Z</time>
      </trkpt>
      <trkpt lat="40.502301" lon="-7.488824">
        <ele>1199.051</ele>
        <time>2010-01-01T00:54:38Z</time>
      </trkpt>
      <trkpt lat="40.50198" lon="-7.488828">
        <ele>1200.051</ele>
        <time>2010-01-01T00:54:50Z</time>
      </trkpt>
      <trkpt lat="40.501701" lon="-7.488866">
        <ele>1202.001</ele>
        <time>2010-01-01T00:55:02Z</time>
      </trkpt>
      <trkpt lat="40.501358" lon="-7.488869">
        <ele>1204.011</ele>
        <time>2010-01-01T00:55:15Z</time>
      </trkpt>
      <trkpt lat="40.501061" lon="-7.488767">
        <ele>1202.008</ele>
        <time>2010-01-01T00:55:28Z</time>
      </trkpt>
      <trkpt lat="40.500885" lon="-7.488778">
        <ele>1200.098</ele>
        <time>2010-01-01T00:55:35Z</time>
      </trkpt>
      <trkpt lat="40.500624" lon="-7.488929">
        <ele>1199.031</ele>
        <time>2010-01-01T00:55:46Z</time>
      </trkpt>
      <trkpt lat="40.500388" lon="-7.489297">
        <ele>1202.094</ele>
        <time>2010-01-01T00:56:01Z</time>
      </trkpt>
      <trkpt lat="40.500148" lon="-7.489377">
        <ele>1201.03</ele>
        <time>2010-01-01T00:56:11Z</time>
      </trkpt>
      <trkpt lat="40.499852" lon="-7.489482">
        <ele>1202.033</ele>
        <time>2010-01-01T00:56:23Z</time>
      </trkpt>
      <trkpt lat="40.49933" lon="-7.489638">
        <ele>1205.022</ele>
        <time>2010-01-01T00:56:44Z</time>
      </trkpt>
      <trkpt lat="40.499039" lon="-7.489604">
        <ele>1207.046</ele>
        <time>2010-01-01T00:56:56Z</time>
      </trkpt>
      <trkpt lat="40.498506" lon="-7.489512">
        <ele>1210.059</ele>
        <time>2010-01-01T00:57:18Z</time>
      </trkpt>
      <trkpt lat="40.498021" lon="-7.489881">
        <ele>1213.011</ele>
        <time>2010-01-01T00:57:40Z</time>
      </trkpt>
      <trkpt lat="40.497216" lon="-7.490645">
        <ele>1219.021</ele>
        <time>2010-01-01T00:58:20Z</time>
      </trkpt>
      <trkpt lat="40.496839" lon="-7.490969">
        <ele>1222.003</ele>
        <time>2010-01-01T00:58:38Z</time>
      </trkpt>
      <trkpt lat="40.496346" lon="-7.491299">
        <ele>1226.008</ele>
        <time>2010-01-01T00:59:00Z</time>
      </trkpt>
      <trkpt lat="40.496291" lon="-7.491499">
        <ele>1229.064</ele>
        <time>2010-01-01T00:59:06Z</time>
      </trkpt>
      <trkpt lat="40.496277" lon="-7.491784">
        <ele>1232.087</ele>
        <time>2010-01-01T00:59:15Z</time>
      </trkpt>
      <trkpt lat="40.496235" lon="-7.492001">
        <ele>1234.07</ele>
        <time>2010-01-01T00:59:22Z</time>
      </trkpt>
      <trkpt lat="40.496003" lon="-7.492249">
        <ele>1236.036</ele>
        <time>2010-01-01T00:59:34Z</time>
      </trkpt>
      <trkpt lat="40.495776" lon="-7.492477">
        <ele>1240.019</ele>
        <time>2010-01-01T00:59:45Z</time>
      </trkpt>
      <trkpt lat="40.495614" lon="-7.492516">
        <ele>1243.098</ele>
        <time>2010-01-01T00:59:52Z</time>
      </trkpt>
      <trkpt lat="40.494988" lon="-7.492231">
        <ele>1245.082</ele>
        <time>2010-01-01T01:00:19Z</time>
      </trkpt>
      <trkpt lat="40.494853" lon="-7.492225">
        <ele>1247.085</ele>
        <time>2010-01-01T01:00:24Z</time>
      </trkpt>
      <trkpt lat="40.494486" lon="-7.492302">
        <ele>1250.044</ele>
        <time>2010-01-01T01:00:39Z</time>
      </trkpt>
      <trkpt lat="40.494205" lon="-7.492375">
        <ele>1251.005</ele>
        <time>2010-01-01T01:00:50Z</time>
      </trkpt>
      <trkpt lat="40.493943" lon="-7.492492">
        <ele>1252.015</ele>
        <time>2010-01-01T01:01:01Z</time>
      </trkpt>
      <trkpt lat="40.493745" lon="-7.492621">
        <ele>1255.008</ele>
        <time>2010-01-01T01:01:10Z</time>
      </trkpt>
      <trkpt lat="40.493587" lon="-7.492752">
        <ele>1257.037</ele>
        <time>2010-01-01T01:01:18Z</time>
      </trkpt>
      <trkpt lat="40.492867" lon="-7.493276">
        <ele>1263.06</ele>
        <time>2010-01-01T01:01:51Z</time>
      </trkpt>
      <trkpt lat="40.492677" lon="-7.493452">
        <ele>1266.063</ele>
        <time>2010-01-01T01:02:00Z</time>
      </trkpt>
      <trkpt lat="40.492438" lon="-7.493667">
        <ele>1269.099</ele>
        <time>2010-01-01T01:02:12Z</time>
      </trkpt>
      <trkpt lat="40.492185" lon="-7.493809">
        <ele>1272.092</ele>
        <time>2010-01-01T01:02:23Z</time>
      </trkpt>
      <trkpt lat="40.491746" lon="-7.493889">
        <ele>1276.031</ele>
        <time>2010-01-01T01:02:40Z</time>
      </trkpt>
      <trkpt lat="40.491474" lon="-7.493883">
        <ele>1277.075</ele>
        <time>2010-01-01T01:02:51Z</time>
      </trkpt>
      <trkpt lat="40.491211" lon="-7.493761">
        <ele>1277.088</ele>
        <time>2010-01-01T01:03:02Z</time>
      </trkpt>
      <trkpt lat="40.490767" lon="-7.493449">
        <ele>1280.016</ele>
        <time>2010-01-01T01:03:22Z</time>
      </trkpt>
      <trkpt lat="40.490541" lon="-7.493032">
        <ele>1285.076</ele>
        <time>2010-01-01T01:03:38Z</time>
      </trkpt>
      <trkpt lat="40.490383" lon="-7.492659">
        <ele>1284.013</ele>
        <time>2010-01-01T01:03:51Z</time>
      </trkpt>
      <trkpt lat="40.490062" lon="-7.492261">
        <ele>1286.008</ele>
        <time>2010-01-01T01:04:09Z</time>
      </trkpt>
      <trkpt lat="40.489584" lon="-7.491786">
        <ele>1291.014</ele>
        <time>2010-01-01T01:04:33Z</time>
      </trkpt>
      <trkpt lat="40.489378" lon="-7.491717">
        <ele>1291.087</ele>
        <time>2010-01-01T01:04:41Z</time>
      </trkpt>
      <trkpt lat="40.489228" lon="-7.491716">
        <ele>1290.02</ele>
        <time>2010-01-01T01:04:47Z</time>
      </trkpt>
      <trkpt lat="40.488959" lon="-7.491775">
        <ele>1290.026</ele>
        <time>2010-01-01T01:04:58Z</time>
      </trkpt>
      <trkpt lat="40.488819" lon="-7.49193">
        <ele>1290.089</ele>
        <time>2010-01-01T01:05:05Z</time>
      </trkpt>
      <trkpt lat="40.488748" lon="-7.492204">
        <ele>1291.038</ele>
        <time>2010-01-01T01:05:14Z</time>
      </trkpt>
      <trkpt lat="40.48874" lon="-7.492388">
        <ele>1292.022</ele>
        <time>2010-01-01T01:05:20Z</time>
      </trkpt>
      <trkpt lat="40.488811" lon="-7.492674">
        <ele>1293.025</ele>
        <time>2010-01-01T01:05:29Z</time>
      </trkpt>
      <trkpt lat="40.488874" lon="-7.493077">
        <ele>1296.058</ele>
        <time>2010-01-01T01:05:42Z</time>
      </trkpt>
      <trkpt lat="40.488976" lon="-7.493363">
        <ele>1297.052</ele>
        <time>2010-01-01T01:05:51Z</time>
      </trkpt>
      <trkpt lat="40.489248" lon="-7.49372">
        <ele>1296.017</ele>
        <time>2010-01-01T01:06:07Z</time>
      </trkpt>
      <trkpt lat="40.489416" lon="-7.494023">
        <ele>1299.008</ele>
        <time>2010-01-01T01:06:18Z</time>
      </trkpt>
      <trkpt lat="40.489526" lon="-7.494299">
        <ele>1302.058</ele>
        <time>2010-01-01T01:06:27Z</time>
      </trkpt>
      <trkpt lat="40.489617" lon="-7.49456">
        <ele>1303.041</ele>
        <time>2010-01-01T01:06:36Z</time>
      </trkpt>
      <trkpt lat="40.489671" lon="-7.494806">
        <ele>1305.074</ele>
        <time>2010-01-01T01:06:44Z</time>
      </trkpt>
      <trkpt lat="40.489532" lon="-7.495022">
        <ele>1307.08</ele>
        <time>2010-01-01T01:06:53Z</time>
      </trkpt>
      <trkpt lat="40.489211" lon="-7.49532">
        <ele>1309.023</ele>
        <time>2010-01-01T01:07:08Z</time>
      </trkpt>
      <trkpt lat="40.488869" lon="-7.495763">
        <ele>1311.072</ele>
        <time>2010-01-01T01:07:28Z</time>
      </trkpt>
      <trkpt lat="40.488421" lon="-7.496045">
        <ele>1310.086</ele>
        <time>2010-01-01T01:07:47Z</time>
      </trkpt>
      <trkpt lat="40.48815" lon="-7.496114">
        <ele>1312.069</ele>
        <time>2010-01-01T01:07:59Z</time>
      </trkpt>
      <trkpt lat="40.488051" lon="-7.496215">
        <ele>1314.021</ele>
        <time>2010-01-01T01:08:04Z</time>
      </trkpt>
      <trkpt lat="40.487893" lon="-7.496584">
        <ele>1315.041</ele>
        <time>2010-01-01T01:08:16Z</time>
      </trkpt>
      <trkpt lat="40.487745" lon="-7.497255">
        <ele>1317.005</ele>
        <time>2010-01-01T01:08:38Z</time>
      </trkpt>
      <trkpt lat="40.487643" lon="-7.497553">
        <ele>1318.008</ele>
        <time>2010-01-01T01:08:48Z</time>
      </trkpt>
      <trkpt lat="40.487468" lon="-7.497982">
        <ele>1325.085</ele>
        <time>2010-01-01T01:09:02Z</time>
      </trkpt>
      <trkpt lat="40.487292" lon="-7.498327">
        <ele>1328.058</ele>
        <time>2010-01-01T01:09:15Z</time>
      </trkpt>
      <trkpt lat="40.487046" lon="-7.498526">
        <ele>1328.061</ele>
        <time>2010-01-01T01:09:27Z</time>
      </trkpt>
      <trkpt lat="40.486392" lon="-7.499548">
        <ele>1330.087</ele>
        <time>2010-01-01T01:10:07Z</time>
      </trkpt>
      <trkpt lat="40.48635" lon="-7.499754">
        <ele>1331.08</ele>
        <time>2010-01-01T01:10:14Z</time>
      </trkpt>
      <trkpt lat="40.486394" lon="-7.499978">
        <ele>1332.069</ele>
        <time>2010-01-01T01:10:21Z</time>
      </trkpt>
      <trkpt lat="40.486652" lon="-7.500784">
        <ele>1335.013</ele>
        <time>2010-01-01T01:10:47Z</time>
      </trkpt>
      <trkpt lat="40.486644" lon="-7.500977">
        <ele>1336.076</ele>
        <time>2010-01-01T01:10:53Z</time>
      </trkpt>
      <trkpt lat="40.486644" lon="-7.500989">
        <ele>1336.013</ele>
        <time>2010-01-01T01:10:54Z</time>
      </trkpt>
      <trkpt lat="40.486588" lon="-7.501369">
        <ele>1337.043</ele>
        <time>2010-01-01T01:11:06Z</time>
      </trkpt>
      <trkpt lat="40.486492" lon="-7.5018">
        <ele>1337.007</ele>
        <time>2010-01-01T01:11:19Z</time>
      </trkpt>
      <trkpt lat="40.48623" lon="-7.502409">
        <ele>1339.008</ele>
        <time>2010-01-01T01:11:41Z</time>
      </trkpt>
      <trkpt lat="40.486209" lon="-7.503003">
        <ele>1341.074</ele>
        <time>2010-01-01T01:11:59Z</time>
      </trkpt>
      <trkpt lat="40.486097" lon="-7.503619">
        <ele>1340.027</ele>
        <time>2010-01-01T01:12:18Z</time>
      </trkpt>
      <trkpt lat="40.486104" lon="-7.503941">
        <ele>1338.07</ele>
        <time>2010-01-01T01:12:28Z</time>
      </trkpt>
      <trkpt lat="40.486215" lon="-7.504288">
        <ele>1338.086</ele>
        <time>2010-01-01T01:12:39Z</time>
      </trkpt>
      <trkpt lat="40.486297" lon="-7.50448">
        <ele>1337.019</ele>
        <time>2010-01-01T01:12:46Z</time>
      </trkpt>
      <trkpt lat="40.486181" lon="-7.505164">
        <ele>1334.078</ele>
        <time>2010-01-01T01:13:07Z</time>
      </trkpt>
      <trkpt lat="40.486153" lon="-7.505619">
        <ele>1329.012</ele>
        <time>2010-01-01T01:13:21Z</time>
      </trkpt>
      <trkpt lat="40.48594" lon="-7.506147">
        <ele>1327.095</ele>
        <time>2010-01-01T01:13:39Z</time>
      </trkpt>
      <trkpt lat="40.485175" lon="-7.506832">
        <ele>1323.066</ele>
        <time>2010-01-01T01:14:16Z</time>
      </trkpt>
      <trkpt lat="40.485066" lon="-7.506933">
        <ele>1322.029</ele>
        <time>2010-01-01T01:14:22Z</time>
      </trkpt>
      <trkpt lat="40.484921" lon="-7.50726">
        <ele>1318.021</ele>
        <time>2010-01-01T01:14:33Z</time>
      </trkpt>
      <trkpt lat="40.484744" lon="-7.508102">
        <ele>1311.008</ele>
        <time>2010-01-01T01:15:00Z</time>
      </trkpt>
      <trkpt lat="40.484569" lon="-7.508514">
        <ele>1308.099</ele>
        <time>2010-01-01T01:15:14Z</time>
      </trkpt>
      <trkpt lat="40.484016" lon="-7.509678">
        <ele>1294.092</ele>
        <time>2010-01-01T01:15:56Z</time>
      </trkpt>
      <trkpt lat="40.483733" lon="-7.510009">
        <ele>1292.035</ele>
        <time>2010-01-01T01:16:11Z</time>
      </trkpt>
      <trkpt lat="40.482955" lon="-7.511004">
        <ele>1287.041</ele>
        <time>2010-01-01T01:16:55Z</time>
      </trkpt>
      <trkpt lat="40.482232" lon="-7.511633">
        <ele>1284.054</ele>
        <time>2010-01-01T01:17:29Z</time>
      </trkpt>
      <trkpt lat="40.48166" lon="-7.512044">
        <ele>1283.013</ele>
        <time>2010-01-01T01:17:55Z</time>
      </trkpt>
      <trkpt lat="40.481433" lon="-7.512524">
        <ele>1279.027</ele>
        <time>2010-01-01T01:18:13Z</time>
      </trkpt>
      <trkpt lat="40.481371" lon="-7.51289">
        <ele>1277.03</ele>
        <time>2010-01-01T01:18:24Z</time>
      </trkpt>
      <trkpt lat="40.481491" lon="-7.5135">
        <ele>1272.039</ele>
        <time>2010-01-01T01:18:43Z</time>
      </trkpt>
      <trkpt lat="40.481523" lon="-7.513757">
        <ele>1270.001</ele>
        <time>2010-01-01T01:18:51Z</time>
      </trkpt>
      <trkpt lat="40.481478" lon="-7.514179">
        <ele>1269.021</ele>
        <time>2010-01-01T01:19:04Z</time>
      </trkpt>
      <trkpt lat="40.481429" lon="-7.514373">
        <ele>1269.008</ele>
        <time>2010-01-01T01:19:10Z</time>
      </trkpt>
      <trkpt lat="40.481426" lon="-7.514388">
        <ele>1269.086</ele>
        <time>2010-01-01T01:19:11Z</time>
      </trkpt>
      <trkpt lat="40.481426" lon="-7.514396">
        <ele>1269.079</ele>
        <time>2010-01-01T01:19:11Z</time>
      </trkpt>
      <trkpt lat="40.481412" lon="-7.514512">
        <ele>1270.082</ele>
        <time>2010-01-01T01:19:15Z</time>
      </trkpt>
      <trkpt lat="40.481256" lon="-7.514832">
        <ele>1272.058</ele>
        <time>2010-01-01T01:19:26Z</time>
      </trkpt>
      <trkpt lat="40.481079" lon="-7.515121">
        <ele>1275.021</ele>
        <time>2010-01-01T01:19:37Z</time>
      </trkpt>
      <trkpt lat="40.480925" lon="-7.515339">
        <ele>1278.09</ele>
        <time>2010-01-01T01:19:47Z</time>
      </trkpt>
      <trkpt lat="40.48098" lon="-7.515512">
        <ele>1282.054</ele>
        <time>2010-01-01T01:19:52Z</time>
      </trkpt>
      <trkpt lat="40.481232" lon="-7.515484">
        <ele>1283.077</ele>
        <time>2010-01-01T01:20:02Z</time>
      </trkpt>
      <trkpt lat="40.481616" lon="-7.51544">
        <ele>1283.094</ele>
        <time>2010-01-01T01:20:18Z</time>
      </trkpt>
      <trkpt lat="40.481888" lon="-7.515371">
        <ele>1281.057</ele>
        <time>2010-01-01T01:20:29Z</time>
      </trkpt>
      <trkpt lat="40.482275" lon="-7.515508">
        <ele>1281.022</ele>
        <time>2010-01-01T01:20:45Z</time>
      </trkpt>
      <trkpt lat="40.482555" lon="-7.515323">
        <ele>1273.008</ele>
        <time>2010-01-01T01:20:57Z</time>
      </trkpt>
      <trkpt lat="40.48279" lon="-7.515273">
        <ele>1273.032</ele>
        <time>2010-01-01T01:21:07Z</time>
      </trkpt>
      <trkpt lat="40.483118" lon="-7.515355">
        <ele>1271.045</ele>
        <time>2010-01-01T01:21:20Z</time>
      </trkpt>
      <trkpt lat="40.483298" lon="-7.515489">
        <ele>1270.068</ele>
        <time>2010-01-01T01:21:29Z</time>
      </trkpt>
      <trkpt lat="40.483474" lon="-7.515776">
        <ele>1268.074</ele>
        <time>2010-01-01T01:21:40Z</time>
      </trkpt>
      <trkpt lat="40.483848" lon="-7.516452">
        <ele>1270.067</ele>
        <time>2010-01-01T01:22:05Z</time>
      </trkpt>
      <trkpt lat="40.48428" lon="-7.516689">
        <ele>1261.016</ele>
        <time>2010-01-01T01:22:24Z</time>
      </trkpt>
      <trkpt lat="40.484873" lon="-7.517221">
        <ele>1250.05</ele>
        <time>2010-01-01T01:22:53Z</time>
      </trkpt>
      <trkpt lat="40.48592" lon="-7.518631">
        <ele>1242.063</ele>
        <time>2010-01-01T01:23:53Z</time>
      </trkpt>
      <trkpt lat="40.48629" lon="-7.519297">
        <ele>1234.054</ele>
        <time>2010-01-01T01:24:18Z</time>
      </trkpt>
      <trkpt lat="40.486339" lon="-7.519929">
        <ele>1241.056</ele>
        <time>2010-01-01T01:24:37Z</time>
      </trkpt>
      <trkpt lat="40.486373" lon="-7.520272">
        <ele>1240.011</ele>
        <time>2010-01-01T01:24:48Z</time>
      </trkpt>
      <trkpt lat="40.486342" lon="-7.52061">
        <ele>1240.008</ele>
        <time>2010-01-01T01:24:58Z</time>
      </trkpt>
      <trkpt lat="40.486272" lon="-7.520852">
        <ele>1243.038</ele>
        <time>2010-01-01T01:25:06Z</time>
      </trkpt>
      <trkpt lat="40.486328" lon="-7.521212">
        <ele>1244.041</ele>
        <time>2010-01-01T01:25:17Z</time>
      </trkpt>
      <trkpt lat="40.486442" lon="-7.52135">
        <ele>1243.014</ele>
        <time>2010-01-01T01:25:23Z</time>
      </trkpt>
      <trkpt lat="40.486737" lon="-7.521362">
        <ele>1235.09</ele>
        <time>2010-01-01T01:25:35Z</time>
      </trkpt>
      <trkpt lat="40.487071" lon="-7.521412">
        <ele>1228.093</ele>
        <time>2010-01-01T01:25:49Z</time>
      </trkpt>
      <trkpt lat="40.487232" lon="-7.521471">
        <ele>1226.082</ele>
        <time>2010-01-01T01:25:55Z</time>
      </trkpt>
      <trkpt lat="40.48755" lon="-7.522251">
        <ele>1229.026</ele>
        <time>2010-01-01T01:26:22Z</time>
      </trkpt>
      <trkpt lat="40.487362" lon="-7.522661">
        <ele>1232.049</ele>
        <time>2010-01-01T01:26:37Z</time>
      </trkpt>
      <trkpt lat="40.48717" lon="-7.522883">
        <ele>1236.034</ele>
        <time>2010-01-01T01:26:47Z</time>
      </trkpt>
      <trkpt lat="40.487069" lon="-7.522793">
        <ele>1239.055</ele>
        <time>2010-01-01T01:26:52Z</time>
      </trkpt>
      <trkpt lat="40.48699" lon="-7.522442">
        <ele>1240.01</ele>
        <time>2010-01-01T01:27:03Z</time>
      </trkpt>
      <trkpt lat="40.486923" lon="-7.522061">
        <ele>1239.008</ele>
        <time>2010-01-01T01:27:15Z</time>
      </trkpt>
      <trkpt lat="40.486645" lon="-7.521708">
        <ele>1243.046</ele>
        <time>2010-01-01T01:27:31Z</time>
      </trkpt>
      <trkpt lat="40.486554" lon="-7.521744">
        <ele>1247.079</ele>
        <time>2010-01-01T01:27:34Z</time>
      </trkpt>
      <trkpt lat="40.486499" lon="-7.521901">
        <ele>1251.032</ele>
        <time>2010-01-01T01:27:40Z</time>
      </trkpt>
      <trkpt lat="40.486512" lon="-7.522112">
        <ele>1253.018</ele>
        <time>2010-01-01T01:27:46Z</time>
      </trkpt>
      <trkpt lat="40.486492" lon="-7.522363">
        <ele>1255.031</ele>
        <time>2010-01-01T01:27:54Z</time>
      </trkpt>
      <trkpt lat="40.486499" lon="-7.52255">
        <ele>1256.07</ele>
        <time>2010-01-01T01:27:59Z</time>
      </trkpt>
      <trkpt lat="40.486481" lon="-7.522654">
        <ele>1257.034</ele>
        <time>2010-01-01T01:28:03Z</time>
      </trkpt>
      <trkpt lat="40.486389" lon="-7.522864">
        <ele>1261.087</ele>
        <time>2010-01-01T01:28:10Z</time>
      </trkpt>
      <trkpt lat="40.486379" lon="-7.523347">
        <ele>1263.079</ele>
        <time>2010-01-01T01:28:25Z</time>
      </trkpt>
      <trkpt lat="40.486267" lon="-7.523711">
        <ele>1263.005</ele>
        <time>2010-01-01T01:28:37Z</time>
      </trkpt>
      <trkpt lat="40.486073" lon="-7.523988">
        <ele>1266.025</ele>
        <time>2010-01-01T01:28:48Z</time>
      </trkpt>
      <trkpt lat="40.485855" lon="-7.524234">
        <ele>1274.008</ele>
        <time>2010-01-01T01:29:00Z</time>
      </trkpt>
      <trkpt lat="40.485737" lon="-7.524347">
        <ele>1278.02</ele>
        <time>2010-01-01T01:29:06Z</time>
      </trkpt>
      <trkpt lat="40.485564" lon="-7.524531">
        <ele>1284.063</ele>
        <time>2010-01-01T01:29:14Z</time>
      </trkpt>
      <trkpt lat="40.485309" lon="-7.525161">
        <ele>1289.056</ele>
        <time>2010-01-01T01:29:36Z</time>
      </trkpt>
      <trkpt lat="40.4852" lon="-7.525441">
        <ele>1291.012</ele>
        <time>2010-01-01T01:29:46Z</time>
      </trkpt>
      <trkpt lat="40.485252" lon="-7.52595">
        <ele>1293.085</ele>
        <time>2010-01-01T01:30:01Z</time>
      </trkpt>
      <trkpt lat="40.485371" lon="-7.526209">
        <ele>1292.024</ele>
        <time>2010-01-01T01:30:11Z</time>
      </trkpt>
      <trkpt lat="40.485521" lon="-7.527677">
        <ele>1299.028</ele>
        <time>2010-01-01T01:30:56Z</time>
      </trkpt>
      <trkpt lat="40.485352" lon="-7.527969">
        <ele>1303.011</ele>
        <time>2010-01-01T01:31:07Z</time>
      </trkpt>
      <trkpt lat="40.485067" lon="-7.528101">
        <ele>1306.069</ele>
        <time>2010-01-01T01:31:19Z</time>
      </trkpt>
      <trkpt lat="40.48487" lon="-7.528078">
        <ele>1309.004</ele>
        <time>2010-01-01T01:31:27Z</time>
      </trkpt>
      <trkpt lat="40.484646" lon="-7.528086">
        <ele>1311.024</ele>
        <time>2010-01-01T01:31:36Z</time>
      </trkpt>
      <trkpt lat="40.484359" lon="-7.527931">
        <ele>1317.008</ele>
        <time>2010-01-01T01:31:48Z</time>
      </trkpt>
      <trkpt lat="40.484269" lon="-7.527725">
        <ele>1323.069</ele>
        <time>2010-01-01T01:31:55Z</time>
      </trkpt>
      <trkpt lat="40.484244" lon="-7.527587">
        <ele>1326.072</ele>
        <time>2010-01-01T01:32:00Z</time>
      </trkpt>
      <trkpt lat="40.484282" lon="-7.527194">
        <ele>1328.075</ele>
        <time>2010-01-01T01:32:12Z</time>
      </trkpt>
      <trkpt lat="40.484273" lon="-7.526644">
        <ele>1326.081</ele>
        <time>2010-01-01T01:32:29Z</time>
      </trkpt>
      <trkpt lat="40.484174" lon="-7.526513">
        <ele>1330.044</ele>
        <time>2010-01-01T01:32:34Z</time>
      </trkpt>
      <trkpt lat="40.484081" lon="-7.526477">
        <ele>1333.093</ele>
        <time>2010-01-01T01:32:38Z</time>
      </trkpt>
      <trkpt lat="40.483967" lon="-7.526604">
        <ele>1338.057</ele>
        <time>2010-01-01T01:32:44Z</time>
      </trkpt>
      <trkpt lat="40.48378" lon="-7.527058">
        <ele>1345.08</ele>
        <time>2010-01-01T01:33:00Z</time>
      </trkpt>
      <trkpt lat="40.483583" lon="-7.527308">
        <ele>1348.064</ele>
        <time>2010-01-01T01:33:11Z</time>
      </trkpt>
      <trkpt lat="40.483311" lon="-7.527579">
        <ele>1353.006</ele>
        <time>2010-01-01T01:33:24Z</time>
      </trkpt>
      <trkpt lat="40.483168" lon="-7.527708">
        <ele>1357.016</ele>
        <time>2010-01-01T01:33:31Z</time>
      </trkpt>
      <trkpt lat="40.482792" lon="-7.5281">
        <ele>1366.008</ele>
        <time>2010-01-01T01:33:51Z</time>
      </trkpt>
      <trkpt lat="40.482464" lon="-7.528486">
        <ele>1379.049</ele>
        <time>2010-01-01T01:34:08Z</time>
      </trkpt>
      <trkpt lat="40.482374" lon="-7.528667">
        <ele>1382.042</ele>
        <time>2010-01-01T01:34:15Z</time>
      </trkpt>
      <trkpt lat="40.482323" lon="-7.528831">
        <ele>1384.055</ele>
        <time>2010-01-01T01:34:20Z</time>
      </trkpt>
      <trkpt lat="40.482354" lon="-7.529048">
        <ele>1382.091</ele>
        <time>2010-01-01T01:34:27Z</time>
      </trkpt>
      <trkpt lat="40.482038" lon="-7.529882">
        <ele>1392.034</ele>
        <time>2010-01-01T01:34:55Z</time>
      </trkpt>
      <trkpt lat="40.48172" lon="-7.530758">
        <ele>1396.013</ele>
        <time>2010-01-01T01:35:25Z</time>
      </trkpt>
      <trkpt lat="40.481648" lon="-7.53072">
        <ele>1400.077</ele>
        <time>2010-01-01T01:35:28Z</time>
      </trkpt>
      <trkpt lat="40.481601" lon="-7.530502">
        <ele>1406.03</ele>
        <time>2010-01-01T01:35:35Z</time>
      </trkpt>
      <trkpt lat="40.4816" lon="-7.530259">
        <ele>1411.028</ele>
        <time>2010-01-01T01:35:42Z</time>
      </trkpt>
      <trkpt lat="40.481593" lon="-7.530065">
        <ele>1415.089</ele>
        <time>2010-01-01T01:35:48Z</time>
      </trkpt>
      <trkpt lat="40.481532" lon="-7.530037">
        <ele>1418.017</ele>
        <time>2010-01-01T01:35:51Z</time>
      </trkpt>
      <trkpt lat="40.481532" lon="-7.530057">
        <ele>1418.008</ele>
        <time>2010-01-01T01:35:51Z</time>
      </trkpt>
      <trkpt lat="40.481376" lon="-7.530281">
        <ele>1422.035</ele>
        <time>2010-01-01T01:36:01Z</time>
      </trkpt>
      <trkpt lat="40.481038" lon="-7.530882">
        <ele>1426.098</ele>
        <time>2010-01-01T01:36:23Z</time>
      </trkpt>
      <trkpt lat="40.480877" lon="-7.531071">
        <ele>1429.041</ele>
        <time>2010-01-01T01:36:32Z</time>
      </trkpt>
      <trkpt lat="40.480697" lon="-7.531346">
        <ele>1433.027</ele>
        <time>2010-01-01T01:36:43Z</time>
      </trkpt>
      <trkpt lat="40.480703" lon="-7.531355">
        <ele>1433.06</ele>
        <time>2010-01-01T01:36:43Z</time>
      </trkpt>
      <trkpt lat="40.480582" lon="-7.53171">
        <ele>1438.059</ele>
        <time>2010-01-01T01:36:55Z</time>
      </trkpt>
      <trkpt lat="40.480537" lon="-7.531935">
        <ele>1442.013</ele>
        <time>2010-01-01T01:37:02Z</time>
      </trkpt>
      <trkpt lat="40.480556" lon="-7.532268">
        <ele>1444.026</ele>
        <time>2010-01-01T01:37:12Z</time>
      </trkpt>
      <trkpt lat="40.480515" lon="-7.532525">
        <ele>1445.034</ele>
        <time>2010-01-01T01:37:20Z</time>
      </trkpt>
      <trkpt lat="40.480431" lon="-7.532779">
        <ele>1447.055</ele>
        <time>2010-01-01T01:37:29Z</time>
      </trkpt>
      <trkpt lat="40.48022" lon="-7.532997">
        <ele>1455.01</ele>
        <time>2010-01-01T01:37:40Z</time>
      </trkpt>
      <trkpt lat="40.480091" lon="-7.53317">
        <ele>1458.008</ele>
        <time>2010-01-01T01:37:47Z</time>
      </trkpt>
      <trkpt lat="40.480114" lon="-7.533618">
        <ele>1460.056</ele>
        <time>2010-01-01T01:38:01Z</time>
      </trkpt>
      <trkpt lat="40.480266" lon="-7.534077">
        <ele>1460.049</ele>
        <time>2010-01-01T01:38:16Z</time>
      </trkpt>
      <trkpt lat="40.480193" lon="-7.534262">
        <ele>1460.062</ele>
        <time>2010-01-01T01:38:22Z</time>
      </trkpt>
      <trkpt lat="40.479813" lon="-7.534478">
        <ele>1465.038</ele>
        <time>2010-01-01T01:38:39Z</time>
      </trkpt>
      <trkpt lat="40.47956" lon="-7.534603">
        <ele>1466.081</ele>
        <time>2010-01-01T01:38:50Z</time>
      </trkpt>
      <trkpt lat="40.479394" lon="-7.534695">
        <ele>1468.09</ele>
        <time>2010-01-01T01:38:57Z</time>
      </trkpt>
      <trkpt lat="40.479222" lon="-7.534643">
        <ele>1473.084</ele>
        <time>2010-01-01T01:39:04Z</time>
      </trkpt>
      <trkpt lat="40.479193" lon="-7.53452">
        <ele>1475.097</ele>
        <time>2010-01-01T01:39:08Z</time>
      </trkpt>
      <trkpt lat="40.479155" lon="-7.533737">
        <ele>1484.072</ele>
        <time>2010-01-01T01:39:32Z</time>
      </trkpt>
      <trkpt lat="40.478885" lon="-7.533109">
        <ele>1489.013</ele>
        <time>2010-01-01T01:39:54Z</time>
      </trkpt>
      <trkpt lat="40.478474" lon="-7.53201">
        <ele>1497.014</ele>
        <time>2010-01-01T01:40:31Z</time>
      </trkpt>
      <trkpt lat="40.477758" lon="-7.532406">
        <ele>1505.008</ele>
        <time>2010-01-01T01:41:02Z</time>
      </trkpt>
      <trkpt lat="40.476904" lon="-7.532849">
        <ele>1520.07</ele>
        <time>2010-01-01T01:41:39Z</time>
      </trkpt>
      <trkpt lat="40.476271" lon="-7.533145">
        <ele>1527.083</ele>
        <time>2010-01-01T01:42:06Z</time>
      </trkpt>
      <trkpt lat="40.475158" lon="-7.533438">
        <ele>1532.096</ele>
        <time>2010-01-01T01:42:51Z</time>
      </trkpt>
      <trkpt lat="40.474879" lon="-7.533602">
        <ele>1532.042</ele>
        <time>2010-01-01T01:43:03Z</time>
      </trkpt>
      <trkpt lat="40.474652" lon="-7.533916">
        <ele>1531.075</ele>
        <time>2010-01-01T01:43:17Z</time>
      </trkpt>
      <trkpt lat="40.474553" lon="-7.534046">
        <ele>1531.014</ele>
        <time>2010-01-01T01:43:22Z</time>
      </trkpt>
      <trkpt lat="40.47446" lon="-7.534466">
        <ele>1534.018</ele>
        <time>2010-01-01T01:43:36Z</time>
      </trkpt>
      <trkpt lat="40.474398" lon="-7.53494">
        <ele>1540.081</ele>
        <time>2010-01-01T01:43:50Z</time>
      </trkpt>
      <trkpt lat="40.474182" lon="-7.535669">
        <ele>1553.015</ele>
        <time>2010-01-01T01:44:14Z</time>
      </trkpt>
      <trkpt lat="40.474248" lon="-7.536201">
        <ele>1562.065</ele>
        <time>2010-01-01T01:44:30Z</time>
      </trkpt>
      <trkpt lat="40.474204" lon="-7.536504">
        <ele>1566.011</ele>
        <time>2010-01-01T01:44:40Z</time>
      </trkpt>
      <trkpt lat="40.474103" lon="-7.53662">
        <ele>1567.008</ele>
        <time>2010-01-01T01:44:45Z</time>
      </trkpt>
      <trkpt lat="40.473966" lon="-7.53694">
        <ele>1570.034</ele>
        <time>2010-01-01T01:44:56Z</time>
      </trkpt>
      <trkpt lat="40.473624" lon="-7.537726">
        <ele>1580.097</ele>
        <time>2010-01-01T01:45:24Z</time>
      </trkpt>
      <trkpt lat="40.473222" lon="-7.538695">
        <ele>1588.03</ele>
        <time>2010-01-01T01:45:58Z</time>
      </trkpt>
      <trkpt lat="40.473062" lon="-7.538894">
        <ele>1589.066</ele>
        <time>2010-01-01T01:46:06Z</time>
      </trkpt>
      <trkpt lat="40.472717" lon="-7.539219">
        <ele>1592.099</ele>
        <time>2010-01-01T01:46:23Z</time>
      </trkpt>
      <trkpt lat="40.472538" lon="-7.539323">
        <ele>1592.078</ele>
        <time>2010-01-01T01:46:31Z</time>
      </trkpt>
      <trkpt lat="40.472463" lon="-7.539372">
        <ele>1592.082</ele>
        <time>2010-01-01T01:46:35Z</time>
      </trkpt>
      <trkpt lat="40.47229" lon="-7.539662">
        <ele>1591.065</ele>
        <time>2010-01-01T01:46:46Z</time>
      </trkpt>
      <trkpt lat="40.471776" lon="-7.540178">
        <ele>1589.088</ele>
        <time>2010-01-01T01:47:12Z</time>
      </trkpt>
      <trkpt lat="40.471534" lon="-7.540507">
        <ele>1588.024</ele>
        <time>2010-01-01T01:47:26Z</time>
      </trkpt>
      <trkpt lat="40.471216" lon="-7.540636">
        <ele>1587.026</ele>
        <time>2010-01-01T01:47:39Z</time>
      </trkpt>
      <trkpt lat="40.470995" lon="-7.540687">
        <ele>1587.008</ele>
        <time>2010-01-01T01:47:48Z</time>
      </trkpt>
      <trkpt lat="40.47069" lon="-7.540727">
        <ele>1586.091</ele>
        <time>2010-01-01T01:48:00Z</time>
      </trkpt>
      <trkpt lat="40.469939" lon="-7.540823">
        <ele>1580.084</ele>
        <time>2010-01-01T01:48:30Z</time>
      </trkpt>
      <trkpt lat="40.469043" lon="-7.54092">
        <ele>1577.047</ele>
        <time>2010-01-01T01:49:06Z</time>
      </trkpt>
      <trkpt lat="40.467725" lon="-7.541324">
        <ele>1580.083</ele>
        <time>2010-01-01T01:50:01Z</time>
      </trkpt>
      <trkpt lat="40.467598" lon="-7.541374">
        <ele>1580.026</ele>
        <time>2010-01-01T01:50:06Z</time>
      </trkpt>
      <trkpt lat="40.466951" lon="-7.541808">
        <ele>1576.025</ele>
        <time>2010-01-01T01:50:35Z</time>
      </trkpt>
      <trkpt lat="40.466801" lon="-7.541902">
        <ele>1576.039</ele>
        <time>2010-01-01T01:50:42Z</time>
      </trkpt>
      <trkpt lat="40.466546" lon="-7.542078">
        <ele>1575.032</ele>
        <time>2010-01-01T01:50:53Z</time>
      </trkpt>
      <trkpt lat="40.466274" lon="-7.542272">
        <ele>1575.023</ele>
        <time>2010-01-01T01:51:05Z</time>
      </trkpt>
      <trkpt lat="40.465891" lon="-7.542537">
        <ele>1575.083</ele>
        <time>2010-01-01T01:51:23Z</time>
      </trkpt>
      <trkpt lat="40.465464" lon="-7.542867">
        <ele>1575.011</ele>
        <time>2010-01-01T01:51:43Z</time>
      </trkpt>
      <trkpt lat="40.465253" lon="-7.543058">
        <ele>1573.008</ele>
        <time>2010-01-01T01:51:53Z</time>
      </trkpt>
      <trkpt lat="40.464776" lon="-7.543473">
        <ele>1572.055</ele>
        <time>2010-01-01T01:52:16Z</time>
      </trkpt>
      <trkpt lat="40.464594" lon="-7.543747">
        <ele>1571.088</ele>
        <time>2010-01-01T01:52:27Z</time>
      </trkpt>
      <trkpt lat="40.464012" lon="-7.544529">
        <ele>1561.081</ele>
        <time>2010-01-01T01:53:00Z</time>
      </trkpt>
      <trkpt lat="40.463117" lon="-7.545762">
        <ele>1543.077</ele>
        <time>2010-01-01T01:53:52Z</time>
      </trkpt>
      <trkpt lat="40.46204" lon="-7.547639">
        <ele>1538.05</ele>
        <time>2010-01-01T01:55:04Z</time>
      </trkpt>
      <trkpt lat="40.461938" lon="-7.547792">
        <ele>1539.089</ele>
        <time>2010-01-01T01:55:10Z</time>
      </trkpt>
      <trkpt lat="40.46087" lon="-7.549587">
        <ele>1539.043</ele>
        <time>2010-01-01T01:56:19Z</time>
      </trkpt>
      <trkpt lat="40.460258" lon="-7.550643">
        <ele>1541.066</ele>
        <time>2010-01-01T01:57:00Z</time>
      </trkpt>
      <trkpt lat="40.459551" lon="-7.551896">
        <ele>1554.054</ele>
        <time>2010-01-01T01:57:47Z</time>
      </trkpt>
      <trkpt lat="40.459502" lon="-7.552644">
        <ele>1555.056</ele>
        <time>2010-01-01T01:58:10Z</time>
      </trkpt>
      <trkpt lat="40.459408" lon="-7.553791">
        <ele>1554.011</ele>
        <time>2010-01-01T01:58:45Z</time>
      </trkpt>
      <trkpt lat="40.459338" lon="-7.553993">
        <ele>1553.008</ele>
        <time>2010-01-01T01:58:52Z</time>
      </trkpt>
      <trkpt lat="40.45891" lon="-7.554279">
        <ele>1550.078</ele>
        <time>2010-01-01T01:59:11Z</time>
      </trkpt>
      <trkpt lat="40.458614" lon="-7.554441">
        <ele>1549.051</ele>
        <time>2010-01-01T01:59:24Z</time>
      </trkpt>
      <trkpt lat="40.457325" lon="-7.555248">
        <ele>1542.064</ele>
        <time>2010-01-01T02:00:21Z</time>
      </trkpt>
      <trkpt lat="40.456808" lon="-7.555612">
        <ele>1538.09</ele>
        <time>2010-01-01T02:00:45Z</time>
      </trkpt>
      <trkpt lat="40.456428" lon="-7.555953">
        <ele>1534.033</ele>
        <time>2010-01-01T02:01:03Z</time>
      </trkpt>
      <trkpt lat="40.455878" lon="-7.556388">
        <ele>1527.032</ele>
        <time>2010-01-01T02:01:29Z</time>
      </trkpt>
      <trkpt lat="40.455435" lon="-7.556875">
        <ele>1516.076</ele>
        <time>2010-01-01T02:01:52Z</time>
      </trkpt>
      <trkpt lat="40.454895" lon="-7.557482">
        <ele>1506.029</ele>
        <time>2010-01-01T02:02:20Z</time>
      </trkpt>
      <trkpt lat="40.454648" lon="-7.557754">
        <ele>1504.065</ele>
        <time>2010-01-01T02:02:33Z</time>
      </trkpt>
      <trkpt lat="40.453786" lon="-7.558664">
        <ele>1502.068</ele>
        <time>2010-01-01T02:03:17Z</time>
      </trkpt>
      <trkpt lat="40.453367" lon="-7.559136">
        <ele>1502.014</ele>
        <time>2010-01-01T02:03:40Z</time>
      </trkpt>
      <trkpt lat="40.452763" lon="-7.559673">
        <ele>1500.008</ele>
        <time>2010-01-01T02:04:09Z</time>
      </trkpt>
      <trkpt lat="40.452474" lon="-7.559864">
        <ele>1499.069</ele>
        <time>2010-01-01T02:04:22Z</time>
      </trkpt>
      <trkpt lat="40.451873" lon="-7.560004">
        <ele>1495.032</ele>
        <time>2010-01-01T02:04:46Z</time>
      </trkpt>
      <trkpt lat="40.4507" lon="-7.560271">
        <ele>1489.055</ele>
        <time>2010-01-01T02:05:34Z</time>
      </trkpt>
      <trkpt lat="40.45051" lon="-7.560371">
        <ele>1489.031</ele>
        <time>2010-01-01T02:05:42Z</time>
      </trkpt>
      <trkpt lat="40.450357" lon="-7.560523">
        <ele>1489.094</ele>
        <time>2010-01-01T02:05:50Z</time>
      </trkpt>
      <trkpt lat="40.450167" lon="-7.560856">
        <ele>1486.073</ele>
        <time>2010-01-01T02:06:02Z</time>
      </trkpt>
      <trkpt lat="40.449788" lon="-7.561602">
        <ele>1486.087</ele>
        <time>2010-01-01T02:06:30Z</time>
      </trkpt>
      <trkpt lat="40.449396" lon="-7.56246">
        <ele>1485.03</ele>
        <time>2010-01-01T02:07:00Z</time>
      </trkpt>
      <trkpt lat="40.449067" lon="-7.563217">
        <ele>1484.036</ele>
        <time>2010-01-01T02:07:27Z</time>
      </trkpt>
      <trkpt lat="40.448279" lon="-7.564627">
        <ele>1476.017</ele>
        <time>2010-01-01T02:08:20Z</time>
      </trkpt>
      <trkpt lat="40.447839" lon="-7.565401">
        <ele>1476.018</ele>
        <time>2010-01-01T02:08:49Z</time>
      </trkpt>
      <trkpt lat="40.447039" lon="-7.566452">
        <ele>1486.008</ele>
        <time>2010-01-01T02:09:35Z</time>
      </trkpt>
      <trkpt lat="40.446714" lon="-7.566915">
        <ele>1487.066</ele>
        <time>2010-01-01T02:09:54Z</time>
      </trkpt>
      <trkpt lat="40.446284" lon="-7.567483">
        <ele>1488.049</ele>
        <time>2010-01-01T02:10:18Z</time>
      </trkpt>
      <trkpt lat="40.445478" lon="-7.568274">
        <ele>1482.092</ele>
        <time>2010-01-01T02:10:59Z</time>
      </trkpt>
      <trkpt lat="40.445234" lon="-7.568483">
        <ele>1480.028</ele>
        <time>2010-01-01T02:11:10Z</time>
      </trkpt>
      <trkpt lat="40.444337" lon="-7.569236">
        <ele>1470.051</ele>
        <time>2010-01-01T02:11:53Z</time>
      </trkpt>
      <trkpt lat="40.443237" lon="-7.570193">
        <ele>1463.09</ele>
        <time>2010-01-01T02:12:46Z</time>
      </trkpt>
      <trkpt lat="40.442544" lon="-7.570756">
        <ele>1458.014</ele>
        <time>2010-01-01T02:13:18Z</time>
      </trkpt>
      <trkpt lat="40.441453" lon="-7.57172">
        <ele>1457.057</ele>
        <time>2010-01-01T02:14:11Z</time>
      </trkpt>
      <trkpt lat="40.441156" lon="-7.57206">
        <ele>1456.034</ele>
        <time>2010-01-01T02:14:27Z</time>
      </trkpt>
      <trkpt lat="40.441126" lon="-7.572344">
        <ele>1455.055</ele>
        <time>2010-01-01T02:14:35Z</time>
      </trkpt>
      <trkpt lat="40.441166" lon="-7.573163">
        <ele>1451.01</ele>
        <time>2010-01-01T02:15:00Z</time>
      </trkpt>
      <trkpt lat="40.441124" lon="-7.573388">
        <ele>1450.008</ele>
        <time>2010-01-01T02:15:08Z</time>
      </trkpt>
      <trkpt lat="40.440915" lon="-7.574064">
        <ele>1449.046</ele>
        <time>2010-01-01T02:15:30Z</time>
      </trkpt>
      <trkpt lat="40.440552" lon="-7.574779">
        <ele>1445.049</ele>
        <time>2010-01-01T02:15:56Z</time>
      </trkpt>
      <trkpt lat="40.440421" lon="-7.575113">
        <ele>1444.092</ele>
        <time>2010-01-01T02:16:07Z</time>
      </trkpt>
      <trkpt lat="40.440159" lon="-7.576132">
        <ele>1434.038</ele>
        <time>2010-01-01T02:16:40Z</time>
      </trkpt>
      <trkpt lat="40.440037" lon="-7.576405">
        <ele>1433.071</ele>
        <time>2010-01-01T02:16:50Z</time>
      </trkpt>
      <trkpt lat="40.439905" lon="-7.576737">
        <ele>1432.09</ele>
        <time>2010-01-01T02:17:01Z</time>
      </trkpt>
      <trkpt lat="40.439762" lon="-7.576937">
        <ele>1431.024</ele>
        <time>2010-01-01T02:17:10Z</time>
      </trkpt>
      <trkpt lat="40.439624" lon="-7.577098">
        <ele>1431.037</ele>
        <time>2010-01-01T02:17:17Z</time>
      </trkpt>
      <trkpt lat="40.438992" lon="-7.577075">
        <ele>1433.018</ele>
        <time>2010-01-01T02:17:42Z</time>
      </trkpt>
      <trkpt lat="40.438674" lon="-7.577026">
        <ele>1433.098</ele>
        <time>2010-01-01T02:17:55Z</time>
      </trkpt>
      <trkpt lat="40.438543" lon="-7.577085">
        <ele>1433.017</ele>
        <time>2010-01-01T02:18:01Z</time>
      </trkpt>
      <trkpt lat="40.438122" lon="-7.577181">
        <ele>1436.008</ele>
        <time>2010-01-01T02:18:18Z</time>
      </trkpt>
      <trkpt lat="40.43773" lon="-7.577343">
        <ele>1435.024</ele>
        <time>2010-01-01T02:18:34Z</time>
      </trkpt>
      <trkpt lat="40.437472" lon="-7.57749">
        <ele>1433.097</ele>
        <time>2010-01-01T02:18:45Z</time>
      </trkpt>
      <trkpt lat="40.437334" lon="-7.577575">
        <ele>1431.06</ele>
        <time>2010-01-01T02:18:52Z</time>
      </trkpt>
      <trkpt lat="40.43713" lon="-7.578563">
        <ele>1433.016</ele>
        <time>2010-01-01T02:19:23Z</time>
      </trkpt>
      <trkpt lat="40.437278" lon="-7.578937">
        <ele>1436.079</ele>
        <time>2010-01-01T02:19:36Z</time>
      </trkpt>
      <trkpt lat="40.437458" lon="-7.579435">
        <ele>1438.068</ele>
        <time>2010-01-01T02:19:52Z</time>
      </trkpt>
      <trkpt lat="40.437514" lon="-7.580702">
        <ele>1428.052</ele>
        <time>2010-01-01T02:20:31Z</time>
      </trkpt>
      <trkpt lat="40.437497" lon="-7.580854">
        <ele>1426.065</ele>
        <time>2010-01-01T02:20:36Z</time>
      </trkpt>
      <trkpt lat="40.437296" lon="-7.581068">
        <ele>1421.096</ele>
        <time>2010-01-01T02:20:46Z</time>
      </trkpt>
      <trkpt lat="40.43707" lon="-7.581458">
        <ele>1416.031</ele>
        <time>2010-01-01T02:21:01Z</time>
      </trkpt>
      <trkpt lat="40.43694" lon="-7.581739">
        <ele>1415.024</ele>
        <time>2010-01-01T02:21:11Z</time>
      </trkpt>
      <trkpt lat="40.436769" lon="-7.58206">
        <ele>1414.008</ele>
        <time>2010-01-01T02:21:23Z</time>
      </trkpt>
      <trkpt lat="40.436552" lon="-7.58228">
        <ele>1413.012</ele>
        <time>2010-01-01T02:21:34Z</time>
      </trkpt>
      <trkpt lat="40.436028" lon="-7.582614">
        <ele>1411.095</ele>
        <time>2010-01-01T02:21:57Z</time>
      </trkpt>
      <trkpt lat="40.435905" lon="-7.582723">
        <ele>1411.028</ele>
        <time>2010-01-01T02:22:03Z</time>
      </trkpt>
      <trkpt lat="40.435478" lon="-7.583215">
        <ele>1411.044</ele>
        <time>2010-01-01T02:22:26Z</time>
      </trkpt>
      <trkpt lat="40.435169" lon="-7.58361">
        <ele>1409.057</ele>
        <time>2010-01-01T02:22:43Z</time>
      </trkpt>
      <trkpt lat="40.434805" lon="-7.583819">
        <ele>1409.056</ele>
        <time>2010-01-01T02:22:59Z</time>
      </trkpt>
      <trkpt lat="40.434369" lon="-7.584014">
        <ele>1409.01</ele>
        <time>2010-01-01T02:23:17Z</time>
      </trkpt>
      <trkpt lat="40.433995" lon="-7.584148">
        <ele>1412.033</ele>
        <time>2010-01-01T02:23:33Z</time>
      </trkpt>
      <trkpt lat="40.43388" lon="-7.5844">
        <ele>1413.034</ele>
        <time>2010-01-01T02:23:42Z</time>
      </trkpt>
      <trkpt lat="40.433849" lon="-7.584731">
        <ele>1417.055</ele>
        <time>2010-01-01T02:23:52Z</time>
      </trkpt>
      <trkpt lat="40.43383" lon="-7.584969">
        <ele>1419.01</ele>
        <time>2010-01-01T02:23:59Z</time>
      </trkpt>
      <trkpt lat="40.433282" lon="-7.585644">
        <ele>1420.008</ele>
        <time>2010-01-01T02:24:29Z</time>
      </trkpt>
      <trkpt lat="40.43323" lon="-7.585928">
        <ele>1420.096</ele>
        <time>2010-01-01T02:24:38Z</time>
      </trkpt>
      <trkpt lat="40.433146" lon="-7.586353">
        <ele>1422.049</ele>
        <time>2010-01-01T02:24:52Z</time>
      </trkpt>
      <trkpt lat="40.432911" lon="-7.587349">
        <ele>1423.022</ele>
        <time>2010-01-01T02:25:24Z</time>
      </trkpt>
      <trkpt lat="40.432624" lon="-7.588487">
        <ele>1416.098</ele>
        <time>2010-01-01T02:26:00Z</time>
      </trkpt>
      <trkpt lat="40.432428" lon="-7.589324">
        <ele>1417.071</ele>
        <time>2010-01-01T02:26:27Z</time>
      </trkpt>
      <trkpt lat="40.432028" lon="-7.58983">
        <ele>1418.04</ele>
        <time>2010-01-01T02:26:49Z</time>
      </trkpt>
      <trkpt lat="40.43197" lon="-7.590082">
        <ele>1418.094</ele>
        <time>2010-01-01T02:26:57Z</time>
      </trkpt>
      <trkpt lat="40.432064" lon="-7.590507">
        <ele>1419.037</ele>
        <time>2010-01-01T02:27:11Z</time>
      </trkpt>
      <trkpt lat="40.432174" lon="-7.590818">
        <ele>1420.081</ele>
        <time>2010-01-01T02:27:21Z</time>
      </trkpt>
      <trkpt lat="40.432201" lon="-7.59097">
        <ele>1420.061</ele>
        <time>2010-01-01T02:27:26Z</time>
      </trkpt>
      <trkpt lat="40.432126" lon="-7.591151">
        <ele>1419.017</ele>
        <time>2010-01-01T02:27:32Z</time>
      </trkpt>
      <trkpt lat="40.432047" lon="-7.591184">
        <ele>1419.008</ele>
        <time>2010-01-01T02:27:35Z</time>
      </trkpt>
      <trkpt lat="40.431851" lon="-7.591198">
        <ele>1420.021</ele>
        <time>2010-01-01T02:27:43Z</time>
      </trkpt>
      <trkpt lat="40.431117" lon="-7.590566">
        <ele>1420.094</ele>
        <time>2010-01-01T02:28:18Z</time>
      </trkpt>
      <trkpt lat="40.430737" lon="-7.59027">
        <ele>1421.097</ele>
        <time>2010-01-01T02:28:36Z</time>
      </trkpt>
      <trkpt lat="40.430114" lon="-7.590612">
        <ele>1421.033</ele>
        <time>2010-01-01T02:29:03Z</time>
      </trkpt>
      <trkpt lat="40.429363" lon="-7.590936">
        <ele>1420.096</ele>
        <time>2010-01-01T02:29:35Z</time>
      </trkpt>
      <trkpt lat="40.428862" lon="-7.591091">
        <ele>1416.065</ele>
        <time>2010-01-01T02:29:55Z</time>
      </trkpt>
      <trkpt lat="40.42873" lon="-7.591279">
        <ele>1413.079</ele>
        <time>2010-01-01T02:30:03Z</time>
      </trkpt>
      <trkpt lat="40.42873" lon="-7.591283">
        <ele>1413.082</ele>
        <time>2010-01-01T02:30:03Z</time>
      </trkpt>
      <trkpt lat="40.428664" lon="-7.591644">
        <ele>1411.055</ele>
        <time>2010-01-01T02:30:15Z</time>
      </trkpt>
      <trkpt lat="40.428522" lon="-7.592021">
        <ele>1409.007</ele>
        <time>2010-01-01T02:30:27Z</time>
      </trkpt>
      <trkpt lat="40.428463" lon="-7.592138">
        <ele>1408.017</ele>
        <time>2010-01-01T02:30:32Z</time>
      </trkpt>
      <trkpt lat="40.428176" lon="-7.592375">
        <ele>1406.008</ele>
        <time>2010-01-01T02:30:45Z</time>
      </trkpt>
      <trkpt lat="40.427771" lon="-7.59228">
        <ele>1402.068</ele>
        <time>2010-01-01T02:31:02Z</time>
      </trkpt>
      <trkpt lat="40.427365" lon="-7.592092">
        <ele>1402.061</ele>
        <time>2010-01-01T02:31:19Z</time>
      </trkpt>
      <trkpt lat="40.427152" lon="-7.591987">
        <ele>1401.054</ele>
        <time>2010-01-01T02:31:28Z</time>
      </trkpt>
      <trkpt lat="40.426773" lon="-7.591942">
        <ele>1399.06</ele>
        <time>2010-01-01T02:31:43Z</time>
      </trkpt>
      <trkpt lat="40.4265" lon="-7.592163">
        <ele>1399.053</ele>
        <time>2010-01-01T02:31:56Z</time>
      </trkpt>
      <trkpt lat="40.426252" lon="-7.592491">
        <ele>1400.042</ele>
        <time>2010-01-01T02:32:10Z</time>
      </trkpt>
      <trkpt lat="40.426059" lon="-7.592492">
        <ele>1399.046</ele>
        <time>2010-01-01T02:32:18Z</time>
      </trkpt>
      <trkpt lat="40.425893" lon="-7.59238">
        <ele>1399.059</ele>
        <time>2010-01-01T02:32:25Z</time>
      </trkpt>
      <trkpt lat="40.424823" lon="-7.591594">
        <ele>1399.087</ele>
        <time>2010-01-01T02:33:14Z</time>
      </trkpt>
      <trkpt lat="40.424678" lon="-7.591612">
        <ele>1399.042</ele>
        <time>2010-01-01T02:33:20Z</time>
      </trkpt>
      <trkpt lat="40.424493" lon="-7.591642">
        <ele>1399.026</ele>
        <time>2010-01-01T02:33:28Z</time>
      </trkpt>
      <trkpt lat="40.423166" lon="-7.592334">
        <ele>1398.008</ele>
        <time>2010-01-01T02:34:25Z</time>
      </trkpt>
      <trkpt lat="40.423041" lon="-7.592372">
        <ele>1398.011</ele>
        <time>2010-01-01T02:34:30Z</time>
      </trkpt>
      <trkpt lat="40.422943" lon="-7.592368">
        <ele>1398.044</ele>
        <time>2010-01-01T02:34:34Z</time>
      </trkpt>
      <trkpt lat="40.422863" lon="-7.59237">
        <ele>1398.037</ele>
        <time>2010-01-01T02:34:37Z</time>
      </trkpt>
      <trkpt lat="40.422804" lon="-7.592147">
        <ele>1397.063</ele>
        <time>2010-01-01T02:34:44Z</time>
      </trkpt>
      <trkpt lat="40.422678" lon="-7.591968">
        <ele>1396.066</ele>
        <time>2010-01-01T02:34:52Z</time>
      </trkpt>
      <trkpt lat="40.422553" lon="-7.591876">
        <ele>1397.015</ele>
        <time>2010-01-01T02:34:58Z</time>
      </trkpt>
      <trkpt lat="40.422423" lon="-7.591824">
        <ele>1397.099</ele>
        <time>2010-01-01T02:35:03Z</time>
      </trkpt>
      <trkpt lat="40.422083" lon="-7.591809">
        <ele>1397.052</ele>
        <time>2010-01-01T02:35:17Z</time>
      </trkpt>
      <trkpt lat="40.421765" lon="-7.591949">
        <ele>1396.049</ele>
        <time>2010-01-01T02:35:30Z</time>
      </trkpt>
      <trkpt lat="40.421492" lon="-7.592251">
        <ele>1397.002</ele>
        <time>2010-01-01T02:35:44Z</time>
      </trkpt>
      <trkpt lat="40.421325" lon="-7.592729">
        <ele>1401.022</ele>
        <time>2010-01-01T02:36:00Z</time>
      </trkpt>
      <trkpt lat="40.421187" lon="-7.592979">
        <ele>1402.008</ele>
        <time>2010-01-01T02:36:10Z</time>
      </trkpt>
      <trkpt lat="40.420995" lon="-7.593057">
        <ele>1402.067</ele>
        <time>2010-01-01T02:36:18Z</time>
      </trkpt>
      <trkpt lat="40.420547" lon="-7.592977">
        <ele>1400.08</ele>
        <time>2010-01-01T02:36:36Z</time>
      </trkpt>
      <trkpt lat="40.420108" lon="-7.593035">
        <ele>1401.043</ele>
        <time>2010-01-01T02:36:54Z</time>
      </trkpt>
      <trkpt lat="40.419563" lon="-7.59305">
        <ele>1402.049</ele>
        <time>2010-01-01T02:37:15Z</time>
      </trkpt>
      <trkpt lat="40.418885" lon="-7.593175">
        <ele>1406.082</ele>
        <time>2010-01-01T02:37:43Z</time>
      </trkpt>
      <trkpt lat="40.418281" lon="-7.592979">
        <ele>1407.041</ele>
        <time>2010-01-01T02:38:08Z</time>
      </trkpt>
      <trkpt lat="40.417761" lon="-7.593082">
        <ele>1410.015</ele>
        <time>2010-01-01T02:38:29Z</time>
      </trkpt>
      <trkpt lat="40.417553" lon="-7.592964">
        <ele>1408.098</ele>
        <time>2010-01-01T02:38:38Z</time>
      </trkpt>
      <trkpt lat="40.41748" lon="-7.59296">
        <ele>1409.064</ele>
        <time>2010-01-01T02:38:41Z</time>
      </trkpt>
      <trkpt lat="40.417431" lon="-7.592856">
        <ele>1407.006</ele>
        <time>2010-01-01T02:38:44Z</time>
      </trkpt>
      <trkpt lat="40.416462" lon="-7.591721">
        <ele>1405.016</ele>
        <time>2010-01-01T02:39:36Z</time>
      </trkpt>
      <trkpt lat="40.416256" lon="-7.591666">
        <ele>1408.008</ele>
        <time>2010-01-01T02:39:45Z</time>
      </trkpt>
      <trkpt lat="40.415788" lon="-7.592304">
        <ele>1416.069</ele>
        <time>2010-01-01T02:40:12Z</time>
      </trkpt>
      <trkpt lat="40.415623" lon="-7.592332">
        <ele>1417.072</ele>
        <time>2010-01-01T02:40:18Z</time>
      </trkpt>
      <trkpt lat="40.415063" lon="-7.592188">
        <ele>1421.015</ele>
        <time>2010-01-01T02:40:41Z</time>
      </trkpt>
      <trkpt lat="40.414876" lon="-7.592176">
        <ele>1423.021</ele>
        <time>2010-01-01T02:40:49Z</time>
      </trkpt>
      <trkpt lat="40.414781" lon="-7.59213">
        <ele>1424.024</ele>
        <time>2010-01-01T02:40:53Z</time>
      </trkpt>
      <trkpt lat="40.414662" lon="-7.592246">
        <ele>1424.023</ele>
        <time>2010-01-01T02:40:59Z</time>
      </trkpt>
      <trkpt lat="40.414545" lon="-7.592141">
        <ele>1425.047</ele>
        <time>2010-01-01T02:41:04Z</time>
      </trkpt>
      <trkpt lat="40.414066" lon="-7.591901">
        <ele>1428.03</ele>
        <time>2010-01-01T02:41:25Z</time>
      </trkpt>
      <trkpt lat="40.413788" lon="-7.591904">
        <ele>1429.011</ele>
        <time>2010-01-01T02:41:36Z</time>
      </trkpt>
      <trkpt lat="40.41366" lon="-7.59196">
        <ele>1430.021</ele>
        <time>2010-01-01T02:41:42Z</time>
      </trkpt>
      <trkpt lat="40.413328" lon="-7.591754">
        <ele>1434.003</ele>
        <time>2010-01-01T02:41:56Z</time>
      </trkpt>
      <trkpt lat="40.412783" lon="-7.591481">
        <ele>1434.008</ele>
        <time>2010-01-01T02:42:20Z</time>
      </trkpt>
      <trkpt lat="40.412497" lon="-7.591352">
        <ele>1435.054</ele>
        <time>2010-01-01T02:42:32Z</time>
      </trkpt>
      <trkpt lat="40.412231" lon="-7.591104">
        <ele>1437.067</ele>
        <time>2010-01-01T02:42:45Z</time>
      </trkpt>
      <trkpt lat="40.411954" lon="-7.590814">
        <ele>1438.06</ele>
        <time>2010-01-01T02:42:59Z</time>
      </trkpt>
      <trkpt lat="40.411873" lon="-7.590726">
        <ele>1438.036</ele>
        <time>2010-01-01T02:43:03Z</time>
      </trkpt>
      <trkpt lat="40.411538" lon="-7.590757">
        <ele>1439.089</ele>
        <time>2010-01-01T02:43:17Z</time>
      </trkpt>
      <trkpt lat="40.41136" lon="-7.590742">
        <ele>1439.078</ele>
        <time>2010-01-01T02:43:24Z</time>
      </trkpt>
      <trkpt lat="40.410366" lon="-7.591309">
        <ele>1446.052</ele>
        <time>2010-01-01T02:44:07Z</time>
      </trkpt>
      <trkpt lat="40.410006" lon="-7.591147">
        <ele>1447.095</ele>
        <time>2010-01-01T02:44:22Z</time>
      </trkpt>
      <trkpt lat="40.409864" lon="-7.591061">
        <ele>1447.037</ele>
        <time>2010-01-01T02:44:29Z</time>
      </trkpt>
      <trkpt lat="40.409558" lon="-7.59026">
        <ele>1446.049</ele>
        <time>2010-01-01T02:44:56Z</time>
      </trkpt>
      <trkpt lat="40.409469" lon="-7.590132">
        <ele>1447.013</ele>
        <time>2010-01-01T02:45:01Z</time>
      </trkpt>
      <trkpt lat="40.408779" lon="-7.589492">
        <ele>1446.008</ele>
        <time>2010-01-01T02:45:35Z</time>
      </trkpt>
      <trkpt lat="40.408334" lon="-7.589127">
        <ele>1443.096</ele>
        <time>2010-01-01T02:45:56Z</time>
      </trkpt>
      <trkpt lat="40.40747" lon="-7.588882">
        <ele>1442.029</ele>
        <time>2010-01-01T02:46:31Z</time>
      </trkpt>
      <trkpt lat="40.406966" lon="-7.588586">
        <ele>1443.092</ele>
        <time>2010-01-01T02:46:53Z</time>
      </trkpt>
      <trkpt lat="40.406107" lon="-7.588306">
        <ele>1446.088</ele>
        <time>2010-01-01T02:47:29Z</time>
      </trkpt>
      <trkpt lat="40.405159" lon="-7.58802">
        <ele>1444.091</ele>
        <time>2010-01-01T02:48:08Z</time>
      </trkpt>
      <trkpt lat="40.404289" lon="-7.587803">
        <ele>1440.05</ele>
        <time>2010-01-01T02:48:43Z</time>
      </trkpt>
      <trkpt lat="40.404035" lon="-7.587633">
        <ele>1440.034</ele>
        <time>2010-01-01T02:48:55Z</time>
      </trkpt>
      <trkpt lat="40.404336" lon="-7.58788">
        <ele>1439.087</ele>
        <time>2010-01-01T00:00:18Z</time>
      </trkpt>
      <trkpt lat="40.404764" lon="-7.58797">
        <ele>1442.052</ele>
        <time>2010-01-01T00:00:32Z</time>
      </trkpt>
      <trkpt lat="40.405376" lon="-7.588091">
        <ele>1444.053</ele>
        <time>2010-01-01T00:00:53Z</time>
      </trkpt>
      <trkpt lat="40.406324" lon="-7.58838">
        <ele>1444.008</ele>
        <time>2010-01-01T00:01:25Z</time>
      </trkpt>
      <trkpt lat="40.407104" lon="-7.588706">
        <ele>1442.008</ele>
        <time>2010-01-01T00:01:52Z</time>
      </trkpt>
      <trkpt lat="40.407384" lon="-7.588914">
        <ele>1441.028</ele>
        <time>2010-01-01T00:02:03Z</time>
      </trkpt>
      <trkpt lat="40.408299" lon="-7.589082">
        <ele>1444.051</ele>
        <time>2010-01-01T00:02:34Z</time>
      </trkpt>
      <trkpt lat="40.409408" lon="-7.590064">
        <ele>1447.014</ele>
        <time>2010-01-01T00:03:19Z</time>
      </trkpt>
      <trkpt lat="40.409614" lon="-7.590357">
        <ele>1446.02</ele>
        <time>2010-01-01T00:03:29Z</time>
      </trkpt>
      <trkpt lat="40.409879" lon="-7.591063">
        <ele>1447.013</ele>
        <time>2010-01-01T00:03:49Z</time>
      </trkpt>
      <trkpt lat="40.41039" lon="-7.591319">
        <ele>1446.032</ele>
        <time>2010-01-01T00:04:07Z</time>
      </trkpt>
      <trkpt lat="40.411378" lon="-7.590743">
        <ele>1439.076</ele>
        <time>2010-01-01T00:04:43Z</time>
      </trkpt>
      <trkpt lat="40.411896" lon="-7.590766">
        <ele>1438.039</ele>
        <time>2010-01-01T00:05:00Z</time>
      </trkpt>
      <trkpt lat="40.412468" lon="-7.591358">
        <ele>1435.082</ele>
        <time>2010-01-01T00:05:25Z</time>
      </trkpt>
      <trkpt lat="40.413621" lon="-7.591986">
        <ele>1430.043</ele>
        <time>2010-01-01T00:06:06Z</time>
      </trkpt>
      <trkpt lat="40.414047" lon="-7.591909">
        <ele>1428.017</ele>
        <time>2010-01-01T00:06:21Z</time>
      </trkpt>
      <trkpt lat="40.414393" lon="-7.592079">
        <ele>1426.008</ele>
        <time>2010-01-01T00:06:33Z</time>
      </trkpt>
      <trkpt lat="40.414633" lon="-7.59231">
        <ele>1423.071</ele>
        <time>2010-01-01T00:06:43Z</time>
      </trkpt>
      <trkpt lat="40.414674" lon="-7.593538">
        <ele>1424.094</ele>
        <time>2010-01-01T00:07:14Z</time>
      </trkpt>
      <trkpt lat="40.415032" lon="-7.594216">
        <ele>1427.097</ele>
        <time>2010-01-01T00:07:35Z</time>
      </trkpt>
      <trkpt lat="40.414959" lon="-7.595977">
        <ele>1423.093</ele>
        <time>2010-01-01T00:08:20Z</time>
      </trkpt>
      <trkpt lat="40.41502" lon="-7.596356">
        <ele>1422.026</ele>
        <time>2010-01-01T00:08:30Z</time>
      </trkpt>
      <trkpt lat="40.414738" lon="-7.596821">
        <ele>1423.035</ele>
        <time>2010-01-01T00:08:45Z</time>
      </trkpt>
      <trkpt lat="40.414384" lon="-7.599598">
        <ele>1417.029</ele>
        <time>2010-01-01T00:09:56Z</time>
      </trkpt>
      <trkpt lat="40.413576" lon="-7.600295">
        <ele>1421.012</ele>
        <time>2010-01-01T00:10:29Z</time>
      </trkpt>
      <trkpt lat="40.412986" lon="-7.601338">
        <ele>1417.049</ele>
        <time>2010-01-01T00:11:02Z</time>
      </trkpt>
      <trkpt lat="40.412337" lon="-7.601778">
        <ele>1416.002</ele>
        <time>2010-01-01T00:11:26Z</time>
      </trkpt>
      <trkpt lat="40.411822" lon="-7.602553">
        <ele>1408.022</ele>
        <time>2010-01-01T00:11:52Z</time>
      </trkpt>
      <trkpt lat="40.41157" lon="-7.603041">
        <ele>1405.008</ele>
        <time>2010-01-01T00:12:07Z</time>
      </trkpt>
      <trkpt lat="40.411571" lon="-7.603525">
        <ele>1403.097</ele>
        <time>2010-01-01T00:12:19Z</time>
      </trkpt>
      <trkpt lat="40.411331" lon="-7.603721">
        <ele>1401.04</ele>
        <time>2010-01-01T00:12:29Z</time>
      </trkpt>
      <trkpt lat="40.410774" lon="-7.603739">
        <ele>1396.043</ele>
        <time>2010-01-01T00:12:47Z</time>
      </trkpt>
      <trkpt lat="40.409054" lon="-7.60359">
        <ele>1392.019</ele>
        <time>2010-01-01T00:13:45Z</time>
      </trkpt>
      <trkpt lat="40.408499" lon="-7.604017">
        <ele>1391.092</ele>
        <time>2010-01-01T00:14:06Z</time>
      </trkpt>
      <trkpt lat="40.407705" lon="-7.606789">
        <ele>1400.071</ele>
        <time>2010-01-01T00:15:22Z</time>
      </trkpt>
      <trkpt lat="40.407607" lon="-7.607211">
        <ele>1398.015</ele>
        <time>2010-01-01T00:15:33Z</time>
      </trkpt>
      <trkpt lat="40.408054" lon="-7.609444">
        <ele>1380.018</ele>
        <time>2010-01-01T00:16:31Z</time>
      </trkpt>
      <trkpt lat="40.408287" lon="-7.611038">
        <ele>1369.069</ele>
        <time>2010-01-01T00:17:13Z</time>
      </trkpt>
      <trkpt lat="40.408138" lon="-7.61172">
        <ele>1363.004</ele>
        <time>2010-01-01T00:17:31Z</time>
      </trkpt>
      <trkpt lat="40.407297" lon="-7.612498">
        <ele>1359.024</ele>
        <time>2010-01-01T00:18:05Z</time>
      </trkpt>
      <trkpt lat="40.406956" lon="-7.613197">
        <ele>1360.008</ele>
        <time>2010-01-01T00:18:26Z</time>
      </trkpt>
      <trkpt lat="40.406699" lon="-7.613423">
        <ele>1354.059</ele>
        <time>2010-01-01T00:18:36Z</time>
      </trkpt>
      <trkpt lat="40.40634" lon="-7.614148">
        <ele>1346.062</ele>
        <time>2010-01-01T00:18:58Z</time>
      </trkpt>
      <trkpt lat="40.405938" lon="-7.614918">
        <ele>1339.015</ele>
        <time>2010-01-01T00:19:22Z</time>
      </trkpt>
      <trkpt lat="40.404981" lon="-7.615526">
        <ele>1325.031</ele>
        <time>2010-01-01T00:19:57Z</time>
      </trkpt>
      <trkpt lat="40.404615" lon="-7.616451">
        <ele>1318.054</ele>
        <time>2010-01-01T00:20:24Z</time>
      </trkpt>
      <trkpt lat="40.404644" lon="-7.61828">
        <ele>1296.053</ele>
        <time>2010-01-01T00:21:10Z</time>
      </trkpt>
      <trkpt lat="40.404166" lon="-7.619493">
        <ele>1283.067</ele>
        <time>2010-01-01T00:21:45Z</time>
      </trkpt>
      <trkpt lat="40.404091" lon="-7.619598">
        <ele>1283.09</ele>
        <time>2010-01-01T00:21:49Z</time>
      </trkpt>
      <trkpt lat="40.404032" lon="-7.61972">
        <ele>1282.044</ele>
        <time>2010-01-01T00:21:52Z</time>
      </trkpt>
      <trkpt lat="40.403863" lon="-7.620631">
        <ele>1280.005</ele>
        <time>2010-01-01T00:22:16Z</time>
      </trkpt>
      <trkpt lat="40.403417" lon="-7.621448">
        <ele>1282.015</ele>
        <time>2010-01-01T00:22:42Z</time>
      </trkpt>
      <trkpt lat="40.402942" lon="-7.621409">
        <ele>1279.008</ele>
        <time>2010-01-01T00:22:58Z</time>
      </trkpt>
      <trkpt lat="40.402386" lon="-7.621073">
        <ele>1272.037</ele>
        <time>2010-01-01T00:23:18Z</time>
      </trkpt>
      <trkpt lat="40.402132" lon="-7.621273">
        <ele>1269.09</ele>
        <time>2010-01-01T00:23:28Z</time>
      </trkpt>
      <trkpt lat="40.401945" lon="-7.621769">
        <ele>1267.013</ele>
        <time>2010-01-01T00:23:42Z</time>
      </trkpt>
      <trkpt lat="40.401506" lon="-7.622184">
        <ele>1260.069</ele>
        <time>2010-01-01T00:24:00Z</time>
      </trkpt>
      <trkpt lat="40.400817" lon="-7.623657">
        <ele>1251.092</ele>
        <time>2010-01-01T00:24:44Z</time>
      </trkpt>
      <trkpt lat="40.400808" lon="-7.624234">
        <ele>1251.081</ele>
        <time>2010-01-01T00:24:59Z</time>
      </trkpt>
      <trkpt lat="40.400451" lon="-7.624724">
        <ele>1245.045</ele>
        <time>2010-01-01T00:25:16Z</time>
      </trkpt>
      <trkpt lat="40.400266" lon="-7.624991">
        <ele>1242.088</ele>
        <time>2010-01-01T00:25:25Z</time>
      </trkpt>
      <trkpt lat="40.400157" lon="-7.62557">
        <ele>1239.057</ele>
        <time>2010-01-01T00:25:40Z</time>
      </trkpt>
      <trkpt lat="40.399676" lon="-7.626443">
        <ele>1222.0</ele>
        <time>2010-01-01T00:26:08Z</time>
      </trkpt>
      <trkpt lat="40.399594" lon="-7.626499">
        <ele>1220.02</ele>
        <time>2010-01-01T00:26:11Z</time>
      </trkpt>
      <trkpt lat="40.399582" lon="-7.625549">
        <ele>1231.008</ele>
        <time>2010-01-01T00:26:35Z</time>
      </trkpt>
      <trkpt lat="40.399282" lon="-7.624573">
        <ele>1227.038</ele>
        <time>2010-01-01T00:27:02Z</time>
      </trkpt>
      <trkpt lat="40.399459" lon="-7.624244">
        <ele>1226.041</ele>
        <time>2010-01-01T00:27:12Z</time>
      </trkpt>
      <trkpt lat="40.399628" lon="-7.623922">
        <ele>1224.014</ele>
        <time>2010-01-01T00:27:22Z</time>
      </trkpt>
      <trkpt lat="40.399349" lon="-7.623856">
        <ele>1222.09</ele>
        <time>2010-01-01T00:27:31Z</time>
      </trkpt>
      <trkpt lat="40.398911" lon="-7.624005">
        <ele>1229.013</ele>
        <time>2010-01-01T00:27:46Z</time>
      </trkpt>
      <trkpt lat="40.398636" lon="-7.624548">
        <ele>1229.032</ele>
        <time>2010-01-01T00:28:03Z</time>
      </trkpt>
      <trkpt lat="40.398714" lon="-7.625277">
        <ele>1229.056</ele>
        <time>2010-01-01T00:28:22Z</time>
      </trkpt>
      <trkpt lat="40.39882" lon="-7.625725">
        <ele>1229.089</ele>
        <time>2010-01-01T00:28:33Z</time>
      </trkpt>
      <trkpt lat="40.398736" lon="-7.626877">
        <ele>1226.071</ele>
        <time>2010-01-01T00:29:03Z</time>
      </trkpt>
      <trkpt lat="40.398862" lon="-7.627445">
        <ele>1225.041</ele>
        <time>2010-01-01T00:29:18Z</time>
      </trkpt>
      <trkpt lat="40.398374" lon="-7.62831">
        <ele>1227.015</ele>
        <time>2010-01-01T00:29:45Z</time>
      </trkpt>
      <trkpt lat="40.398327" lon="-7.628877">
        <ele>1222.008</ele>
        <time>2010-01-01T00:30:00Z</time>
      </trkpt>
      <trkpt lat="40.398455" lon="-7.629821">
        <ele>1216.09</ele>
        <time>2010-01-01T00:30:24Z</time>
      </trkpt>
      <trkpt lat="40.398721" lon="-7.630603">
        <ele>1207.053</ele>
        <time>2010-01-01T00:30:46Z</time>
      </trkpt>
      <trkpt lat="40.398801" lon="-7.631044">
        <ele>1201.066</ele>
        <time>2010-01-01T00:30:57Z</time>
      </trkpt>
      <trkpt lat="40.398196" lon="-7.631651">
        <ele>1199.022</ele>
        <time>2010-01-01T00:31:23Z</time>
      </trkpt>
      <trkpt lat="40.39806" lon="-7.631828">
        <ele>1197.075</ele>
        <time>2010-01-01T00:31:29Z</time>
      </trkpt>
      <trkpt lat="40.397896" lon="-7.632118">
        <ele>1193.084</ele>
        <time>2010-01-01T00:31:38Z</time>
      </trkpt>
      <trkpt lat="40.397388" lon="-7.632708">
        <ele>1182.078</ele>
        <time>2010-01-01T00:32:01Z</time>
      </trkpt>
      <trkpt lat="40.397046" lon="-7.633173">
        <ele>1167.091</ele>
        <time>2010-01-01T00:32:17Z</time>
      </trkpt>
      <trkpt lat="40.396916" lon="-7.633062">
        <ele>1168.097</ele>
        <time>2010-01-01T00:32:23Z</time>
      </trkpt>
      <trkpt lat="40.396687" lon="-7.632454">
        <ele>1170.023</ele>
        <time>2010-01-01T00:32:40Z</time>
      </trkpt>
      <trkpt lat="40.395963" lon="-7.630824">
        <ele>1158.025</ele>
        <time>2010-01-01T00:33:28Z</time>
      </trkpt>
      <trkpt lat="40.395832" lon="-7.630789">
        <ele>1154.008</ele>
        <time>2010-01-01T00:33:32Z</time>
      </trkpt>
      <trkpt lat="40.395733" lon="-7.632483">
        <ele>1141.092</ele>
        <time>2010-01-01T00:34:15Z</time>
      </trkpt>
      <trkpt lat="40.396138" lon="-7.632887">
        <ele>1148.015</ele>
        <time>2010-01-01T00:34:32Z</time>
      </trkpt>
      <trkpt lat="40.396331" lon="-7.633655">
        <ele>1144.068</ele>
        <time>2010-01-01T00:34:53Z</time>
      </trkpt>
      <trkpt lat="40.396526" lon="-7.634432">
        <ele>1137.044</ele>
        <time>2010-01-01T00:35:14Z</time>
      </trkpt>
      <trkpt lat="40.397101" lon="-7.635392">
        <ele>1134.037</ele>
        <time>2010-01-01T00:35:45Z</time>
      </trkpt>
      <trkpt lat="40.397163" lon="-7.63614">
        <ele>1130.046</ele>
        <time>2010-01-01T00:36:04Z</time>
      </trkpt>
      <trkpt lat="40.397666" lon="-7.637181">
        <ele>1111.09</ele>
        <time>2010-01-01T00:36:35Z</time>
      </trkpt>
      <trkpt lat="40.397803" lon="-7.637831">
        <ele>1107.043</ele>
        <time>2010-01-01T00:36:52Z</time>
      </trkpt>
      <trkpt lat="40.397464" lon="-7.638947">
        <ele>1101.024</ele>
        <time>2010-01-01T00:37:23Z</time>
      </trkpt>
      <trkpt lat="40.397192" lon="-7.639995">
        <ele>1093.004</ele>
        <time>2010-01-01T00:37:51Z</time>
      </trkpt>
      <trkpt lat="40.397254" lon="-7.640814">
        <ele>1087.014</ele>
        <time>2010-01-01T00:38:12Z</time>
      </trkpt>
      <trkpt lat="40.397377" lon="-7.640906">
        <ele>1086.008</ele>
        <time>2010-01-01T00:38:16Z</time>
      </trkpt>
      <trkpt lat="40.397789" lon="-7.640857">
        <ele>1084.025</ele>
        <time>2010-01-01T00:38:30Z</time>
      </trkpt>
      <trkpt lat="40.398085" lon="-7.641129">
        <ele>1079.098</ele>
        <time>2010-01-01T00:38:42Z</time>
      </trkpt>
      <trkpt lat="40.398581" lon="-7.641266">
        <ele>1071.061</ele>
        <time>2010-01-01T00:38:59Z</time>
      </trkpt>
      <trkpt lat="40.398844" lon="-7.640994">
        <ele>1074.067</ele>
        <time>2010-01-01T00:39:10Z</time>
      </trkpt>
      <trkpt lat="40.399033" lon="-7.641097">
        <ele>1068.09</ele>
        <time>2010-01-01T00:39:17Z</time>
      </trkpt>
      <trkpt lat="40.39927" lon="-7.641053">
        <ele>1064.099</ele>
        <time>2010-01-01T00:39:25Z</time>
      </trkpt>
      <trkpt lat="40.399542" lon="-7.640326">
        <ele>1071.053</ele>
        <time>2010-01-01T00:39:46Z</time>
      </trkpt>
      <trkpt lat="40.399586" lon="-7.639769">
        <ele>1067.036</ele>
        <time>2010-01-01T00:40:00Z</time>
      </trkpt>
      <trkpt lat="40.399539" lon="-7.63936">
        <ele>1066.093</ele>
        <time>2010-01-01T00:40:11Z</time>
      </trkpt>
      <trkpt lat="40.399851" lon="-7.638829">
        <ele>1055.065</ele>
        <time>2010-01-01T00:40:28Z</time>
      </trkpt>
      <trkpt lat="40.400229" lon="-7.638617">
        <ele>1046.021</ele>
        <time>2010-01-01T00:40:41Z</time>
      </trkpt>
      <trkpt lat="40.400748" lon="-7.638334">
        <ele>1040.008</ele>
        <time>2010-01-01T00:41:00Z</time>
      </trkpt>
      <trkpt lat="40.401207" lon="-7.638187">
        <ele>1037.032</ele>
        <time>2010-01-01T00:41:16Z</time>
      </trkpt>
      <trkpt lat="40.401395" lon="-7.637928">
        <ele>1038.065</ele>
        <time>2010-01-01T00:41:25Z</time>
      </trkpt>
      <trkpt lat="40.40157" lon="-7.637861">
        <ele>1042.048</ele>
        <time>2010-01-01T00:41:31Z</time>
      </trkpt>
      <trkpt lat="40.40168" lon="-7.638096">
        <ele>1044.094</ele>
        <time>2010-01-01T00:41:38Z</time>
      </trkpt>
      <trkpt lat="40.40167" lon="-7.638533">
        <ele>1048.097</ele>
        <time>2010-01-01T00:41:49Z</time>
      </trkpt>
      <trkpt lat="40.401627" lon="-7.638996">
        <ele>1051.086</ele>
        <time>2010-01-01T00:42:01Z</time>
      </trkpt>
      <trkpt lat="40.401666" lon="-7.639231">
        <ele>1052.08</ele>
        <time>2010-01-01T00:42:07Z</time>
      </trkpt>
      <trkpt lat="40.401682" lon="-7.639463">
        <ele>1052.093</ele>
        <time>2010-01-01T00:42:13Z</time>
      </trkpt>
      <trkpt lat="40.401811" lon="-7.639619">
        <ele>1053.093</ele>
        <time>2010-01-01T00:42:19Z</time>
      </trkpt>
      <trkpt lat="40.401819" lon="-7.639703">
        <ele>1053.065</ele>
        <time>2010-01-01T00:42:21Z</time>
      </trkpt>
      <trkpt lat="40.401955" lon="-7.63985">
        <ele>1053.021</ele>
        <time>2010-01-01T00:42:27Z</time>
      </trkpt>
      <trkpt lat="40.402033" lon="-7.63983">
        <ele>1054.008</ele>
        <time>2010-01-01T00:42:29Z</time>
      </trkpt>
      <trkpt lat="40.402133" lon="-7.639903">
        <ele>1054.072</ele>
        <time>2010-01-01T00:42:33Z</time>
      </trkpt>
      <trkpt lat="40.402141" lon="-7.640017">
        <ele>1053.095</ele>
        <time>2010-01-01T00:42:36Z</time>
      </trkpt>
      <trkpt lat="40.402212" lon="-7.640128">
        <ele>1053.068</ele>
        <time>2010-01-01T00:42:40Z</time>
      </trkpt>
      <trkpt lat="40.402201" lon="-7.640482">
        <ele>1050.054</ele>
        <time>2010-01-01T00:42:49Z</time>
      </trkpt>
      <trkpt lat="40.402239" lon="-7.640649">
        <ele>1050.087</ele>
        <time>2010-01-01T00:42:53Z</time>
      </trkpt>
      <trkpt lat="40.40236" lon="-7.640805">
        <ele>1052.056</ele>
        <time>2010-01-01T00:42:59Z</time>
      </trkpt>
      <trkpt lat="40.402217" lon="-7.641412">
        <ele>1047.03</ele>
        <time>2010-01-01T00:43:15Z</time>
      </trkpt>
      <trkpt lat="40.402099" lon="-7.642453">
        <ele>1044.043</ele>
        <time>2010-01-01T00:43:42Z</time>
      </trkpt>
      <trkpt lat="40.401905" lon="-7.642724">
        <ele>1039.046</ele>
        <time>2010-01-01T00:43:51Z</time>
      </trkpt>
      <trkpt lat="40.401753" lon="-7.643206">
        <ele>1026.088</ele>
        <time>2010-01-01T00:44:05Z</time>
      </trkpt>
      <trkpt lat="40.401553" lon="-7.643421">
        <ele>1020.016</ele>
        <time>2010-01-01T00:44:13Z</time>
      </trkpt>
      <trkpt lat="40.401463" lon="-7.643727">
        <ele>1018.008</ele>
        <time>2010-01-01T00:44:22Z</time>
      </trkpt>
      <trkpt lat="40.401513" lon="-7.644065">
        <ele>1018.037</ele>
        <time>2010-01-01T00:44:30Z</time>
      </trkpt>
      <trkpt lat="40.401563" lon="-7.644342">
        <ele>1017.08</ele>
        <time>2010-01-01T00:44:38Z</time>
      </trkpt>
      <trkpt lat="40.401523" lon="-7.645259">
        <ele>1020.033</ele>
        <time>2010-01-01T00:45:01Z</time>
      </trkpt>
      <trkpt lat="40.401275" lon="-7.645927">
        <ele>1020.069</ele>
        <time>2010-01-01T00:45:20Z</time>
      </trkpt>
      <trkpt lat="40.401216" lon="-7.646241">
        <ele>1019.032</ele>
        <time>2010-01-01T00:45:28Z</time>
      </trkpt>
      <trkpt lat="40.401344" lon="-7.646603">
        <ele>1022.061</ele>
        <time>2010-01-01T00:45:38Z</time>
      </trkpt>
      <trkpt lat="40.401265" lon="-7.64705">
        <ele>1016.075</ele>
        <time>2010-01-01T00:45:50Z</time>
      </trkpt>
      <trkpt lat="40.401344" lon="-7.647246">
        <ele>1015.058</ele>
        <time>2010-01-01T00:45:55Z</time>
      </trkpt>
      <trkpt lat="40.401265" lon="-7.647396">
        <ele>1015.051</ele>
        <time>2010-01-01T00:46:00Z</time>
      </trkpt>
      <trkpt lat="40.401414" lon="-7.647814">
        <ele>1018.001</ele>
        <time>2010-01-01T00:46:12Z</time>
      </trkpt>
      <trkpt lat="40.401414" lon="-7.648124">
        <ele>1024.011</ele>
        <time>2010-01-01T00:46:20Z</time>
      </trkpt>
      <trkpt lat="40.401275" lon="-7.648237">
        <ele>1030.008</ele>
        <time>2010-01-01T00:46:25Z</time>
      </trkpt>
      <trkpt lat="40.401236" lon="-7.648329">
        <ele>1033.038</ele>
        <time>2010-01-01T00:46:28Z</time>
      </trkpt>
      <trkpt lat="40.401226" lon="-7.648624">
        <ele>1036.021</ele>
        <time>2010-01-01T00:46:35Z</time>
      </trkpt>
      <trkpt lat="40.401177" lon="-7.649186">
        <ele>1046.014</ele>
        <time>2010-01-01T00:46:50Z</time>
      </trkpt>
      <trkpt lat="40.4013" lon="-7.649572">
        <ele>1038.09</ele>
        <time>2010-01-01T00:47:00Z</time>
      </trkpt>
      <trkpt lat="40.401395" lon="-7.649905">
        <ele>1032.063</ele>
        <time>2010-01-01T00:47:09Z</time>
      </trkpt>
      <trkpt lat="40.401434" lon="-7.650286">
        <ele>1039.022</ele>
        <time>2010-01-01T00:47:19Z</time>
      </trkpt>
      <trkpt lat="40.401513" lon="-7.650434">
        <ele>1042.086</ele>
        <time>2010-01-01T00:47:24Z</time>
      </trkpt>
      <trkpt lat="40.401868" lon="-7.650485">
        <ele>1043.059</ele>
        <time>2010-01-01T00:47:36Z</time>
      </trkpt>
      <trkpt lat="40.40206" lon="-7.650482">
        <ele>1041.014</ele>
        <time>2010-01-01T00:47:42Z</time>
      </trkpt>
      <trkpt lat="40.402286" lon="-7.650385">
        <ele>1036.054</ele>
        <time>2010-01-01T00:47:50Z</time>
      </trkpt>
      <trkpt lat="40.402441" lon="-7.650289">
        <ele>1034.009</ele>
        <time>2010-01-01T00:47:56Z</time>
      </trkpt>
      <trkpt lat="40.402671" lon="-7.650485">
        <ele>1033.008</ele>
        <time>2010-01-01T00:48:05Z</time>
      </trkpt>
      <trkpt lat="40.402828" lon="-7.650688">
        <ele>1030.094</ele>
        <time>2010-01-01T00:48:12Z</time>
      </trkpt>
      <trkpt lat="40.402925" lon="-7.651161">
        <ele>1029.087</ele>
        <time>2010-01-01T00:48:24Z</time>
      </trkpt>
      <trkpt lat="40.403058" lon="-7.651745">
        <ele>1030.06</ele>
        <time>2010-01-01T00:48:40Z</time>
      </trkpt>
      <trkpt lat="40.403302" lon="-7.652142">
        <ele>1029.096</ele>
        <time>2010-01-01T00:48:53Z</time>
      </trkpt>
      <trkpt lat="40.40349" lon="-7.652484">
        <ele>1021.039</ele>
        <time>2010-01-01T00:49:04Z</time>
      </trkpt>
      <trkpt lat="40.403591" lon="-7.652761">
        <ele>1016.078</ele>
        <time>2010-01-01T00:49:11Z</time>
      </trkpt>
      <trkpt lat="40.403448" lon="-7.653369">
        <ele>1015.092</ele>
        <time>2010-01-01T00:49:28Z</time>
      </trkpt>
      <trkpt lat="40.403332" lon="-7.653855">
        <ele>1008.035</ele>
        <time>2010-01-01T00:49:41Z</time>
      </trkpt>
      <trkpt lat="40.403194" lon="-7.654322">
        <ele>1002.013</ele>
        <time>2010-01-01T00:49:53Z</time>
      </trkpt>
      <trkpt lat="40.40293" lon="-7.654894">
        <ele>993.043</ele>
        <time>2010-01-01T00:50:10Z</time>
      </trkpt>
      <trkpt lat="40.402453" lon="-7.655628">
        <ele>987.007</ele>
        <time>2010-01-01T00:50:35Z</time>
      </trkpt>
      <trkpt lat="40.402144" lon="-7.655931">
        <ele>989.008</ele>
        <time>2010-01-01T00:50:48Z</time>
      </trkpt>
      <trkpt lat="40.401905" lon="-7.656111">
        <ele>988.024</ele>
        <time>2010-01-01T00:50:57Z</time>
      </trkpt>
      <trkpt lat="40.401849" lon="-7.65628">
        <ele>986.077</ele>
        <time>2010-01-01T00:51:02Z</time>
      </trkpt>
      <trkpt lat="40.401286" lon="-7.656707">
        <ele>982.04</ele>
        <time>2010-01-01T00:51:23Z</time>
      </trkpt>
      <trkpt lat="40.40108" lon="-7.656729">
        <ele>983.056</ele>
        <time>2010-01-01T00:51:30Z</time>
      </trkpt>
      <trkpt lat="40.400975" lon="-7.656852">
        <ele>982.019</ele>
        <time>2010-01-01T00:51:35Z</time>
      </trkpt>
      <trkpt lat="40.400941" lon="-7.657001">
        <ele>979.068</ele>
        <time>2010-01-01T00:51:39Z</time>
      </trkpt>
      <trkpt lat="40.400582" lon="-7.657258">
        <ele>981.052</ele>
        <time>2010-01-01T00:51:52Z</time>
      </trkpt>
      <trkpt lat="40.400421" lon="-7.657484">
        <ele>983.015</ele>
        <time>2010-01-01T00:52:00Z</time>
      </trkpt>
      <trkpt lat="40.400304" lon="-7.657886">
        <ele>982.018</ele>
        <time>2010-01-01T00:52:11Z</time>
      </trkpt>
      <trkpt lat="40.400301" lon="-7.658324">
        <ele>978.098</ele>
        <time>2010-01-01T00:52:22Z</time>
      </trkpt>
      <trkpt lat="40.400267" lon="-7.658529">
        <ele>976.017</ele>
        <time>2010-01-01T00:52:28Z</time>
      </trkpt>
      <trkpt lat="40.400006" lon="-7.65871">
        <ele>981.008</ele>
        <time>2010-01-01T00:52:37Z</time>
      </trkpt>
      <trkpt lat="40.399757" lon="-7.659036">
        <ele>984.044</ele>
        <time>2010-01-01T00:52:49Z</time>
      </trkpt>
      <trkpt lat="40.399604" lon="-7.659411">
        <ele>988.037</ele>
        <time>2010-01-01T00:53:00Z</time>
      </trkpt>
      <trkpt lat="40.399396" lon="-7.659935">
        <ele>975.07</ele>
        <time>2010-01-01T00:53:15Z</time>
      </trkpt>
      <trkpt lat="40.39917" lon="-7.660051">
        <ele>976.086</ele>
        <time>2010-01-01T00:53:23Z</time>
      </trkpt>
      <trkpt lat="40.39883" lon="-7.660056">
        <ele>979.059</ele>
        <time>2010-01-01T00:53:34Z</time>
      </trkpt>
      <trkpt lat="40.398553" lon="-7.659995">
        <ele>981.088</ele>
        <time>2010-01-01T00:53:44Z</time>
      </trkpt>
      <trkpt lat="40.398233" lon="-7.659925">
        <ele>979.092</ele>
        <time>2010-01-01T00:53:55Z</time>
      </trkpt>
      <trkpt lat="40.398049" lon="-7.659965">
        <ele>976.015</ele>
        <time>2010-01-01T00:54:01Z</time>
      </trkpt>
      <trkpt lat="40.397745" lon="-7.660062">
        <ele>977.049</ele>
        <time>2010-01-01T00:54:11Z</time>
      </trkpt>
      <trkpt lat="40.3975" lon="-7.660429">
        <ele>979.002</ele>
        <time>2010-01-01T00:54:24Z</time>
      </trkpt>
      <trkpt lat="40.397258" lon="-7.661103">
        <ele>977.022</ele>
        <time>2010-01-01T00:54:43Z</time>
      </trkpt>
      <trkpt lat="40.39719" lon="-7.661411">
        <ele>973.008</ele>
        <time>2010-01-01T00:54:51Z</time>
      </trkpt>
      <trkpt lat="40.397014" lon="-7.661535">
        <ele>977.037</ele>
        <time>2010-01-01T00:54:57Z</time>
      </trkpt>
      <trkpt lat="40.396967" lon="-7.661824">
        <ele>976.02</ele>
        <time>2010-01-01T00:55:05Z</time>
      </trkpt>
      <trkpt lat="40.396749" lon="-7.662107">
        <ele>978.043</ele>
        <time>2010-01-01T00:55:15Z</time>
      </trkpt>
      <trkpt lat="40.396772" lon="-7.662274">
        <ele>979.019</ele>
        <time>2010-01-01T00:55:20Z</time>
      </trkpt>
      <trkpt lat="40.3973" lon="-7.662629">
        <ele>970.072</ele>
        <time>2010-01-01T00:55:39Z</time>
      </trkpt>
      <trkpt lat="40.397295" lon="-7.662918">
        <ele>972.061</ele>
        <time>2010-01-01T00:55:47Z</time>
      </trkpt>
      <trkpt lat="40.397201" lon="-7.663459">
        <ele>973.045</ele>
        <time>2010-01-01T00:56:01Z</time>
      </trkpt>
      <trkpt lat="40.396957" lon="-7.663919">
        <ele>970.068</ele>
        <time>2010-01-01T00:56:15Z</time>
      </trkpt>
      <trkpt lat="40.396682" lon="-7.664119">
        <ele>975.082</ele>
        <time>2010-01-01T00:56:25Z</time>
      </trkpt>
      <trkpt lat="40.39657" lon="-7.664269">
        <ele>975.043</ele>
        <time>2010-01-01T00:56:31Z</time>
      </trkpt>
      <trkpt lat="40.396341" lon="-7.665031">
        <ele>982.017</ele>
        <time>2010-01-01T00:56:52Z</time>
      </trkpt>
      <trkpt lat="40.396331" lon="-7.665468">
        <ele>984.008</ele>
        <time>2010-01-01T00:57:03Z</time>
      </trkpt>
      <trkpt lat="40.396456" lon="-7.665932">
        <ele>976.021</ele>
        <time>2010-01-01T00:57:15Z</time>
      </trkpt>
      <trkpt lat="40.396558" lon="-7.666293">
        <ele>977.014</ele>
        <time>2010-01-01T00:57:25Z</time>
      </trkpt>
      <trkpt lat="40.396743" lon="-7.666421">
        <ele>969.087</ele>
        <time>2010-01-01T00:57:32Z</time>
      </trkpt>
      <trkpt lat="40.396827" lon="-7.667062">
        <ele>974.013</ele>
        <time>2010-01-01T00:57:49Z</time>
      </trkpt>
      <trkpt lat="40.396766" lon="-7.667426">
        <ele>975.036</ele>
        <time>2010-01-01T00:57:58Z</time>
      </trkpt>
      <trkpt lat="40.396639" lon="-7.66821">
        <ele>980.035</ele>
        <time>2010-01-01T00:58:18Z</time>
      </trkpt>
      <trkpt lat="40.396813" lon="-7.669512">
        <ele>973.039</ele>
        <time>2010-01-01T00:58:52Z</time>
      </trkpt>
      <trkpt lat="40.396733" lon="-7.670053">
        <ele>971.062</ele>
        <time>2010-01-01T00:59:06Z</time>
      </trkpt>
      <trkpt lat="40.396629" lon="-7.67039">
        <ele>974.014</ele>
        <time>2010-01-01T00:59:15Z</time>
      </trkpt>
      <trkpt lat="40.396491" lon="-7.67082">
        <ele>977.054</ele>
        <time>2010-01-01T00:59:27Z</time>
      </trkpt>
      <trkpt lat="40.396601" lon="-7.671219">
        <ele>974.009</ele>
        <time>2010-01-01T00:59:38Z</time>
      </trkpt>
      <trkpt lat="40.396766" lon="-7.67144">
        <ele>969.008</ele>
        <time>2010-01-01T00:59:46Z</time>
      </trkpt>
      <trkpt lat="40.39677" lon="-7.671896">
        <ele>977.064</ele>
        <time>2010-01-01T00:59:57Z</time>
      </trkpt>
      <trkpt lat="40.396857" lon="-7.672109">
        <ele>977.097</ele>
        <time>2010-01-01T01:00:03Z</time>
      </trkpt>
      <trkpt lat="40.397463" lon="-7.672454">
        <ele>965.04</ele>
        <time>2010-01-01T01:00:25Z</time>
      </trkpt>
      <trkpt lat="40.397451" lon="-7.673579">
        <ele>972.066</ele>
        <time>2010-01-01T01:00:54Z</time>
      </trkpt>
      <trkpt lat="40.397312" lon="-7.673925">
        <ele>983.089</ele>
        <time>2010-01-01T01:01:04Z</time>
      </trkpt>
      <trkpt lat="40.397354" lon="-7.674567">
        <ele>980.018</ele>
        <time>2010-01-01T01:01:20Z</time>
      </trkpt>
      <trkpt lat="40.397478" lon="-7.674993">
        <ele>981.062</ele>
        <time>2010-01-01T01:01:32Z</time>
      </trkpt>
      <trkpt lat="40.397834" lon="-7.675211">
        <ele>970.035</ele>
        <time>2010-01-01T01:01:45Z</time>
      </trkpt>
      <trkpt lat="40.398103" lon="-7.675722">
        <ele>974.069</ele>
        <time>2010-01-01T01:02:01Z</time>
      </trkpt>
      <trkpt lat="40.398556" lon="-7.676478">
        <ele>979.004</ele>
        <time>2010-01-01T01:02:25Z</time>
      </trkpt>
      <trkpt lat="40.39884" lon="-7.676567">
        <ele>975.024</ele>
        <time>2010-01-01T01:02:35Z</time>
      </trkpt>
      <trkpt lat="40.399344" lon="-7.676597">
        <ele>969.008</ele>
        <time>2010-01-01T01:02:52Z</time>
      </trkpt>
      <trkpt lat="40.399438" lon="-7.676828">
        <ele>971.059</ele>
        <time>2010-01-01T01:02:58Z</time>
      </trkpt>
      <trkpt lat="40.399435" lon="-7.677303">
        <ele>975.072</ele>
        <time>2010-01-01T01:03:11Z</time>
      </trkpt>
      <trkpt lat="40.399348" lon="-7.677826">
        <ele>976.075</ele>
        <time>2010-01-01T01:03:24Z</time>
      </trkpt>
      <trkpt lat="40.399048" lon="-7.67837">
        <ele>974.051</ele>
        <time>2010-01-01T01:03:41Z</time>
      </trkpt>
      <trkpt lat="40.398888" lon="-7.678754">
        <ele>976.044</ele>
        <time>2010-01-01T01:03:52Z</time>
      </trkpt>
      <trkpt lat="40.399064" lon="-7.67864">
        <ele>971.023</ele>
        <time>2010-01-01T01:03:59Z</time>
      </trkpt>
      <trkpt lat="40.399587" lon="-7.677627">
        <ele>969.057</ele>
        <time>2010-01-01T01:04:30Z</time>
      </trkpt>
      <trkpt lat="40.399709" lon="-7.677755">
        <ele>964.02</ele>
        <time>2010-01-01T01:04:35Z</time>
      </trkpt>
      <trkpt lat="40.399517" lon="-7.678587">
        <ele>959.095</ele>
        <time>2010-01-01T01:04:57Z</time>
      </trkpt>
      <trkpt lat="40.399646" lon="-7.678669">
        <ele>953.049</ele>
        <time>2010-01-01T01:05:02Z</time>
      </trkpt>
      <trkpt lat="40.400203" lon="-7.677524">
        <ele>946.023</ele>
        <time>2010-01-01T01:05:37Z</time>
      </trkpt>
      <trkpt lat="40.400076" lon="-7.676782">
        <ele>949.008</ele>
        <time>2010-01-01T01:05:56Z</time>
      </trkpt>
      <trkpt lat="40.400185" lon="-7.676296">
        <ele>941.022</ele>
        <time>2010-01-01T01:06:09Z</time>
      </trkpt>
      <trkpt lat="40.400303" lon="-7.676005">
        <ele>931.035</ele>
        <time>2010-01-01T01:06:17Z</time>
      </trkpt>
      <trkpt lat="40.400216" lon="-7.675765">
        <ele>927.058</ele>
        <time>2010-01-01T01:06:24Z</time>
      </trkpt>
      <trkpt lat="40.40003" lon="-7.675618">
        <ele>924.074</ele>
        <time>2010-01-01T01:06:31Z</time>
      </trkpt>
      <trkpt lat="40.399733" lon="-7.675688">
        <ele>929.057</ele>
        <time>2010-01-01T01:06:41Z</time>
      </trkpt>
      <trkpt lat="40.399485" lon="-7.675664">
        <ele>930.016</ele>
        <time>2010-01-01T01:06:49Z</time>
      </trkpt>
      <trkpt lat="40.399639" lon="-7.675503">
        <ele>920.09</ele>
        <time>2010-01-01T01:06:56Z</time>
      </trkpt>
      <trkpt lat="40.39995" lon="-7.67535">
        <ele>915.013</ele>
        <time>2010-01-01T01:07:07Z</time>
      </trkpt>
      <trkpt lat="40.400413" lon="-7.675206">
        <ele>907.038</ele>
        <time>2010-01-01T01:07:23Z</time>
      </trkpt>
      <trkpt lat="40.400618" lon="-7.675129">
        <ele>900.07</ele>
        <time>2010-01-01T01:07:30Z</time>
      </trkpt>
      <trkpt lat="40.40091" lon="-7.67532">
        <ele>895.017</ele>
        <time>2010-01-01T01:07:41Z</time>
      </trkpt>
      <trkpt lat="40.401048" lon="-7.675672">
        <ele>898.008</ele>
        <time>2010-01-01T01:07:51Z</time>
      </trkpt>
      <trkpt lat="40.401117" lon="-7.676239">
        <ele>901.036</ele>
        <time>2010-01-01T01:08:06Z</time>
      </trkpt>
      <trkpt lat="40.401364" lon="-7.676933">
        <ele>897.019</ele>
        <time>2010-01-01T01:08:25Z</time>
      </trkpt>
      <trkpt lat="40.401685" lon="-7.67717">
        <ele>890.042</ele>
        <time>2010-01-01T01:08:37Z</time>
      </trkpt>
      <trkpt lat="40.401907" lon="-7.677446">
        <ele>887.038</ele>
        <time>2010-01-01T01:08:48Z</time>
      </trkpt>
      <trkpt lat="40.402073" lon="-7.677779">
        <ele>880.061</ele>
        <time>2010-01-01T01:08:58Z</time>
      </trkpt>
      <trkpt lat="40.401064" lon="-7.67994">
        <ele>868.03</ele>
        <time>2010-01-01T01:10:02Z</time>
      </trkpt>
      <trkpt lat="40.400531" lon="-7.681474">
        <ele>855.014</ele>
        <time>2010-01-01T01:10:45Z</time>
      </trkpt>
      <trkpt lat="40.400507" lon="-7.681968">
        <ele>849.027</ele>
        <time>2010-01-01T01:10:57Z</time>
      </trkpt>
      <trkpt lat="40.400158" lon="-7.683416">
        <ele>840.029</ele>
        <time>2010-01-01T01:11:36Z</time>
      </trkpt>
      <trkpt lat="40.39987" lon="-7.683784">
        <ele>843.0</ele>
        <time>2010-01-01T01:11:49Z</time>
      </trkpt>
      <trkpt lat="40.399121" lon="-7.685647">
        <ele>828.02</ele>
        <time>2010-01-01T01:12:43Z</time>
      </trkpt>
      <trkpt lat="40.398725" lon="-7.686428">
        <ele>821.008</ele>
        <time>2010-01-01T01:13:07Z</time>
      </trkpt>
      <trkpt lat="40.39774" lon="-7.687365">
        <ele>810.085</ele>
        <time>2010-01-01T01:13:47Z</time>
      </trkpt>
      <trkpt lat="40.397844" lon="-7.687866">
        <ele>808.038</ele>
        <time>2010-01-01T01:14:01Z</time>
      </trkpt>
      <trkpt lat="40.397628" lon="-7.689163">
        <ele>827.041</ele>
        <time>2010-01-01T01:14:34Z</time>
      </trkpt>
      <trkpt lat="40.397627" lon="-7.689802">
        <ele>835.097</ele>
        <time>2010-01-01T01:14:51Z</time>
      </trkpt>
      <trkpt lat="40.397403" lon="-7.690979">
        <ele>837.04</ele>
        <time>2010-01-01T01:15:21Z</time>
      </trkpt>
      <trkpt lat="40.397456" lon="-7.69136">
        <ele>838.039</ele>
        <time>2010-01-01T01:15:31Z</time>
      </trkpt>
      <trkpt lat="40.397029" lon="-7.692351">
        <ele>835.093</ele>
        <time>2010-01-01T01:16:00Z</time>
      </trkpt>
      <trkpt lat="40.397167" lon="-7.693569">
        <ele>833.076</ele>
        <time>2010-01-01T01:16:31Z</time>
      </trkpt>
      <trkpt lat="40.397114" lon="-7.69397">
        <ele>831.029</ele>
        <time>2010-01-01T01:16:42Z</time>
      </trkpt>
      <trkpt lat="40.396868" lon="-7.694262">
        <ele>824.0</ele>
        <time>2010-01-01T01:16:53Z</time>
      </trkpt>
      <trkpt lat="40.396552" lon="-7.694564">
        <ele>823.02</ele>
        <time>2010-01-01T01:17:06Z</time>
      </trkpt>
      <trkpt lat="40.396269" lon="-7.694662">
        <ele>822.008</ele>
        <time>2010-01-01T01:17:16Z</time>
      </trkpt>
      <trkpt lat="40.395929" lon="-7.694657">
        <ele>814.045</ele>
        <time>2010-01-01T01:17:27Z</time>
      </trkpt>
      <trkpt lat="40.395659" lon="-7.694615">
        <ele>808.098</ele>
        <time>2010-01-01T01:17:36Z</time>
      </trkpt>
      <trkpt lat="40.394971" lon="-7.694653">
        <ele>802.061</ele>
        <time>2010-01-01T01:17:59Z</time>
      </trkpt>
      <trkpt lat="40.394841" lon="-7.694431">
        <ele>803.087</ele>
        <time>2010-01-01T01:18:06Z</time>
      </trkpt>
      <trkpt lat="40.394494" lon="-7.69439">
        <ele>802.05</ele>
        <time>2010-01-01T01:18:18Z</time>
      </trkpt>
      <trkpt lat="40.394355" lon="-7.693861">
        <ele>802.079</ele>
        <time>2010-01-01T01:18:32Z</time>
      </trkpt>
      <trkpt lat="40.393997" lon="-7.69355">
        <ele>800.063</ele>
        <time>2010-01-01T01:18:46Z</time>
      </trkpt>
      <trkpt lat="40.39388" lon="-7.693049">
        <ele>800.096</ele>
        <time>2010-01-01T01:19:00Z</time>
      </trkpt>
      <trkpt lat="40.393911" lon="-7.692537">
        <ele>804.068</ele>
        <time>2010-01-01T01:19:13Z</time>
      </trkpt>
      <trkpt lat="40.393759" lon="-7.692232">
        <ele>804.042</ele>
        <time>2010-01-01T01:19:22Z</time>
      </trkpt>
      <trkpt lat="40.393546" lon="-7.692133">
        <ele>801.026</ele>
        <time>2010-01-01T01:19:29Z</time>
      </trkpt>
      <trkpt lat="40.393096" lon="-7.692186">
        <ele>801.008</ele>
        <time>2010-01-01T01:19:44Z</time>
      </trkpt>
      <trkpt lat="40.392972" lon="-7.692532">
        <ele>800.089</ele>
        <time>2010-01-01T01:19:54Z</time>
      </trkpt>
      <trkpt lat="40.392826" lon="-7.692972">
        <ele>798.072</ele>
        <time>2010-01-01T01:20:06Z</time>
      </trkpt>
      <trkpt lat="40.392503" lon="-7.693256">
        <ele>799.035</ele>
        <time>2010-01-01T01:20:19Z</time>
      </trkpt>
      <trkpt lat="40.39213" lon="-7.693606">
        <ele>800.021</ele>
        <time>2010-01-01T01:20:35Z</time>
      </trkpt>
      <trkpt lat="40.392039" lon="-7.693898">
        <ele>800.024</ele>
        <time>2010-01-01T01:20:43Z</time>
      </trkpt>
      <trkpt lat="40.392005" lon="-7.69415">
        <ele>798.053</ele>
        <time>2010-01-01T01:20:49Z</time>
      </trkpt>
      <trkpt lat="40.391811" lon="-7.694646">
        <ele>807.077</ele>
        <time>2010-01-01T01:21:03Z</time>
      </trkpt>
      <trkpt lat="40.391823" lon="-7.695205">
        <ele>807.04</ele>
        <time>2010-01-01T01:21:18Z</time>
      </trkpt>
      <trkpt lat="40.39192" lon="-7.695734">
        <ele>804.057</ele>
        <time>2010-01-01T01:21:31Z</time>
      </trkpt>
      <trkpt lat="40.391967" lon="-7.696357">
        <ele>809.0</ele>
        <time>2010-01-01T01:21:47Z</time>
      </trkpt>
      <trkpt lat="40.392042" lon="-7.697624">
        <ele>806.02</ele>
        <time>2010-01-01T01:22:20Z</time>
      </trkpt>
      <trkpt lat="40.392212" lon="-7.698487">
        <ele>807.008</ele>
        <time>2010-01-01T01:22:42Z</time>
      </trkpt>
      <trkpt lat="40.392763" lon="-7.699028">
        <ele>800.018</ele>
        <time>2010-01-01T01:23:05Z</time>
      </trkpt>
      <trkpt lat="40.392786" lon="-7.699214">
        <ele>800.061</ele>
        <time>2010-01-01T01:23:10Z</time>
      </trkpt>
      <trkpt lat="40.392625" lon="-7.699431">
        <ele>805.044</ele>
        <time>2010-01-01T01:23:18Z</time>
      </trkpt>
      <trkpt lat="40.392388" lon="-7.699909">
        <ele>803.04</ele>
        <time>2010-01-01T01:23:32Z</time>
      </trkpt>
      <trkpt lat="40.392007" lon="-7.700522">
        <ele>809.063</ele>
        <time>2010-01-01T01:23:52Z</time>
      </trkpt>
      <trkpt lat="40.391492" lon="-7.701683">
        <ele>810.062</ele>
        <time>2010-01-01T01:24:26Z</time>
      </trkpt>
      <trkpt lat="40.391043" lon="-7.702276">
        <ele>811.026</ele>
        <time>2010-01-01T01:24:48Z</time>
      </trkpt>
      <trkpt lat="40.390651" lon="-7.702831">
        <ele>803.029</ele>
        <time>2010-01-01T01:25:07Z</time>
      </trkpt>
      <trkpt lat="40.390306" lon="-7.703097">
        <ele>790.088</ele>
        <time>2010-01-01T01:25:20Z</time>
      </trkpt>
      <trkpt lat="40.390093" lon="-7.703054">
        <ele>792.024</ele>
        <time>2010-01-01T01:25:27Z</time>
      </trkpt>
      <trkpt lat="40.389879" lon="-7.703015">
        <ele>795.026</ele>
        <time>2010-01-01T01:25:35Z</time>
      </trkpt>
      <trkpt lat="40.389525" lon="-7.703104">
        <ele>795.008</ele>
        <time>2010-01-01T01:25:47Z</time>
      </trkpt>
      <trkpt lat="40.389363" lon="-7.703171">
        <ele>794.021</ele>
        <time>2010-01-01T01:25:52Z</time>
      </trkpt>
      <trkpt lat="40.389334" lon="-7.703069">
        <ele>798.014</ele>
        <time>2010-01-01T01:25:55Z</time>
      </trkpt>
      <trkpt lat="40.389432" lon="-7.702928">
        <ele>803.087</ele>
        <time>2010-01-01T01:26:00Z</time>
      </trkpt>
      <trkpt lat="40.389452" lon="-7.702797">
        <ele>808.043</ele>
        <time>2010-01-01T01:26:03Z</time>
      </trkpt>
      <trkpt lat="40.389212" lon="-7.702894">
        <ele>805.036</ele>
        <time>2010-01-01T01:26:12Z</time>
      </trkpt>
      <trkpt lat="40.389055" lon="-7.702794">
        <ele>804.085</ele>
        <time>2010-01-01T01:26:17Z</time>
      </trkpt>
      <trkpt lat="40.388912" lon="-7.702712">
        <ele>801.059</ele>
        <time>2010-01-01T01:26:23Z</time>
      </trkpt>
      <trkpt lat="40.388961" lon="-7.702563">
        <ele>806.042</ele>
        <time>2010-01-01T01:26:27Z</time>
      </trkpt>
      <trkpt lat="40.388923" lon="-7.702275">
        <ele>808.055</ele>
        <time>2010-01-01T01:26:34Z</time>
      </trkpt>
      <trkpt lat="40.388829" lon="-7.702062">
        <ele>805.007</ele>
        <time>2010-01-01T01:26:41Z</time>
      </trkpt>
      <trkpt lat="40.388805" lon="-7.701829">
        <ele>806.017</ele>
        <time>2010-01-01T01:26:46Z</time>
      </trkpt>
      <trkpt lat="40.388832" lon="-7.701643">
        <ele>810.008</ele>
        <time>2010-01-01T01:26:51Z</time>
      </trkpt>
      <trkpt lat="40.388901" lon="-7.701353">
        <ele>814.078</ele>
        <time>2010-01-01T01:26:59Z</time>
      </trkpt>
      <trkpt lat="40.388919" lon="-7.701018">
        <ele>810.051</ele>
        <time>2010-01-01T01:27:08Z</time>
      </trkpt>
      <trkpt lat="40.388988" lon="-7.700766">
        <ele>811.084</ele>
        <time>2010-01-01T01:27:14Z</time>
      </trkpt>
      <trkpt lat="40.389099" lon="-7.700475">
        <ele>816.03</ele>
        <time>2010-01-01T01:27:23Z</time>
      </trkpt>
      <trkpt lat="40.389111" lon="-7.70028">
        <ele>814.043</ele>
        <time>2010-01-01T01:27:28Z</time>
      </trkpt>
      <trkpt lat="40.389016" lon="-7.699862">
        <ele>814.042</ele>
        <time>2010-01-01T01:27:39Z</time>
      </trkpt>
      <trkpt lat="40.388749" lon="-7.699345">
        <ele>811.046</ele>
        <time>2010-01-01T01:27:55Z</time>
      </trkpt>
      <trkpt lat="40.388428" lon="-7.699089">
        <ele>809.039</ele>
        <time>2010-01-01T01:28:07Z</time>
      </trkpt>
      <trkpt lat="40.388262" lon="-7.698821">
        <ele>811.056</ele>
        <time>2010-01-01T01:28:16Z</time>
      </trkpt>
      <trkpt lat="40.388192" lon="-7.698215">
        <ele>812.059</ele>
        <time>2010-01-01T01:28:31Z</time>
      </trkpt>
      <trkpt lat="40.388273" lon="-7.697683">
        <ele>814.014</ele>
        <time>2010-01-01T01:28:45Z</time>
      </trkpt>
      <trkpt lat="40.388446" lon="-7.697262">
        <ele>810.008</ele>
        <time>2010-01-01T01:28:57Z</time>
      </trkpt>
      <trkpt lat="40.388672" lon="-7.697082">
        <ele>814.068</ele>
        <time>2010-01-01T01:29:06Z</time>
      </trkpt>
      <trkpt lat="40.388847" lon="-7.696828">
        <ele>817.021</ele>
        <time>2010-01-01T01:29:15Z</time>
      </trkpt>
      <trkpt lat="40.388543" lon="-7.697">
        <ele>810.064</ele>
        <time>2010-01-01T01:29:26Z</time>
      </trkpt>
      <trkpt lat="40.388324" lon="-7.697022">
        <ele>806.07</ele>
        <time>2010-01-01T01:29:33Z</time>
      </trkpt>
      <trkpt lat="40.388091" lon="-7.697193">
        <ele>800.023</ele>
        <time>2010-01-01T01:29:42Z</time>
      </trkpt>
      <trkpt lat="40.387814" lon="-7.697169">
        <ele>792.052</ele>
        <time>2010-01-01T01:29:51Z</time>
      </trkpt>
      <trkpt lat="40.38763" lon="-7.697153">
        <ele>788.016</ele>
        <time>2010-01-01T01:29:58Z</time>
      </trkpt>
      <trkpt lat="40.387388" lon="-7.697082">
        <ele>784.039</ele>
        <time>2010-01-01T01:30:06Z</time>
      </trkpt>
      <trkpt lat="40.387202" lon="-7.69688">
        <ele>781.073</ele>
        <time>2010-01-01T01:30:14Z</time>
      </trkpt>
      <trkpt lat="40.387123" lon="-7.696704">
        <ele>781.085</ele>
        <time>2010-01-01T01:30:19Z</time>
      </trkpt>
      <trkpt lat="40.387121" lon="-7.696499">
        <ele>782.013</ele>
        <time>2010-01-01T01:30:24Z</time>
      </trkpt>
      <trkpt lat="40.386846" lon="-7.696727">
        <ele>773.008</ele>
        <time>2010-01-01T01:30:35Z</time>
      </trkpt>
      <trkpt lat="40.386844" lon="-7.696839">
        <ele>772.03</ele>
        <time>2010-01-01T01:30:38Z</time>
      </trkpt>
      <trkpt lat="40.386782" lon="-7.696874">
        <ele>770.083</ele>
        <time>2010-01-01T01:30:40Z</time>
      </trkpt>
      <trkpt lat="40.386681" lon="-7.6968">
        <ele>766.036</ele>
        <time>2010-01-01T01:30:44Z</time>
      </trkpt>
      <trkpt lat="40.386587" lon="-7.696951">
        <ele>761.072</ele>
        <time>2010-01-01T01:30:49Z</time>
      </trkpt>
      <trkpt lat="40.386522" lon="-7.696881">
        <ele>758.015</ele>
        <time>2010-01-01T01:30:52Z</time>
      </trkpt>
      <trkpt lat="40.386484" lon="-7.697001">
        <ele>755.024</ele>
        <time>2010-01-01T01:30:55Z</time>
      </trkpt>
      <trkpt lat="40.386515" lon="-7.697107">
        <ele>757.078</ele>
        <time>2010-01-01T01:30:58Z</time>
      </trkpt>
      <trkpt lat="40.386468" lon="-7.697227">
        <ele>754.021</ele>
        <time>2010-01-01T01:31:01Z</time>
      </trkpt>
      <trkpt lat="40.38653" lon="-7.697361">
        <ele>757.094</ele>
        <time>2010-01-01T01:31:05Z</time>
      </trkpt>
      <trkpt lat="40.386184" lon="-7.697401">
        <ele>741.057</ele>
        <time>2010-01-01T01:31:17Z</time>
      </trkpt>
      <trkpt lat="40.386115" lon="-7.697308">
        <ele>737.022</ele>
        <time>2010-01-01T01:31:20Z</time>
      </trkpt>
      <trkpt lat="40.386072" lon="-7.697259">
        <ele>735.008</ele>
        <time>2010-01-01T01:31:22Z</time>
      </trkpt>
      <trkpt lat="40.386014" lon="-7.697345">
        <ele>733.062</ele>
        <time>2010-01-01T01:31:25Z</time>
      </trkpt>
      <trkpt lat="40.38599" lon="-7.69748">
        <ele>733.065</ele>
        <time>2010-01-01T01:31:29Z</time>
      </trkpt>
      <trkpt lat="40.385849" lon="-7.69769">
        <ele>725.018</ele>
        <time>2010-01-01T01:31:36Z</time>
      </trkpt>
      <trkpt lat="40.385713" lon="-7.697749">
        <ele>720.054</ele>
        <time>2010-01-01T01:31:41Z</time>
      </trkpt>
      <trkpt lat="40.385826" lon="-7.697895">
        <ele>719.097</ele>
        <time>2010-01-01T01:31:46Z</time>
      </trkpt>
      <trkpt lat="40.385919" lon="-7.698055">
        <ele>717.046</ele>
        <time>2010-01-01T01:31:51Z</time>
      </trkpt>
      <trkpt lat="40.385958" lon="-7.698132">
        <ele>715.09</ele>
        <time>2010-01-01T01:31:53Z</time>
      </trkpt>
      <trkpt lat="40.385412" lon="-7.698111">
        <ele>702.033</ele>
        <time>2010-01-01T01:32:12Z</time>
      </trkpt>
      <trkpt lat="40.385185" lon="-7.698014">
        <ele>700.047</ele>
        <time>2010-01-01T01:32:20Z</time>
      </trkpt>
      <trkpt lat="40.385093" lon="-7.697714">
        <ele>705.029</ele>
        <time>2010-01-01T01:32:28Z</time>
      </trkpt>
      <trkpt lat="40.385145" lon="-7.697365">
        <ele>713.021</ele>
        <time>2010-01-01T01:32:37Z</time>
      </trkpt>
      <trkpt lat="40.385076" lon="-7.697278">
        <ele>715.008</ele>
        <time>2010-01-01T01:32:40Z</time>
      </trkpt>
      <trkpt lat="40.384904" lon="-7.697368">
        <ele>714.077</ele>
        <time>2010-01-01T01:32:46Z</time>
      </trkpt>
      <trkpt lat="40.384772" lon="-7.697567">
        <ele>711.08</ele>
        <time>2010-01-01T01:32:53Z</time>
      </trkpt>
      <trkpt lat="40.384617" lon="-7.697875">
        <ele>713.053</ele>
        <time>2010-01-01T01:33:02Z</time>
      </trkpt>
      <trkpt lat="40.384564" lon="-7.698197">
        <ele>712.029</ele>
        <time>2010-01-01T01:33:11Z</time>
      </trkpt>
      <trkpt lat="40.384484" lon="-7.698396">
        <ele>714.032</ele>
        <time>2010-01-01T01:33:16Z</time>
      </trkpt>
      <trkpt lat="40.384283" lon="-7.698781">
        <ele>713.071</ele>
        <time>2010-01-01T01:33:28Z</time>
      </trkpt>
      <trkpt lat="40.383902" lon="-7.699424">
        <ele>714.055</ele>
        <time>2010-01-01T01:33:49Z</time>
      </trkpt>
      <trkpt lat="40.383645" lon="-7.699675">
        <ele>721.028</ele>
        <time>2010-01-01T01:34:00Z</time>
      </trkpt>
      <trkpt lat="40.383339" lon="-7.700267">
        <ele>726.021</ele>
        <time>2010-01-01T01:34:18Z</time>
      </trkpt>
      <trkpt lat="40.383151" lon="-7.700563">
        <ele>724.041</ele>
        <time>2010-01-01T01:34:28Z</time>
      </trkpt>
      <trkpt lat="40.383097" lon="-7.700846">
        <ele>722.005</ele>
        <time>2010-01-01T01:34:35Z</time>
      </trkpt>
      <trkpt lat="40.383005" lon="-7.701068">
        <ele>723.008</ele>
        <time>2010-01-01T01:34:41Z</time>
      </trkpt>
      <trkpt lat="40.382861" lon="-7.701217">
        <ele>726.015</ele>
        <time>2010-01-01T01:34:47Z</time>
      </trkpt>
      <trkpt lat="40.382714" lon="-7.701331">
        <ele>729.098</ele>
        <time>2010-01-01T01:34:53Z</time>
      </trkpt>
      <trkpt lat="40.382604" lon="-7.701417">
        <ele>731.071</ele>
        <time>2010-01-01T01:34:57Z</time>
      </trkpt>
      <trkpt lat="40.382365" lon="-7.7018">
        <ele>735.087</ele>
        <time>2010-01-01T01:35:10Z</time>
      </trkpt>
      <trkpt lat="40.382251" lon="-7.702012">
        <ele>738.05</ele>
        <time>2010-01-01T01:35:17Z</time>
      </trkpt>
      <trkpt lat="40.382134" lon="-7.702268">
        <ele>743.049</ele>
        <time>2010-01-01T01:35:24Z</time>
      </trkpt>
      <trkpt lat="40.382059" lon="-7.702482">
        <ele>747.033</ele>
        <time>2010-01-01T01:35:30Z</time>
      </trkpt>
      <trkpt lat="40.381962" lon="-7.702969">
        <ele>744.066</ele>
        <time>2010-01-01T01:35:43Z</time>
      </trkpt>
      <trkpt lat="40.381753" lon="-7.703576">
        <ele>747.029</ele>
        <time>2010-01-01T01:36:00Z</time>
      </trkpt>
      <trkpt lat="40.381585" lon="-7.703884">
        <ele>749.0</ele>
        <time>2010-01-01T01:36:10Z</time>
      </trkpt>
      <trkpt lat="40.381579" lon="-7.704149">
        <ele>747.02</ele>
        <time>2010-01-01T01:36:16Z</time>
      </trkpt>
      <trkpt lat="40.381631" lon="-7.704371">
        <ele>745.008</ele>
        <time>2010-01-01T01:36:22Z</time>
      </trkpt>
      <trkpt lat="40.381579" lon="-7.704506">
        <ele>744.035</ele>
        <time>2010-01-01T01:36:26Z</time>
      </trkpt>
      <trkpt lat="40.381152" lon="-7.704678">
        <ele>744.088</ele>
        <time>2010-01-01T01:36:41Z</time>
      </trkpt>
      <trkpt lat="40.380869" lon="-7.704977">
        <ele>740.091</ele>
        <time>2010-01-01T01:36:53Z</time>
      </trkpt>
      <trkpt lat="40.380698" lon="-7.705108">
        <ele>744.047</ele>
        <time>2010-01-01T01:37:00Z</time>
      </trkpt>
      <trkpt lat="40.38068" lon="-7.705486">
        <ele>737.02</ele>
        <time>2010-01-01T01:37:09Z</time>
      </trkpt>
      <trkpt lat="40.380592" lon="-7.705691">
        <ele>736.049</ele>
        <time>2010-01-01T01:37:15Z</time>
      </trkpt>
      <trkpt lat="40.380242" lon="-7.706179">
        <ele>742.033</ele>
        <time>2010-01-01T01:37:32Z</time>
      </trkpt>
      <trkpt lat="40.379993" lon="-7.706486">
        <ele>744.046</ele>
        <time>2010-01-01T01:37:44Z</time>
      </trkpt>
      <trkpt lat="40.379765" lon="-7.706966">
        <ele>749.036</ele>
        <time>2010-01-01T01:37:58Z</time>
      </trkpt>
      <trkpt lat="40.379423" lon="-7.707608">
        <ele>746.017</ele>
        <time>2010-01-01T01:38:18Z</time>
      </trkpt>
      <trkpt lat="40.379225" lon="-7.707818">
        <ele>744.018</ele>
        <time>2010-01-01T01:38:26Z</time>
      </trkpt>
      <trkpt lat="40.379083" lon="-7.707915">
        <ele>742.008</ele>
        <time>2010-01-01T01:38:32Z</time>
      </trkpt>
      <trkpt lat="40.378912" lon="-7.7079">
        <ele>743.036</ele>
        <time>2010-01-01T01:38:37Z</time>
      </trkpt>
      <trkpt lat="40.378454" lon="-7.707662">
        <ele>746.049</ele>
        <time>2010-01-01T01:38:54Z</time>
      </trkpt>
      <trkpt lat="40.378265" lon="-7.70761">
        <ele>745.082</ele>
        <time>2010-01-01T01:39:00Z</time>
      </trkpt>
      <trkpt lat="40.378153" lon="-7.707656">
        <ele>743.018</ele>
        <time>2010-01-01T01:39:04Z</time>
      </trkpt>
      <trkpt lat="40.377749" lon="-7.708002">
        <ele>738.031</ele>
        <time>2010-01-01T01:39:20Z</time>
      </trkpt>
      <trkpt lat="40.377489" lon="-7.708076">
        <ele>741.01</ele>
        <time>2010-01-01T01:39:29Z</time>
      </trkpt>
      <trkpt lat="40.377183" lon="-7.708114">
        <ele>743.064</ele>
        <time>2010-01-01T01:39:39Z</time>
      </trkpt>
      <trkpt lat="40.377148" lon="-7.708198">
        <ele>742.067</ele>
        <time>2010-01-01T01:39:42Z</time>
      </trkpt>
      <trkpt lat="40.3771" lon="-7.708215">
        <ele>742.035</ele>
        <time>2010-01-01T01:39:44Z</time>
      </trkpt>
      <trkpt lat="40.377037" lon="-7.708142">
        <ele>742.086</ele>
        <time>2010-01-01T01:39:46Z</time>
      </trkpt>
      <trkpt lat="40.377025" lon="-7.708163">
        <ele>742.014</ele>
        <time>2010-01-01T01:39:47Z</time>
      </trkpt>
      <trkpt lat="40.376991" lon="-7.708194">
        <ele>742.008</ele>
        <time>2010-01-01T01:39:48Z</time>
      </trkpt>
      <trkpt lat="40.376942" lon="-7.708153">
        <ele>742.016</ele>
        <time>2010-01-01T01:39:50Z</time>
      </trkpt>
      <trkpt lat="40.37689" lon="-7.708228">
        <ele>740.089</ele>
        <time>2010-01-01T01:39:53Z</time>
      </trkpt>
      <trkpt lat="40.376915" lon="-7.708288">
        <ele>740.022</ele>
        <time>2010-01-01T01:39:55Z</time>
      </trkpt>
      <trkpt lat="40.376888" lon="-7.708313">
        <ele>739.038</ele>
        <time>2010-01-01T01:39:56Z</time>
      </trkpt>
      <trkpt lat="40.376836" lon="-7.708329">
        <ele>738.081</ele>
        <time>2010-01-01T01:39:58Z</time>
      </trkpt>
      <trkpt lat="40.376815" lon="-7.708393">
        <ele>737.02</ele>
        <time>2010-01-01T01:39:59Z</time>
      </trkpt>
      <trkpt lat="40.376694" lon="-7.708506">
        <ele>735.064</ele>
        <time>2010-01-01T01:40:04Z</time>
      </trkpt>
      <trkpt lat="40.376627" lon="-7.708626">
        <ele>733.077</ele>
        <time>2010-01-01T01:40:08Z</time>
      </trkpt>
      <trkpt lat="40.376587" lon="-7.708694">
        <ele>732.078</ele>
        <time>2010-01-01T01:40:10Z</time>
      </trkpt>
      <trkpt lat="40.376476" lon="-7.708544">
        <ele>731.033</ele>
        <time>2010-01-01T01:40:16Z</time>
      </trkpt>
      <trkpt lat="40.376359" lon="-7.70862">
        <ele>728.026</ele>
        <time>2010-01-01T01:40:20Z</time>
      </trkpt>
      <trkpt lat="40.376243" lon="-7.708717">
        <ele>726.008</ele>
        <time>2010-01-01T01:40:25Z</time>
      </trkpt>
      <trkpt lat="40.376094" lon="-7.708792">
        <ele>723.09</ele>
        <time>2010-01-01T01:40:30Z</time>
      </trkpt>
      <trkpt lat="40.375966" lon="-7.708722">
        <ele>721.053</ele>
        <time>2010-01-01T01:40:34Z</time>
      </trkpt>
      <trkpt lat="40.375848" lon="-7.708687">
        <ele>720.016</ele>
        <time>2010-01-01T01:40:39Z</time>
      </trkpt>
      <trkpt lat="40.375694" lon="-7.708661">
        <ele>718.092</ele>
        <time>2010-01-01T01:40:44Z</time>
      </trkpt>
      <trkpt lat="40.375542" lon="-7.708578">
        <ele>719.015</ele>
        <time>2010-01-01T01:40:49Z</time>
      </trkpt>
      <trkpt lat="40.375423" lon="-7.708584">
        <ele>719.074</ele>
        <time>2010-01-01T01:40:53Z</time>
      </trkpt>
      <trkpt lat="40.37518" lon="-7.708587">
        <ele>719.098</ele>
        <time>2010-01-01T01:41:01Z</time>
      </trkpt>
      <trkpt lat="40.374774" lon="-7.708711">
        <ele>723.071</ele>
        <time>2010-01-01T01:41:15Z</time>
      </trkpt>
      <trkpt lat="40.374365" lon="-7.708836">
        <ele>728.067</ele>
        <time>2010-01-01T01:41:29Z</time>
      </trkpt>
      <trkpt lat="40.373882" lon="-7.709022">
        <ele>734.081</ele>
        <time>2010-01-01T01:41:46Z</time>
      </trkpt>
      <trkpt lat="40.373373" lon="-7.709262">
        <ele>741.019</ele>
        <time>2010-01-01T01:42:04Z</time>
      </trkpt>
      <trkpt lat="40.373249" lon="-7.709319">
        <ele>743.008</ele>
        <time>2010-01-01T01:42:08Z</time>
      </trkpt>
      <trkpt lat="40.373166" lon="-7.709487">
        <ele>743.029</ele>
        <time>2010-01-01T01:42:13Z</time>
      </trkpt>
      <trkpt lat="40.373224" lon="-7.709596">
        <ele>740.092</ele>
        <time>2010-01-01T01:42:17Z</time>
      </trkpt>
      <trkpt lat="40.373324" lon="-7.709687">
        <ele>737.095</ele>
        <time>2010-01-01T01:42:21Z</time>
      </trkpt>
      <trkpt lat="40.373338" lon="-7.709774">
        <ele>736.081</ele>
        <time>2010-01-01T01:42:23Z</time>
      </trkpt>
      <trkpt lat="40.373279" lon="-7.709824">
        <ele>736.094</ele>
        <time>2010-01-01T01:42:26Z</time>
      </trkpt>
      <trkpt lat="40.373032" lon="-7.709879">
        <ele>740.053</ele>
        <time>2010-01-01T01:42:34Z</time>
      </trkpt>
      <trkpt lat="40.372786" lon="-7.709912">
        <ele>747.097</ele>
        <time>2010-01-01T01:42:42Z</time>
      </trkpt>
      <trkpt lat="40.372686" lon="-7.709867">
        <ele>751.06</ele>
        <time>2010-01-01T01:42:46Z</time>
      </trkpt>
      <trkpt lat="40.372513" lon="-7.709919">
        <ele>754.098</ele>
        <time>2010-01-01T01:42:52Z</time>
      </trkpt>
      <trkpt lat="40.3723" lon="-7.710035">
        <ele>754.015</ele>
        <time>2010-01-01T01:42:59Z</time>
      </trkpt>
      <trkpt lat="40.372218" lon="-7.710123">
        <ele>753.026</ele>
        <time>2010-01-01T01:43:03Z</time>
      </trkpt>
      <trkpt lat="40.37183" lon="-7.710108">
        <ele>760.008</ele>
        <time>2010-01-01T01:43:16Z</time>
      </trkpt>
      <trkpt lat="40.371671" lon="-7.710243">
        <ele>760.042</ele>
        <time>2010-01-01T01:43:22Z</time>
      </trkpt>
      <trkpt lat="40.371685" lon="-7.710404">
        <ele>754.035</ele>
        <time>2010-01-01T01:43:26Z</time>
      </trkpt>
      <trkpt lat="40.371601" lon="-7.710534">
        <ele>752.058</ele>
        <time>2010-01-01T01:43:31Z</time>
      </trkpt>
      <trkpt lat="40.371224" lon="-7.710856">
        <ele>737.094</ele>
        <time>2010-01-01T01:43:46Z</time>
      </trkpt>
      <trkpt lat="40.370968" lon="-7.710889">
        <ele>745.047</ele>
        <time>2010-01-01T01:43:54Z</time>
      </trkpt>
      <trkpt lat="40.370762" lon="-7.710863">
        <ele>758.046</ele>
        <time>2010-01-01T01:44:01Z</time>
      </trkpt>
      <trkpt lat="40.370317" lon="-7.711542">
        <ele>762.08</ele>
        <time>2010-01-01T01:44:24Z</time>
      </trkpt>
      <trkpt lat="40.370269" lon="-7.711731">
        <ele>761.043</ele>
        <time>2010-01-01T01:44:29Z</time>
      </trkpt>
      <trkpt lat="40.370295" lon="-7.711887">
        <ele>756.083</ele>
        <time>2010-01-01T01:44:33Z</time>
      </trkpt>
      <trkpt lat="40.370109" lon="-7.712276">
        <ele>755.025</ele>
        <time>2010-01-01T01:44:45Z</time>
      </trkpt>
      <trkpt lat="40.369991" lon="-7.712384">
        <ele>759.017</ele>
        <time>2010-01-01T01:44:49Z</time>
      </trkpt>
      <trkpt lat="40.369848" lon="-7.712383">
        <ele>765.008</ele>
        <time>2010-01-01T01:44:54Z</time>
      </trkpt>
      <trkpt lat="40.369469" lon="-7.712867">
        <ele>765.071</ele>
        <time>2010-01-01T01:45:12Z</time>
      </trkpt>
      <trkpt lat="40.368915" lon="-7.713544">
        <ele>777.034</ele>
        <time>2010-01-01T01:45:37Z</time>
      </trkpt>
      <trkpt lat="40.368718" lon="-7.714021">
        <ele>775.057</ele>
        <time>2010-01-01T01:45:51Z</time>
      </trkpt>
      <trkpt lat="40.368453" lon="-7.714234">
        <ele>782.023</ele>
        <time>2010-01-01T01:46:01Z</time>
      </trkpt>
      <trkpt lat="40.368073" lon="-7.714906">
        <ele>782.076</ele>
        <time>2010-01-01T01:46:22Z</time>
      </trkpt>
      <trkpt lat="40.367562" lon="-7.715372">
        <ele>797.015</ele>
        <time>2010-01-01T01:46:43Z</time>
      </trkpt>
      <trkpt lat="40.36745" lon="-7.715652">
        <ele>792.059</ele>
        <time>2010-01-01T01:46:51Z</time>
      </trkpt>
      <trkpt lat="40.367371" lon="-7.715718">
        <ele>793.062</ele>
        <time>2010-01-01T01:46:54Z</time>
      </trkpt>
      <trkpt lat="40.367337" lon="-7.715796">
        <ele>792.068</ele>
        <time>2010-01-01T01:46:57Z</time>
      </trkpt>
      <trkpt lat="40.366914" lon="-7.716088">
        <ele>793.042</ele>
        <time>2010-01-01T01:47:13Z</time>
      </trkpt>
      <trkpt lat="40.366672" lon="-7.716181">
        <ele>791.026</ele>
        <time>2010-01-01T01:47:21Z</time>
      </trkpt>
      <trkpt lat="40.366475" lon="-7.7165">
        <ele>783.008</ele>
        <time>2010-01-01T01:47:31Z</time>
      </trkpt>
      <trkpt lat="40.366291" lon="-7.716556">
        <ele>783.059</ele>
        <time>2010-01-01T01:47:38Z</time>
      </trkpt>
      <trkpt lat="40.365914" lon="-7.717083">
        <ele>778.042</ele>
        <time>2010-01-01T01:47:56Z</time>
      </trkpt>
      <trkpt lat="40.365668" lon="-7.717232">
        <ele>779.025</ele>
        <time>2010-01-01T01:48:05Z</time>
      </trkpt>
      <trkpt lat="40.365565" lon="-7.717243">
        <ele>780.021</ele>
        <time>2010-01-01T01:48:09Z</time>
      </trkpt>
      <trkpt lat="40.36545" lon="-7.717227">
        <ele>782.084</ele>
        <time>2010-01-01T01:48:12Z</time>
      </trkpt>
      <trkpt lat="40.365302" lon="-7.717236">
        <ele>785.073</ele>
        <time>2010-01-01T01:48:17Z</time>
      </trkpt>
      <trkpt lat="40.365232" lon="-7.717258">
        <ele>786.087</ele>
        <time>2010-01-01T01:48:20Z</time>
      </trkpt>
      <trkpt lat="40.365082" lon="-7.717542">
        <ele>786.01</ele>
        <time>2010-01-01T01:48:29Z</time>
      </trkpt>
      <trkpt lat="40.365028" lon="-7.717707">
        <ele>785.047</ele>
        <time>2010-01-01T01:48:33Z</time>
      </trkpt>
      <trkpt lat="40.365026" lon="-7.717869">
        <ele>784.029</ele>
        <time>2010-01-01T01:48:37Z</time>
      </trkpt>
      <trkpt lat="40.365057" lon="-7.718069">
        <ele>783.021</ele>
        <time>2010-01-01T01:48:42Z</time>
      </trkpt>
      <trkpt lat="40.365168" lon="-7.718144">
        <ele>782.008</ele>
        <time>2010-01-01T01:48:47Z</time>
      </trkpt>
      <trkpt lat="40.365543" lon="-7.718299">
        <ele>777.017</ele>
        <time>2010-01-01T01:49:00Z</time>
      </trkpt>
      <trkpt lat="40.366059" lon="-7.718697">
        <ele>778.05</ele>
        <time>2010-01-01T01:49:20Z</time>
      </trkpt>
      <trkpt lat="40.365596" lon="-7.718727">
        <ele>784.013</ele>
        <time>2010-01-01T01:49:35Z</time>
      </trkpt>
      <trkpt lat="40.365247" lon="-7.718721">
        <ele>789.029</ele>
        <time>2010-01-01T01:49:47Z</time>
      </trkpt>
      <trkpt lat="40.364856" lon="-7.718747">
        <ele>797.062</ele>
        <time>2010-01-01T01:50:00Z</time>
      </trkpt>
      <trkpt lat="40.364484" lon="-7.718838">
        <ele>802.041</ele>
        <time>2010-01-01T01:50:12Z</time>
      </trkpt>
      <trkpt lat="40.364224" lon="-7.718978">
        <ele>807.045</ele>
        <time>2010-01-01T01:50:22Z</time>
      </trkpt>
      <trkpt lat="40.363968" lon="-7.718601">
        <ele>800.088</ele>
        <time>2010-01-01T01:50:35Z</time>
      </trkpt>
      <trkpt lat="40.363829" lon="-7.718434">
        <ele>801.036</ele>
        <time>2010-01-01T01:50:41Z</time>
      </trkpt>
      <trkpt lat="40.363163" lon="-7.718564">
        <ele>800.017</ele>
        <time>2010-01-01T01:51:03Z</time>
      </trkpt>
      <trkpt lat="40.362684" lon="-7.718659">
        <ele>801.018</ele>
        <time>2010-01-01T01:51:20Z</time>
      </trkpt>
      <trkpt lat="40.362411" lon="-7.718803">
        <ele>800.008</ele>
        <time>2010-01-01T01:51:29Z</time>
      </trkpt>
      <trkpt lat="40.362127" lon="-7.718876">
        <ele>800.036</ele>
        <time>2010-01-01T01:51:39Z</time>
      </trkpt>
      <trkpt lat="40.361746" lon="-7.719056">
        <ele>792.089</ele>
        <time>2010-01-01T01:51:53Z</time>
      </trkpt>
      <trkpt lat="40.361558" lon="-7.719049">
        <ele>790.052</ele>
        <time>2010-01-01T01:51:59Z</time>
      </trkpt>
      <trkpt lat="40.36142" lon="-7.719064">
        <ele>789.018</ele>
        <time>2010-01-01T01:52:03Z</time>
      </trkpt>
      <trkpt lat="40.361345" lon="-7.719062">
        <ele>788.091</ele>
        <time>2010-01-01T01:52:06Z</time>
      </trkpt>
      <trkpt lat="40.360941" lon="-7.718757">
        <ele>782.02</ele>
        <time>2010-01-01T01:52:22Z</time>
      </trkpt>
      <trkpt lat="40.360799" lon="-7.718365">
        <ele>784.024</ele>
        <time>2010-01-01T01:52:33Z</time>
      </trkpt>
      <trkpt lat="40.36067" lon="-7.71825">
        <ele>780.077</ele>
        <time>2010-01-01T01:52:38Z</time>
      </trkpt>
      <trkpt lat="40.360519" lon="-7.718019">
        <ele>775.095</ele>
        <time>2010-01-01T01:52:45Z</time>
      </trkpt>
      <trkpt lat="40.360322" lon="-7.717796">
        <ele>771.049</ele>
        <time>2010-01-01T01:52:54Z</time>
      </trkpt>
      <trkpt lat="40.360014" lon="-7.71718">
        <ele>762.023</ele>
        <time>2010-01-01T01:53:13Z</time>
      </trkpt>
      <trkpt lat="40.359831" lon="-7.716967">
        <ele>755.008</ele>
        <time>2010-01-01T01:53:21Z</time>
      </trkpt>
      <trkpt lat="40.359536" lon="-7.716869">
        <ele>746.092</ele>
        <time>2010-01-01T01:53:31Z</time>
      </trkpt>
      <trkpt lat="40.359537" lon="-7.716474">
        <ele>744.055</ele>
        <time>2010-01-01T01:53:41Z</time>
      </trkpt>
      <trkpt lat="40.359504" lon="-7.716287">
        <ele>744.018</ele>
        <time>2010-01-01T01:53:46Z</time>
      </trkpt>
      <trkpt lat="40.35927" lon="-7.716164">
        <ele>740.014</ele>
        <time>2010-01-01T01:53:55Z</time>
      </trkpt>
      <trkpt lat="40.359047" lon="-7.716419">
        <ele>733.067</ele>
        <time>2010-01-01T01:54:04Z</time>
      </trkpt>
      <trkpt lat="40.358923" lon="-7.716467">
        <ele>730.046</ele>
        <time>2010-01-01T01:54:09Z</time>
      </trkpt>
      <trkpt lat="40.358765" lon="-7.716697">
        <ele>727.09</ele>
        <time>2010-01-01T01:54:17Z</time>
      </trkpt>
      <trkpt lat="40.358547" lon="-7.716988">
        <ele>725.083</ele>
        <time>2010-01-01T01:54:27Z</time>
      </trkpt>
      <trkpt lat="40.358426" lon="-7.716778">
        <ele>722.076</ele>
        <time>2010-01-01T01:54:34Z</time>
      </trkpt>
      <trkpt lat="40.358331" lon="-7.716701">
        <ele>721.09</ele>
        <time>2010-01-01T01:54:37Z</time>
      </trkpt>
      <trkpt lat="40.358249" lon="-7.716642">
        <ele>719.019</ele>
        <time>2010-01-01T01:54:41Z</time>
      </trkpt>
      <trkpt lat="40.3579" lon="-7.716487">
        <ele>713.008</ele>
        <time>2010-01-01T01:54:53Z</time>
      </trkpt>
      <trkpt lat="40.357847" lon="-7.715782">
        <ele>718.02</ele>
        <time>2010-01-01T01:55:11Z</time>
      </trkpt>
      <trkpt lat="40.357828" lon="-7.71624099">
        <ele>713.0</ele>
      </trkpt>
      <trkpt lat="40.357805" lon="-7.71667">
        <ele>711.0</ele>
      </trkpt>
      <trkpt lat="40.357631" lon="-7.717387">
        <ele>707.0</ele>
      </trkpt>
      <trkpt lat="40.357799" lon="-7.71775599">
        <ele>705.0</ele>
      </trkpt>
      <trkpt lat="40.358004" lon="-7.718033">
        <ele>704.0</ele>
      </trkpt>
      <trkpt lat="40.358129" lon="-7.718319">
        <ele>702.0</ele>
      </trkpt>
      <trkpt lat="40.358428" lon="-7.718968">
        <ele>698.0</ele>
      </trkpt>
      <trkpt lat="40.358691" lon="-7.719364">
        <ele>700.0</ele>
      </trkpt>
      <trkpt lat="40.358482" lon="-7.719385">
        <ele>694.0</ele>
      </trkpt>
      <trkpt lat="40.358157" lon="-7.719373">
        <ele>688.0</ele>
      </trkpt>
      <trkpt lat="40.357775" lon="-7.7195">
        <ele>678.0</ele>
      </trkpt>
      <trkpt lat="40.357534" lon="-7.719549">
        <ele>681.0</ele>
      </trkpt>
      <trkpt lat="40.357222" lon="-7.719379">
        <ele>688.0</ele>
      </trkpt>
      <trkpt lat="40.357039" lon="-7.719376">
        <ele>690.0</ele>
      </trkpt>
      <trkpt lat="40.356639" lon="-7.71949">
        <ele>696.0</ele>
      </trkpt>
      <trkpt lat="40.356611" lon="-7.719616">
        <ele>696.0</ele>
      </trkpt>
      <trkpt lat="40.35667" lon="-7.719765">
        <ele>695.0</ele>
      </trkpt>
      <trkpt lat="40.356795" lon="-7.72091">
        <ele>707.0</ele>
      </trkpt>
      <trkpt lat="40.35719" lon="-7.721758">
        <ele>703.0</ele>
      </trkpt>
      <trkpt lat="40.357195" lon="-7.722139">
        <ele>707.0</ele>
      </trkpt>
      <trkpt lat="40.357532" lon="-7.722616">
        <ele>707.0</ele>
      </trkpt>
      <trkpt lat="40.357611" lon="-7.722892">
        <ele>711.0</ele>
      </trkpt>
      <trkpt lat="40.357606" lon="-7.723452">
        <ele>720.0</ele>
      </trkpt>
      <trkpt lat="40.357696" lon="-7.72388">
        <ele>720.0</ele>
      </trkpt>
      <trkpt lat="40.357767" lon="-7.724075">
        <ele>719.0</ele>
      </trkpt>
      <trkpt lat="40.357848" lon="-7.724268">
        <ele>717.0</ele>
      </trkpt>
      <trkpt lat="40.357901" lon="-7.72450399">
        <ele>717.0</ele>
      </trkpt>
      <trkpt lat="40.357828" lon="-7.724917">
        <ele>726.0</ele>
      </trkpt>
      <trkpt lat="40.358119" lon="-7.725708">
        <ele>722.0</ele>
      </trkpt>
      <trkpt lat="40.358164" lon="-7.725912">
        <ele>722.0</ele>
      </trkpt>
      <trkpt lat="40.358636" lon="-7.727254">
        <ele>725.0</ele>
      </trkpt>
      <trkpt lat="40.359126" lon="-7.727895">
        <ele>717.0</ele>
      </trkpt>
      <trkpt lat="40.359372" lon="-7.72853">
        <ele>717.0</ele>
      </trkpt>
      <trkpt lat="40.359672" lon="-7.729651">
        <ele>718.0</ele>
      </trkpt>
      <trkpt lat="40.360082" lon="-7.730799">
        <ele>720.0</ele>
      </trkpt>
      <trkpt lat="40.360284" lon="-7.73142199">
        <ele>723.0</ele>
      </trkpt>
      <trkpt lat="40.360569" lon="-7.731904">
        <ele>724.0</ele>
      </trkpt>
      <trkpt lat="40.360856" lon="-7.732655">
        <ele>725.0</ele>
      </trkpt>
      <trkpt lat="40.360871" lon="-7.73327899">
        <ele>725.0</ele>
      </trkpt>
      <trkpt lat="40.360871" lon="-7.733317">
        <ele>725.0</ele>
      </trkpt>
      <trkpt lat="40.360598" lon="-7.733713">
        <ele>733.0</ele>
      </trkpt>
      <trkpt lat="40.360583" lon="-7.73375">
        <ele>733.0</ele>
      </trkpt>
      <trkpt lat="40.360252" lon="-7.734232">
        <ele>736.0</ele>
      </trkpt>
      <trkpt lat="40.35994" lon="-7.734244">
        <ele>741.0</ele>
      </trkpt>
      <trkpt lat="40.359999" lon="-7.733707">
        <ele>745.0</ele>
      </trkpt>
      <trkpt lat="40.360044" lon="-7.733131">
        <ele>750.0</ele>
      </trkpt>
      <trkpt lat="40.359749" lon="-7.73251699">
        <ele>760.0</ele>
      </trkpt>
      <trkpt lat="40.359265" lon="-7.732342">
        <ele>767.0</ele>
      </trkpt>
      <trkpt lat="40.3575316" lon="-7.7312614">
        <ele>787.0</ele>
      </trkpt>
      <trkpt lat="40.3572927" lon="-7.731047">
        <ele>792.0</ele>
      </trkpt>
      <trkpt lat="40.3577352" lon="-7.7309796">
        <ele>795.0</ele>
      </trkpt>
      <trkpt lat="40.3580737" lon="-7.73073335">
        <ele>795.0</ele>
      </trkpt>
      <trkpt lat="40.3581652" lon="-7.73036577">
        <ele>795.0</ele>
      </trkpt>
      <trkpt lat="40.3579953" lon="-7.72971588">
        <ele>796.0</ele>
      </trkpt>
      <trkpt lat="40.3577466" lon="-7.73002794">
        <ele>801.0</ele>
      </trkpt>
      <trkpt lat="40.3574901" lon="-7.73011776">
        <ele>806.0</ele>
      </trkpt>
      <trkpt lat="40.3571164" lon="-7.7301215">
        <ele>810.0</ele>
      </trkpt>
      <trkpt lat="40.3571421" lon="-7.72901107">
        <ele>818.0</ele>
      </trkpt>
      <trkpt lat="40.354936" lon="-7.725649">
        <ele>861.0</ele>
      </trkpt>
      <trkpt lat="40.353697" lon="-7.724803">
        <ele>874.0</ele>
      </trkpt>
      <trkpt lat="40.353026" lon="-7.72354699">
        <ele>880.0</ele>
      </trkpt>
      <trkpt lat="40.350663" lon="-7.72111">
        <ele>905.0</ele>
      </trkpt>
      <trkpt lat="40.349409" lon="-7.719037">
        <ele>922.0</ele>
      </trkpt>
      <trkpt lat="40.348112" lon="-7.71775599">
        <ele>938.0</ele>
      </trkpt>
      <trkpt lat="40.346907" lon="-7.716872">
        <ele>954.0</ele>
      </trkpt>
      <trkpt lat="40.346455" lon="-7.715327">
        <ele>981.0</ele>
      </trkpt>
      <trkpt lat="40.344067" lon="-7.71420499">
        <ele>982.0</ele>
      </trkpt>
      <trkpt lat="40.343013" lon="-7.713729">
        <ele>984.0</ele>
      </trkpt>
      <trkpt lat="40.342134" lon="-7.713912">
        <ele>986.0</ele>
      </trkpt>
      <trkpt lat="40.341319" lon="-7.71433">
        <ele>985.0</ele>
      </trkpt>
      <trkpt lat="40.340937" lon="-7.714141">
        <ele>983.0</ele>
      </trkpt>
      <trkpt lat="40.339873" lon="-7.716004">
        <ele>970.0</ele>
      </trkpt>
      <trkpt lat="40.339843" lon="-7.716683">
        <ele>972.0</ele>
      </trkpt>
      <trkpt lat="40.3400669" lon="-7.71735728">
        <ele>965.0</ele>
      </trkpt>
      <trkpt lat="40.3398799" lon="-7.71803933">
        <ele>960.0</ele>
      </trkpt>
      <trkpt lat="40.3397361" lon="-7.71806329">
        <ele>964.0</ele>
      </trkpt>
      <trkpt lat="40.3396098" lon="-7.71792447">
        <ele>969.0</ele>
      </trkpt>
      <trkpt lat="40.3397525" lon="-7.71696057">
        <ele>973.0</ele>
      </trkpt>
      <trkpt lat="40.3395791" lon="-7.71668639">
        <ele>977.0</ele>
      </trkpt>
      <trkpt lat="40.339092" lon="-7.716481">
        <ele>977.0</ele>
      </trkpt>
      <trkpt lat="40.338225" lon="-7.716926">
        <ele>975.0</ele>
      </trkpt>
      <trkpt lat="40.337179" lon="-7.71820999">
        <ele>979.0</ele>
      </trkpt>
      <trkpt lat="40.336647" lon="-7.718169">
        <ele>970.0</ele>
      </trkpt>
      <trkpt lat="40.335751" lon="-7.718623">
        <ele>972.0</ele>
      </trkpt>
      <trkpt lat="40.335582" lon="-7.719228">
        <ele>986.0</ele>
      </trkpt>
      <trkpt lat="40.334455" lon="-7.718991">
        <ele>977.0</ele>
      </trkpt>
      <trkpt lat="40.333418" lon="-7.719791">
        <ele>982.0</ele>
      </trkpt>
      <trkpt lat="40.332932" lon="-7.71991">
        <ele>981.0</ele>
      </trkpt>
      <trkpt lat="40.332536" lon="-7.719811">
        <ele>975.0</ele>
      </trkpt>
      <trkpt lat="40.332048" lon="-7.719999">
        <ele>974.0</ele>
      </trkpt>
      <trkpt lat="40.331854" lon="-7.720552">
        <ele>974.0</ele>
      </trkpt>
      <trkpt lat="40.331936" lon="-7.721491">
        <ele>980.0</ele>
      </trkpt>
      <trkpt lat="40.331293" lon="-7.721516">
        <ele>971.0</ele>
      </trkpt>
      <trkpt lat="40.330714" lon="-7.722057">
        <ele>967.0</ele>
      </trkpt>
      <trkpt lat="40.330224" lon="-7.723278">
        <ele>967.0</ele>
      </trkpt>
      <trkpt lat="40.330144" lon="-7.724062">
        <ele>966.0</ele>
      </trkpt>
      <trkpt lat="40.330067" lon="-7.724647">
        <ele>962.0</ele>
      </trkpt>
      <trkpt lat="40.330236" lon="-7.725271">
        <ele>960.0</ele>
      </trkpt>
      <trkpt lat="40.331213" lon="-7.726997">
        <ele>955.0</ele>
      </trkpt>
      <trkpt lat="40.33175" lon="-7.72707499">
        <ele>956.0</ele>
      </trkpt>
      <trkpt lat="40.332146" lon="-7.726836">
        <ele>954.0</ele>
      </trkpt>
      <trkpt lat="40.334143" lon="-7.72761199">
        <ele>941.0</ele>
      </trkpt>
      <trkpt lat="40.334416" lon="-7.728069">
        <ele>941.0</ele>
      </trkpt>
      <trkpt lat="40.334923" lon="-7.728093">
        <ele>944.0</ele>
      </trkpt>
      <trkpt lat="40.33563" lon="-7.72795099">
        <ele>956.0</ele>
      </trkpt>
      <trkpt lat="40.335842" lon="-7.728002">
        <ele>959.0</ele>
      </trkpt>
      <trkpt lat="40.336196" lon="-7.728952">
        <ele>960.0</ele>
      </trkpt>
      <trkpt lat="40.336261" lon="-7.729558">
        <ele>965.0</ele>
      </trkpt>
      <trkpt lat="40.33669" lon="-7.730276">
        <ele>979.0</ele>
      </trkpt>
      <trkpt lat="40.336926" lon="-7.730257">
        <ele>980.0</ele>
      </trkpt>
      <trkpt lat="40.337133" lon="-7.730373">
        <ele>975.0</ele>
      </trkpt>
      <trkpt lat="40.336897" lon="-7.731246">
        <ele>975.0</ele>
      </trkpt>
      <trkpt lat="40.33669" lon="-7.732953">
        <ele>976.0</ele>
      </trkpt>
      <trkpt lat="40.335566" lon="-7.73501">
        <ele>979.0</ele>
      </trkpt>
      <trkpt lat="40.334651" lon="-7.735889">
        <ele>981.0</ele>
      </trkpt>
      <trkpt lat="40.334126" lon="-7.73631699">
        <ele>979.0</ele>
      </trkpt>
      <trkpt lat="40.333298" lon="-7.737066">
        <ele>976.0</ele>
      </trkpt>
      <trkpt lat="40.333253" lon="-7.738929">
        <ele>969.0</ele>
      </trkpt>
      <trkpt lat="40.333244" lon="-7.739511">
        <ele>968.0</ele>
      </trkpt>
      <trkpt lat="40.333334" lon="-7.74024">
        <ele>966.0</ele>
      </trkpt>
      <trkpt lat="40.333186" lon="-7.742762">
        <ele>964.0</ele>
      </trkpt>
      <trkpt lat="40.333472" lon="-7.743911">
        <ele>959.0</ele>
      </trkpt>
      <trkpt lat="40.333058" lon="-7.745948">
        <ele>944.0</ele>
      </trkpt>
      <trkpt lat="40.332522" lon="-7.74655799">
        <ele>948.0</ele>
      </trkpt>
      <trkpt lat="40.33206" lon="-7.74851">
        <ele>936.0</ele>
      </trkpt>
      <trkpt lat="40.331426" lon="-7.749603">
        <ele>928.0</ele>
      </trkpt>
      <trkpt lat="40.331425" lon="-7.750395">
        <ele>919.0</ele>
      </trkpt>
      <trkpt lat="40.331057" lon="-7.751496">
        <ele>916.0</ele>
      </trkpt>
      <trkpt lat="40.331012" lon="-7.75528">
        <ele>895.0</ele>
      </trkpt>
      <trkpt lat="40.330818" lon="-7.755769">
        <ele>890.0</ele>
      </trkpt>
      <trkpt lat="40.330818" lon="-7.757535">
        <ele>879.0</ele>
      </trkpt>
      <trkpt lat="40.330256" lon="-7.758563">
        <ele>869.0</ele>
      </trkpt>
      <trkpt lat="40.330242" lon="-7.75881499">
        <ele>874.0</ele>
      </trkpt>
      <trkpt lat="40.329413" lon="-7.759436">
        <ele>861.0</ele>
      </trkpt>
      <trkpt lat="40.329088" lon="-7.76005699">
        <ele>854.0</ele>
      </trkpt>
      <trkpt lat="40.328792" lon="-7.760173">
        <ele>845.0</ele>
      </trkpt>
      <trkpt lat="40.328482" lon="-7.760134">
        <ele>835.0</ele>
      </trkpt>
      <trkpt lat="40.327535" lon="-7.760484">
        <ele>819.0</ele>
      </trkpt>
      <trkpt lat="40.327313" lon="-7.760619">
        <ele>814.0</ele>
      </trkpt>
      <trkpt lat="40.326278" lon="-7.761007">
        <ele>790.0</ele>
      </trkpt>
      <trkpt lat="40.325435" lon="-7.761803">
        <ele>776.0</ele>
      </trkpt>
      <trkpt lat="40.325154" lon="-7.761745">
        <ele>777.0</ele>
      </trkpt>
      <trkpt lat="40.324841" lon="-7.761872">
        <ele>775.0</ele>
      </trkpt>
      <trkpt lat="40.323066" lon="-7.764433">
        <ele>760.0</ele>
      </trkpt>
      <trkpt lat="40.320228" lon="-7.76663399">
        <ele>744.0</ele>
      </trkpt>
      <trkpt lat="40.318719" lon="-7.76675">
        <ele>746.0</ele>
      </trkpt>
      <trkpt lat="40.317847" lon="-7.767177">
        <ele>728.0</ele>
      </trkpt>
      <trkpt lat="40.317669" lon="-7.76715699">
        <ele>725.0</ele>
      </trkpt>
      <trkpt lat="40.316959" lon="-7.766769">
        <ele>721.0</ele>
      </trkpt>
      <trkpt lat="40.316826" lon="-7.766731">
        <ele>721.0</ele>
      </trkpt>
      <trkpt lat="40.316634" lon="-7.766769">
        <ele>720.0</ele>
      </trkpt>
      <trkpt lat="40.316486" lon="-7.767545">
        <ele>704.0</ele>
      </trkpt>
      <trkpt lat="40.316234" lon="-7.767798">
        <ele>701.0</ele>
      </trkpt>
      <trkpt lat="40.316145" lon="-7.768574">
        <ele>688.0</ele>
      </trkpt>
      <trkpt lat="40.315406" lon="-7.76919499">
        <ele>674.0</ele>
      </trkpt>
      <trkpt lat="40.31474" lon="-7.769311">
        <ele>661.0</ele>
      </trkpt>
      <trkpt lat="40.31474" lon="-7.769757">
        <ele>653.0</ele>
      </trkpt>
      <trkpt lat="40.315066" lon="-7.770456">
        <ele>643.0</ele>
      </trkpt>
      <trkpt lat="40.315435" lon="-7.77062999">
        <ele>637.0</ele>
      </trkpt>
      <trkpt lat="40.315554" lon="-7.770921">
        <ele>631.0</ele>
      </trkpt>
      <trkpt lat="40.315465" lon="-7.772105">
        <ele>618.0</ele>
      </trkpt>
      <trkpt lat="40.315894" lon="-7.773987">
        <ele>589.0</ele>
      </trkpt>
      <trkpt lat="40.315258" lon="-7.773463">
        <ele>593.0</ele>
      </trkpt>
      <trkpt lat="40.315066" lon="-7.773385">
        <ele>593.0</ele>
      </trkpt>
      <trkpt lat="40.314178" lon="-7.773657">
        <ele>582.0</ele>
      </trkpt>
      <trkpt lat="40.313631" lon="-7.773637">
        <ele>576.0</ele>
      </trkpt>
      <trkpt lat="40.313586" lon="-7.774025">
        <ele>571.0</ele>
      </trkpt>
      <trkpt lat="40.313335" lon="-7.774258">
        <ele>568.0</ele>
      </trkpt>
      <trkpt lat="40.313113" lon="-7.774821">
        <ele>562.0</ele>
      </trkpt>
      <trkpt lat="40.313054" lon="-7.775752">
        <ele>550.0</ele>
      </trkpt>
      <trkpt lat="40.313024" lon="-7.776315">
        <ele>539.0</ele>
      </trkpt>
      <trkpt lat="40.312817" lon="-7.776431">
        <ele>537.0</ele>
      </trkpt>
      <trkpt lat="40.312107" lon="-7.77582999">
        <ele>537.0</ele>
      </trkpt>
      <trkpt lat="40.311959" lon="-7.77582999">
        <ele>537.0</ele>
      </trkpt>
      <trkpt lat="40.311781" lon="-7.776063">
        <ele>530.0</ele>
      </trkpt>
      <trkpt lat="40.310243" lon="-7.7768">
        <ele>513.0</ele>
      </trkpt>
      <trkpt lat="40.309444" lon="-7.777227">
        <ele>500.0</ele>
      </trkpt>
      <trkpt lat="40.309725" lon="-7.777692">
        <ele>491.0</ele>
      </trkpt>
      <trkpt lat="40.309888" lon="-7.778701">
        <ele>464.0</ele>
      </trkpt>
      <trkpt lat="40.309902" lon="-7.779361">
        <ele>450.0</ele>
      </trkpt>
      <trkpt lat="40.309843" lon="-7.779826">
        <ele>443.0</ele>
      </trkpt>
      <trkpt lat="40.309976" lon="-7.780079">
        <ele>439.0</ele>
      </trkpt>
      <trkpt lat="40.310124" lon="-7.780156">
        <ele>433.0</ele>
      </trkpt>
      <trkpt lat="40.310435" lon="-7.78009799">
        <ele>419.0</ele>
      </trkpt>
      <trkpt lat="40.310287" lon="-7.781184">
        <ele>401.0</ele>
      </trkpt>
      <trkpt lat="40.310095" lon="-7.781631">
        <ele>397.0</ele>
      </trkpt>
      <trkpt lat="40.309799" lon="-7.782038">
        <ele>386.0</ele>
      </trkpt>
      <trkpt lat="40.309355" lon="-7.782348">
        <ele>371.0</ele>
      </trkpt>
      <trkpt lat="40.309148" lon="-7.782213">
        <ele>374.0</ele>
      </trkpt>
      <trkpt lat="40.308956" lon="-7.78194099">
        <ele>375.0</ele>
      </trkpt>
      <trkpt lat="40.308867" lon="-7.78198">
        <ele>372.0</ele>
      </trkpt>
      <trkpt lat="40.308675" lon="-7.782562">
        <ele>362.0</ele>
      </trkpt>
      <trkpt lat="40.308157" lon="-7.782911">
        <ele>347.0</ele>
      </trkpt>
      <trkpt lat="40.307521" lon="-7.782853">
        <ele>343.0</ele>
      </trkpt>
      <trkpt lat="40.307387" lon="-7.782678">
        <ele>344.0</ele>
      </trkpt>
      <trkpt lat="40.306929" lon="-7.782698">
        <ele>334.0</ele>
      </trkpt>
      <trkpt lat="40.306736" lon="-7.782775">
        <ele>332.0</ele>
      </trkpt>
      <trkpt lat="40.307018" lon="-7.782833">
        <ele>332.0</ele>
      </trkpt>
      <trkpt lat="40.307343" lon="-7.782969">
        <ele>337.0</ele>
      </trkpt>
      <trkpt lat="40.307106" lon="-7.783008">
        <ele>331.0</ele>
      </trkpt>
      <trkpt lat="40.306485" lon="-7.783125">
        <ele>323.0</ele>
      </trkpt>
      <trkpt lat="40.306115" lon="-7.782969">
        <ele>327.0</ele>
      </trkpt>
      <trkpt lat="40.305715" lon="-7.783144">
        <ele>320.0</ele>
      </trkpt>
      <trkpt lat="40.305153" lon="-7.782756">
        <ele>315.0</ele>
      </trkpt>
      <trkpt lat="40.304857" lon="-7.782756">
        <ele>309.0</ele>
      </trkpt>
      <trkpt lat="40.304428" lon="-7.783125">
        <ele>300.0</ele>
      </trkpt>
      <trkpt lat="40.304192" lon="-7.783222">
        <ele>296.0</ele>
      </trkpt>
      <trkpt lat="40.303984" lon="-7.783047">
        <ele>292.0</ele>
      </trkpt>
      <trkpt lat="40.303748" lon="-7.783047">
        <ele>289.0</ele>
      </trkpt>
      <trkpt lat="40.303422" lon="-7.782601">
        <ele>296.0</ele>
      </trkpt>
      <trkpt lat="40.303008" lon="-7.782368">
        <ele>298.0</ele>
      </trkpt>
      <trkpt lat="40.301691" lon="-7.782833">
        <ele>293.0</ele>
      </trkpt>
      <trkpt lat="40.300759" lon="-7.783571">
        <ele>297.0</ele>
      </trkpt>
      <trkpt lat="40.300108" lon="-7.784754">
        <ele>308.0</ele>
      </trkpt>
      <trkpt lat="40.299901" lon="-7.785608">
        <ele>303.0</ele>
      </trkpt>
      <trkpt lat="40.299619" lon="-7.785744">
        <ele>303.0</ele>
      </trkpt>
      <trkpt lat="40.298732" lon="-7.785472">
        <ele>301.0</ele>
      </trkpt>
      <trkpt lat="40.298007" lon="-7.784366">
        <ele>304.0</ele>
      </trkpt>
      <trkpt lat="40.297548" lon="-7.784114">
        <ele>311.0</ele>
      </trkpt>
      <trkpt lat="40.295861" lon="-7.784114">
        <ele>297.0</ele>
      </trkpt>
    </trkseg>
  </trk>
</gpx>
